Provisional Data: Ninemile Run near Walton, PA


Please select a monitoring station.
Please select start date.
Please select start date.

Toggle Unit: C/F Toggle Unit: C/F
Sample Time Temperature (C) Temperature (F) Specific Conductivity (mS/cm) pH   Turbidity (NTU+) DO (mg/L)
6/22/2021 12:00:00 AM 15.73 60.314 0.065 7.03 5.27 8.93
6/22/2021 12:15:00 AM 15.66 60.188 0.065 7.04 5.03 8.96
6/22/2021 12:30:00 AM 15.58 60.044 0.065 7.05 4.6 8.98
6/22/2021 12:45:00 AM 15.51 59.918 0.065 7.06 4.6 8.99
6/22/2021 1:00:00 AM 15.44 59.792 0.065 7.07 4.62 9
6/22/2021 1:15:00 AM 15.36 59.648 0.065 7.06 5.08 9.02
6/22/2021 1:30:00 AM 15.29 59.522 0.065 7.07 4.82 9.04
6/22/2021 1:45:00 AM 15.21 59.378 0.065 7.05 4.67 9.05
6/22/2021 2:00:00 AM 15.13 59.234 0.065 7.09 4.9 9.07
6/22/2021 2:15:00 AM 15.06 59.108 0.065 7.06 5.44 9.09
6/22/2021 2:30:00 AM 14.98 58.964 0.066 7.07 4.46 9.11
6/22/2021 2:45:00 AM 14.91 58.838 0.066 7.07 4.76 9.13
6/22/2021 3:00:00 AM 14.84 58.712 0.066 7.08 4.79 9.15
6/22/2021 3:15:00 AM 14.77 58.586 0.066 7.06 4.71 9.16
6/22/2021 3:30:00 AM 14.7 58.46 0.066 7.08 4.51 9.17
6/22/2021 3:45:00 AM 14.64 58.352 0.067 7.06 4.55 9.19
6/22/2021 4:00:00 AM 14.58 58.244 0.067 7.06 4.47 9.2
6/22/2021 4:15:00 AM 14.52 58.136 0.067 7.07 4.93 9.22
6/22/2021 4:30:00 AM 14.47 58.046 0.067 7.09 4.67 9.23
6/22/2021 4:45:00 AM 14.41 57.938 0.067 7.07 4.23 9.25
6/22/2021 5:00:00 AM 14.36 57.848 0.067 7.08 4.41 9.26
6/22/2021 5:15:00 AM 14.3 57.74 0.067 7.09 4.56 9.27
6/22/2021 5:30:00 AM 14.24 57.632 0.067 7.09 4.47 9.29
6/22/2021 5:45:00 AM 14.18 57.524 0.067 7.09 5.27 9.3
6/22/2021 6:00:00 AM 14.12 57.416 0.068 7.09 4.38 9.32
6/22/2021 6:15:00 AM 14.06 57.308 0.068 7.11 4.42 9.34
6/22/2021 6:30:00 AM 14.01 57.218 0.068 7.12 4.38 9.36
6/22/2021 6:45:00 AM 13.97 57.146 0.068 7.09 4.19 9.38
6/22/2021 7:00:00 AM 13.92 57.056 0.068 7.11 4.29 9.39
6/22/2021 7:15:00 AM 13.88 56.984 0.068 7.1 4.38 9.43
6/22/2021 7:30:00 AM 13.85 56.93 0.068 7.12 4.9 9.47
6/22/2021 7:45:00 AM 13.82 56.876 0.068 7.14 4.68 9.51
6/22/2021 8:00:00 AM 13.78 56.804 0.068 7.13 4.37 9.54
6/22/2021 8:15:00 AM 13.75 56.75 0.068 7.13 5.18 9.56
6/22/2021 8:30:00 AM 13.72 56.696 0.069 6.85 4.01 9.58
6/22/2021 8:45:00 AM 13.69 56.642 0.068 7.14 4.2 9.59
6/22/2021 9:00:00 AM 13.67 56.606 0.068 7.16 3.96 9.62
6/22/2021 9:15:00 AM 13.67 56.606 0.068 7.16 4.18 9.68
6/22/2021 9:30:00 AM 13.68 56.624 0.068 7.17 4.5 9.73
6/22/2021 9:45:00 AM 13.69 56.642 0.068 7.18 4.11 9.75
6/22/2021 10:00:00 AM 13.73 56.714 0.068 7.21 4.07 9.78
6/22/2021 10:15:00 AM 13.78 56.804 0.068 7.2 4.2 9.8
6/22/2021 10:30:00 AM 13.82 56.876 0.068 7.22 4.67 9.82
6/22/2021 10:45:00 AM 13.83 56.894 0.068 7.23 4.22 9.81
6/22/2021 11:00:00 AM 13.81 56.858 0.068 7.21 4.3 9.78
6/22/2021 11:15:00 AM 13.79 56.822 0.068 7.21 4.25 9.78
6/22/2021 11:30:00 AM 13.79 56.822 0.068 7.23 4.06 9.82
6/22/2021 11:45:00 AM 13.81 56.858 0.068 7.23 4.35 9.84
6/22/2021 12:00:00 PM 13.84 56.912 0.068 7.24 4.42 9.86
6/22/2021 12:15:00 PM 13.84 56.912 0.068 7.23 4.12 9.86
6/22/2021 12:30:00 PM 13.82 56.876 0.068 7.25 3.87 9.84
6/22/2021 12:45:00 PM 13.78 56.804 0.068 7.22 4.29 9.8
6/22/2021 1:00:00 PM 13.76 56.768 0.068 7.25 4.4 9.81
6/22/2021 1:15:00 PM 13.72 56.696 0.068 7.24 3.79 9.79
6/22/2021 1:30:00 PM 13.72 56.696 0.068 7.25 3.99 9.84
6/22/2021 1:45:00 PM 13.73 56.714 0.068 7.24 3.77 9.86
6/22/2021 2:00:00 PM 13.68 56.624 0.068 7.25 4.17 9.84
6/22/2021 2:15:00 PM 13.69 56.642 0.068 7.23 3.74 9.85
6/22/2021 2:30:00 PM 13.66 56.588 0.068 7.23 3.81 9.86
6/22/2021 2:45:00 PM 13.68 56.624 0.068 7.24 3.72 9.88
6/22/2021 3:00:00 PM 13.72 56.696 0.067 7.27 4.01 9.91
6/22/2021 3:15:00 PM 13.81 56.858 0.067 7.25 4.06 9.92
6/22/2021 3:30:00 PM 13.85 56.93 0.067 7.26 3.91 9.9
6/22/2021 3:45:00 PM 13.91 57.038 0.067 7.28 4.24 9.88
6/22/2021 4:00:00 PM 13.95 57.11 0.067 7.28 3.93 9.86
6/22/2021 4:15:00 PM 13.93 57.074 0.067 7.27 4.05 9.82
6/22/2021 4:30:00 PM 13.89 57.002 0.067 7.26 4.81 9.8
6/22/2021 4:45:00 PM 13.85 56.93 0.067 7.25 4 9.81
6/22/2021 5:00:00 PM 13.83 56.894 0.067 7.25 3.82 9.83
6/22/2021 5:15:00 PM 13.82 56.876 0.067 7.25 3.88 9.83
6/22/2021 5:30:00 PM 13.81 56.858 0.067 7.25 3.82 9.83
6/22/2021 5:45:00 PM 13.79 56.822 0.067 7.25 3.79 9.84
6/22/2021 6:00:00 PM 13.74 56.732 0.067 7.25 4.35 9.83
6/22/2021 6:15:00 PM 13.73 56.714 0.067 7.26 4.14 9.83
6/22/2021 6:30:00 PM 13.67 56.606 0.067 7.24 4.16 9.8
6/22/2021 6:45:00 PM 13.63 56.534 0.067 7.24 3.91 9.78
6/22/2021 7:00:00 PM 13.59 56.462 0.067 7.21 3.84 9.77
6/22/2021 7:15:00 PM 13.54 56.372 0.067 7.23 3.91 9.76
6/22/2021 7:30:00 PM 13.48 56.264 0.067 7.2 3.79 9.74
6/22/2021 7:45:00 PM 13.41 56.138 0.067 7.2 3.79 9.73
6/22/2021 8:00:00 PM 13.29 55.922 0.067 7.18 3.95 9.71
6/22/2021 8:15:00 PM 13.17 55.706 0.067 7.18 4.66 9.71
6/22/2021 8:30:00 PM 13.05 55.49 0.067 7.17 5.8 9.72
6/22/2021 8:45:00 PM 12.94 55.292 0.067 7.18 4.52 9.73
6/22/2021 9:00:00 PM 12.84 55.112 0.067 7.16 4.3 9.73
6/22/2021 9:15:00 PM 12.74 54.932 0.067 7.14 4.13 9.73
6/22/2021 9:30:00 PM 12.63 54.734 0.067 7.14 4.18 9.74
6/22/2021 9:45:00 PM 12.52 54.536 0.067 7.12 4.37 9.77
6/22/2021 10:00:00 PM 12.41 54.338 0.067 7.16 4.15 9.79
6/22/2021 10:15:00 PM 12.3 54.14 0.067 7.13 4.45 9.81
6/22/2021 10:30:00 PM 12.2 53.96 0.067 7.12 4 9.83
6/22/2021 10:45:00 PM 12.09 53.762 0.067 7.15 4.2 9.86
6/22/2021 11:00:00 PM 11.99 53.582 0.067 7.14 4.15 9.88
6/22/2021 11:15:00 PM 11.9 53.42 0.067 7.12 4.07 9.9
6/22/2021 11:30:00 PM 11.8 53.24 0.067 7.11 4.22 9.93
6/22/2021 11:45:00 PM 11.71 53.078 0.067 7.13 4.35 9.95
6/23/2021 12:00:00 AM 11.61 52.898 0.067 7.12 4.16 9.98
6/23/2021 12:15:00 AM 11.52 52.736 0.067 7.12 3.97 10
6/23/2021 12:30:00 AM 11.42 52.556 0.067 7.12 4.61 10.02
6/23/2021 12:45:00 AM 11.33 52.394 0.067 7.13 4.99 10.04
6/23/2021 1:00:00 AM 11.23 52.214 0.067 7.12 3.85 10.07
6/23/2021 1:15:00 AM 11.14 52.052 0.067 7.1 4.01 10.1
6/23/2021 1:30:00 AM 11.05 51.89 0.067 7.12 4.16 10.13
6/23/2021 1:45:00 AM 10.96 51.728 0.067 7.11 3.76 10.15
6/23/2021 2:00:00 AM 10.89 51.602 0.067 7.13 4.22 10.17
6/23/2021 2:15:00 AM 10.81 51.458 0.067 7.12 3.79 10.18
6/23/2021 2:30:00 AM 10.72 51.296 0.066 7.12 3.82 10.21
6/23/2021 2:45:00 AM 10.63 51.134 0.067 7.12 4.08 10.24
6/23/2021 3:00:00 AM 10.54 50.972 0.067 7.1 3.87 10.26
6/23/2021 3:15:00 AM 10.45 50.81 0.066 7.11 3.67 10.29
6/23/2021 3:30:00 AM 10.36 50.648 0.066 7.12 4.27 10.32
6/23/2021 3:45:00 AM 10.27 50.486 0.066 7.12 3.97 10.34
6/23/2021 4:00:00 AM 10.19 50.342 0.066 7.12 3.81 10.37
6/23/2021 4:15:00 AM 10.1 50.18 0.066 7.09 3.9 10.39
6/23/2021 4:30:00 AM 10.02 50.036 0.066 7.09 3.99 10.41
6/23/2021 4:45:00 AM 9.94 49.892 0.066 7.08 3.95 10.43
6/23/2021 5:00:00 AM 9.86 49.748 0.066 7.06 3.9 10.46
6/23/2021 5:15:00 AM 9.79 49.622 0.066 7.09 4.3 10.49
6/23/2021 5:30:00 AM 9.72 49.496 0.066 7.07 3.98 10.51
6/23/2021 5:45:00 AM 9.65 49.37 0.066 7.08 4.25 10.53
6/23/2021 6:00:00 AM 9.6 49.28 0.066 7.1 4.01 10.56
6/23/2021 6:15:00 AM 9.55 49.19 0.066 7.07 4.05 10.59
6/23/2021 6:30:00 AM 9.51 49.118 0.066 7.1 3.98 10.62
6/23/2021 6:45:00 AM 9.46 49.028 0.066 7.08 4.07 10.65
6/23/2021 7:00:00 AM 9.42 48.956 0.066 7.1 4.22 10.67
6/23/2021 7:15:00 AM 9.4 48.92 0.066 7.09 4.09 10.7
6/23/2021 7:30:00 AM 9.39 48.902 0.066 7.09 4.51 10.72
6/23/2021 7:45:00 AM 9.4 48.92 0.066 7.12 4 10.73
6/23/2021 8:00:00 AM 9.44 48.992 0.065 7.12 3.66 10.76
6/23/2021 8:15:00 AM 9.52 49.136 0.065 7.15 4.45 10.77
6/23/2021 8:30:00 AM 9.64 49.352 0.065 7.12 5.04 10.78
6/23/2021 8:45:00 AM 9.8 49.64 0.065 7.16 4.07 10.78
6/23/2021 9:00:00 AM 9.98 49.964 0.065 7.15 4.01 10.78
6/23/2021 9:15:00 AM 10.19 50.342 0.065 7.19 4.06 10.76
6/23/2021 9:30:00 AM 10.43 50.774 0.065 7.16 4.29 10.74
6/23/2021 9:45:00 AM 10.63 51.134 0.065 7.17 3.63 10.71
6/23/2021 10:00:00 AM 10.87 51.566 0.065 7.18 3.72 10.69
6/23/2021 10:15:00 AM 11.08 51.944 0.065 7.22 4.29 10.66
6/23/2021 10:30:00 AM 11.17 52.106 0.064 7.23 4.61 10.62
6/23/2021 10:45:00 AM 11.43 52.574 0.064 7.23 3.96 10.59
6/23/2021 11:00:00 AM 11.6 52.88 0.064 7.23 4.13 10.58
6/23/2021 11:15:00 AM 11.8 53.24 0.064 7.24 4.12 10.53
6/23/2021 11:30:00 AM 11.99 53.582 0.064 7.22 4.31 10.48
6/23/2021 11:45:00 AM 12.25 54.05 0.064 7.23 3.66 10.45
6/23/2021 12:00:00 PM 12.56 54.608 0.064 7.24 3.78 10.41
6/23/2021 12:15:00 PM 12.93 55.274 0.064 7.24 3.94 10.36
6/23/2021 12:30:00 PM 13.05 55.49 0.064 7.27 4.04 10.29
6/23/2021 12:45:00 PM 13.25 55.85 0.064 7.25 4.29 10.24
6/23/2021 1:00:00 PM 13.42 56.156 0.064 7.27 4.55 10.21
6/23/2021 1:15:00 PM 13.48 56.264 0.064 7.23 4.28 10.17
6/23/2021 1:30:00 PM 13.82 56.876 0.064 7.25 4.26 10.17
6/23/2021 1:45:00 PM 14.15 57.47 0.063 7.26 5 10.09
6/23/2021 2:00:00 PM 14.25 57.65 0.064 7.25 4.11 10.01
6/23/2021 2:15:00 PM 14.34 57.812 0.063 7.25 4.21 9.98
6/23/2021 2:30:00 PM 14.56 58.208 0.064 7.26 4.36 9.95
6/23/2021 2:45:00 PM 14.67 58.406 0.063 7.26 4.13 9.89
6/23/2021 3:00:00 PM 14.93 58.874 0.063 7.23 4.15 9.86
6/23/2021 3:15:00 PM 15.16 59.288 0.063 7.26 4.14 9.81
6/23/2021 3:30:00 PM 15.3 59.54 0.063 7.25 3.96 9.75
6/23/2021 3:45:00 PM 15.45 59.81 0.063 7.23 3.88 9.72
6/23/2021 4:00:00 PM 15.62 60.116 0.063 7.25 4.22 9.67
6/23/2021 4:15:00 PM 15.76 60.368 0.063 7.24 3.79 9.62
6/23/2021 4:30:00 PM 15.8 60.44 0.063 7.25 4.12 9.59
6/23/2021 4:45:00 PM 15.73 60.314 0.063 7.24 5.03 9.51
6/23/2021 5:00:00 PM 15.73 60.314 0.063 7.22 4.58 9.5
6/23/2021 5:15:00 PM 15.7 60.26 0.063 7.19 3.8 9.5
6/23/2021 5:30:00 PM 15.66 60.188 0.063 7.22 4.15 9.47
6/23/2021 5:45:00 PM 15.61 60.098 0.063 7.21 4.09 9.45
6/23/2021 6:00:00 PM 15.52 59.936 0.063 7.21 4.22 9.48
6/23/2021 6:15:00 PM 15.4 59.72 0.063 7.17 4.01 9.45
6/23/2021 6:30:00 PM 15.25 59.45 0.063 7.19 3.93 9.44
6/23/2021 6:45:00 PM 15.11 59.198 0.063 7.19 3.95 9.47
6/23/2021 7:00:00 PM 14.99 58.982 0.063 7.14 4.85 9.49
6/23/2021 7:15:00 PM 14.9 58.82 0.063 7.17 4.82 9.5
6/23/2021 7:30:00 PM 14.83 58.694 0.063 7.17 3.99 9.51
6/23/2021 7:45:00 PM 14.72 58.496 0.063 7.17 3.72 9.51
6/23/2021 8:00:00 PM 14.59 58.262 0.063 7.17 3.94 9.51
6/23/2021 8:15:00 PM 14.45 58.01 0.063 7.15 3.81 9.51
6/23/2021 8:30:00 PM 14.31 57.758 0.063 7.15 4 9.52
6/23/2021 8:45:00 PM 14.19 57.542 0.063 7.13 4.44 9.51
6/23/2021 9:00:00 PM 14.07 57.326 0.063 7.13 4 9.52
6/23/2021 9:15:00 PM 13.96 57.128 0.063 7.12 4.08 9.52
6/23/2021 9:30:00 PM 13.84 56.912 0.063 7.11 5.06 9.54
6/23/2021 9:45:00 PM 13.72 56.696 0.063 7.1 4.21 9.57
6/23/2021 10:00:00 PM 13.6 56.48 0.064 7.12 4.37 9.59
6/23/2021 10:15:00 PM 13.48 56.264 0.063 7.06 4.19 9.61
6/23/2021 10:30:00 PM 13.37 56.066 0.063 7.11 4.52 9.63
6/23/2021 10:45:00 PM 13.25 55.85 0.064 7.09 4.12 9.66
6/23/2021 11:00:00 PM 13.14 55.652 0.064 7.1 3.89 9.69
6/23/2021 11:15:00 PM 13.04 55.472 0.064 7.09 3.78 9.71
6/23/2021 11:30:00 PM 12.93 55.274 0.064 7.1 4.33 9.74
6/23/2021 11:45:00 PM 12.82 55.076 0.064 7.1 4.43 9.76
6/24/2021 12:00:00 AM 12.72 54.896 0.064 7.1 4.26 9.78
6/24/2021 12:15:00 AM 12.61 54.698 0.064 7.05 4.23 9.8
6/24/2021 12:30:00 AM 12.52 54.536 0.063 7.11 4.16 9.84
6/24/2021 12:45:00 AM 12.42 54.356 0.064 7.09 3.88 9.86
6/24/2021 1:00:00 AM 12.33 54.194 0.064 7.1 3.83 9.88
6/24/2021 1:15:00 AM 12.23 54.014 0.064 7.06 4.92 9.91
6/24/2021 1:30:00 AM 12.14 53.852 0.064 7.09 3.87 9.93
6/24/2021 1:45:00 AM 12.05 53.69 0.064 7.07 4.2 9.95
6/24/2021 2:00:00 AM 11.97 53.546 0.064 7.11 4.14 9.97
6/24/2021 2:15:00 AM 11.87 53.366 0.063 7.07 3.81 10
6/24/2021 2:30:00 AM 11.79 53.222 0.063 7.1 4.12 10.02
6/24/2021 2:45:00 AM 11.71 53.078 0.063 7.09 3.87 10.04
6/24/2021 3:00:00 AM 11.62 52.916 0.063 7.1 4.37 10.07
6/24/2021 3:15:00 AM 11.53 52.754 0.063 7.08 3.78 10.09
6/24/2021 3:30:00 AM 11.45 52.61 0.063 7.09 4.01 10.11
6/24/2021 3:45:00 AM 11.36 52.448 0.063 7.06 3.97 10.13
6/24/2021 4:00:00 AM 11.27 52.286 0.063 7.08 4.44 10.16
6/24/2021 4:15:00 AM 11.18 52.124 0.063 7.09 3.78 10.18
6/24/2021 4:30:00 AM 11.09 51.962 0.063 7.08 3.71 10.21
6/24/2021 4:45:00 AM 11.01 51.818 0.063 7.08 3.73 10.23
6/24/2021 5:00:00 AM 10.92 51.656 0.063 7.1 3.82 10.25
6/24/2021 5:15:00 AM 10.83 51.494 0.063 7.09 4.79 10.27
6/24/2021 5:30:00 AM 10.75 51.35 0.063 7.1 4.96 10.3
6/24/2021 5:45:00 AM 10.67 51.206 0.063 7.07 4.07 10.32
6/24/2021 6:00:00 AM 10.6 51.08 0.063 7.09 4.18 10.36
6/24/2021 6:15:00 AM 10.53 50.954 0.063 7.08 4.05 10.4
6/24/2021 6:30:00 AM 10.46 50.828 0.063 7.04 4.07 10.43
6/24/2021 6:45:00 AM 10.4 50.72 0.063 7.09 4.05 10.46
6/24/2021 7:00:00 AM 10.36 50.648 0.063 7.09 4 10.48
6/24/2021 7:15:00 AM 10.32 50.576 0.063 7.05 3.82 10.51
6/24/2021 7:30:00 AM 10.31 50.558 0.063 7.09 3.74 10.53
6/24/2021 7:45:00 AM 10.32 50.576 0.062 7.11 3.79 10.56
6/24/2021 8:00:00 AM 10.35 50.63 0.063 7.11 3.8 10.58
6/24/2021 8:15:00 AM 10.42 50.756 0.062 7.13 3.94 10.6
6/24/2021 8:30:00 AM 10.54 50.972 0.062 7.12 5.43 10.61
6/24/2021 8:45:00 AM 10.68 51.224 0.062 7.11 6.45 10.6
6/24/2021 9:00:00 AM 10.85 51.53 0.062 7.14 4.4 10.59
6/24/2021 9:15:00 AM 11.06 51.908 0.062 7.17 3.81 10.59
6/24/2021 9:30:00 AM 11.3 52.34 0.062 7.15 3.94 10.58
6/24/2021 9:45:00 AM 11.55 52.79 0.062 7.19 4.43 10.55
6/24/2021 10:00:00 AM 11.79 53.222 0.062 7.21 3.72 10.53
6/24/2021 10:15:00 AM 12.03 53.654 0.062 7.21 3.85 10.49
6/24/2021 10:30:00 AM 12.29 54.122 0.062 7.22 4.17 10.46
6/24/2021 10:45:00 AM 12.55 54.59 0.062 7.22 3.84 10.43
6/24/2021 11:00:00 AM 12.83 55.094 0.061 7.22 4.27 10.37
6/24/2021 11:15:00 AM 13.1 55.58 0.061 7.24 4.08 10.32
6/24/2021 11:30:00 AM 13.38 56.084 0.061 7.24 3.95 10.27
6/24/2021 11:45:00 AM 13.65 56.57 0.061 7.24 4.04 10.22
6/24/2021 12:00:00 PM 13.92 57.056 0.061 7.24 3.84 10.17
6/24/2021 12:15:00 PM 14.21 57.578 0.061 7.26 4.16 10.11
6/24/2021 12:30:00 PM 14.5 58.1 0.061 7.22 3.7 10.05
6/24/2021 12:45:00 PM 14.78 58.604 0.061 7.24 3.78 9.98
6/24/2021 1:00:00 PM 15.06 59.108 0.061 7.24 4.2 9.91
6/24/2021 1:15:00 PM 15.35 59.63 0.061 7.25 3.83 9.86
6/24/2021 1:30:00 PM 15.63 60.134 0.061 7.24 5.22 9.8
6/24/2021 1:45:00 PM 15.88 60.584 0.061 7.25 3.83 9.73
6/24/2021 2:00:00 PM 16.07 60.926 0.061 7.25 3.91 9.7
6/24/2021 2:15:00 PM 16.27 61.286 0.061 7.24 4.07 9.64
6/24/2021 2:30:00 PM 16.46 61.628 0.061 7.23 3.84 9.59
6/24/2021 2:45:00 PM 16.69 62.042 0.061 7.25 3.9 9.53
6/24/2021 3:00:00 PM 16.9 62.42 0.061 7.26 4.01 9.47
6/24/2021 3:15:00 PM 17.1 62.78 0.061 7.24 3.92 9.41
6/24/2021 3:30:00 PM 17.23 63.014 0.061 7.2 4.01 9.37
6/24/2021 3:45:00 PM 17.39 63.302 0.061 7.25 4.14 9.33
6/24/2021 4:00:00 PM 17.44 63.392 0.061 7.25 4.25 9.3
6/24/2021 4:15:00 PM 17.46 63.428 0.061 7.21 3.92 9.27
6/24/2021 4:30:00 PM 17.51 63.518 0.061 7.24 4.35 9.23
6/24/2021 4:45:00 PM 17.55 63.59 0.061 7.24 4.44 9.19
6/24/2021 5:00:00 PM 17.57 63.626 0.061 7.19 4.02 9.16
6/24/2021 5:15:00 PM 17.58 63.644 0.061 7.21 4.61 9.14
6/24/2021 5:30:00 PM 17.54 63.572 0.061 7.21 4.42 9.11
6/24/2021 5:45:00 PM 17.45 63.41 0.061 7.16 4.73 9.11
6/24/2021 6:00:00 PM 17.34 63.212 0.061 7.21 3.95 9.1
6/24/2021 6:15:00 PM 17.24 63.032 0.061 7.21 4.22 9.08
6/24/2021 6:30:00 PM 17.07 62.726 0.061 7.15 4.15 9.08
6/24/2021 6:45:00 PM 16.86 62.348 0.061 7.18 3.96 9.1
6/24/2021 7:00:00 PM 16.69 62.042 0.061 7.18 3.8 9.11
6/24/2021 7:15:00 PM 16.58 61.844 0.061 7.17 4.05 9.12
6/24/2021 7:30:00 PM 16.47 61.646 0.061 7.18 4.04 9.11
6/24/2021 7:45:00 PM 16.29 61.322 0.061 7.15 5.33 9.13
6/24/2021 8:00:00 PM 16.1 60.98 0.061 7.1 4.99 9.14
6/24/2021 8:15:00 PM 15.93 60.674 0.061 7.15 4.22 9.15
6/24/2021 8:30:00 PM 15.78 60.404 0.061 7.12 4.12 9.17
6/24/2021 8:45:00 PM 15.63 60.134 0.061 7.13 4.13 9.18
6/24/2021 9:00:00 PM 15.48 59.864 0.061 7.11 4.56 9.2
6/24/2021 9:15:00 PM 15.33 59.594 0.062 7.1 4.58 9.21
6/24/2021 9:30:00 PM 15.17 59.306 0.061 7.1 4.19 9.23
6/24/2021 9:45:00 PM 15.02 59.036 0.062 7.1 5.03 9.27
6/24/2021 10:00:00 PM 14.87 58.766 0.061 7.08 4.45 9.3
6/24/2021 10:15:00 PM 14.72 58.496 0.062 7.11 4.28 9.33
6/24/2021 10:30:00 PM 14.57 58.226 0.062 7.07 4.57 9.36
6/24/2021 10:45:00 PM 14.43 57.974 0.062 7.08 4.42 9.39
6/24/2021 11:00:00 PM 14.29 57.722 0.062 7.08 4.31 9.42
6/24/2021 11:15:00 PM 14.15 57.47 0.062 7.08 4.47 9.45
6/24/2021 11:30:00 PM 14.03 57.254 0.062 7.09 4.13 9.47
6/24/2021 11:45:00 PM 13.91 57.038 0.062 7.08 4.46 9.49
6/25/2021 12:00:00 AM 13.79 56.822 0.062 7.09 4.71 9.53
6/25/2021 12:15:00 AM 13.68 56.624 0.062 7.09 4.4 9.55
6/25/2021 12:30:00 AM 13.58 56.444 0.062 7.05 4.49 9.58
6/25/2021 12:45:00 AM 13.48 56.264 0.062 7.08 4.79 9.6
6/25/2021 1:00:00 AM 13.38 56.084 0.062 7.08 4.31 9.62
6/25/2021 1:15:00 AM 13.29 55.922 0.062 7.08 4.17 9.64
6/25/2021 1:30:00 AM 13.2 55.76 0.062 7.06 4.6 9.67
6/25/2021 1:45:00 AM 13.11 55.598 0.062 7.06 4.69 9.68
6/25/2021 2:00:00 AM 13.03 55.454 0.062 7.1 4.39 9.71
6/25/2021 2:15:00 AM 12.94 55.292 0.062 7.07 4.38 9.73
6/25/2021 2:30:00 AM 12.86 55.148 0.062 7.07 5.23 9.74
6/25/2021 2:45:00 AM 12.78 55.004 0.061 7.06 4.36 9.76
6/25/2021 3:00:00 AM 12.71 54.878 0.062 7.09 4.84 9.78
6/25/2021 3:15:00 AM 12.63 54.734 0.061 7.07 5.29 9.8
6/25/2021 3:30:00 AM 12.56 54.608 0.061 7.07 4.67 9.82
6/25/2021 3:45:00 AM 12.49 54.482 0.061 7.07 5.11 9.84
6/25/2021 4:00:00 AM 12.42 54.356 0.061 7.06 4.39 9.87
6/25/2021 4:15:00 AM 12.34 54.212 0.061 7.08 4.39 9.89
6/25/2021 4:30:00 AM 12.26 54.068 0.062 7.05 4.23 9.91
6/25/2021 4:45:00 AM 12.18 53.924 0.061 7.07 3.92 9.93
6/25/2021 5:00:00 AM 12.11 53.798 0.061 7.08 4.04 9.94
6/25/2021 5:15:00 AM 12.03 53.654 0.061 7.07 4.65 9.96
6/25/2021 5:30:00 AM 11.96 53.528 0.061 7.09 4.5 9.98
6/25/2021 5:45:00 AM 11.89 53.402 0.061 7.09 4.07 10
6/25/2021 6:00:00 AM 11.83 53.294 0.061 7.06 4.56 10.04
6/25/2021 6:15:00 AM 11.77 53.186 0.061 7.06 4.63 10.07
6/25/2021 6:30:00 AM 11.73 53.114 0.061 7.07 5.11 10.1
6/25/2021 6:45:00 AM 11.69 53.042 0.061 7.07 4.04 10.13
6/25/2021 7:00:00 AM 11.67 53.006 0.061 7.09 4.31 10.16
6/25/2021 7:15:00 AM 11.66 52.988 0.061 7.09 3.95 10.19
6/25/2021 7:30:00 AM 11.67 53.006 0.061 7.12 5.05 10.22
6/25/2021 7:45:00 AM 11.69 53.042 0.061 7.12 4.39 10.25
6/25/2021 8:00:00 AM 11.72 53.096 0.061 7.12 4.1 10.27
6/25/2021 8:15:00 AM 11.79 53.222 0.061 7.12 4.07 10.3
6/25/2021 8:30:00 AM 11.88 53.384 0.061 7.12 4.08 10.32
6/25/2021 8:45:00 AM 12 53.6 0.061 7.14 4.72 10.31
6/25/2021 9:00:00 AM 12.13 53.834 0.061 7.16 5.15 10.3
6/25/2021 9:15:00 AM 12.29 54.122 0.06 7.12 4.43 10.3
6/25/2021 9:30:00 AM 12.48 54.464 0.061 7.18 4.85 10.29
6/25/2021 9:45:00 AM 12.67 54.806 0.06 7.19 4.13 10.28
6/25/2021 10:00:00 AM 12.88 55.184 0.06 7.23 5.52 10.26
6/25/2021 10:15:00 AM 13.11 55.598 0.06 7.22 4.39 10.24
6/25/2021 10:30:00 AM 13.35 56.03 0.06 7.19 4.02 10.2
6/25/2021 10:45:00 AM 13.62 56.516 0.06 7.24 4.12 10.16
6/25/2021 11:00:00 AM 13.89 57.002 0.06 7.22 3.73 10.11
6/25/2021 11:15:00 AM 14.15 57.47 0.06 7.24 4.09 10.08
6/25/2021 11:30:00 AM 14.42 57.956 0.06 7.22 3.94 10.03
6/25/2021 11:45:00 AM 14.66 58.388 0.06 7.25 3.92 9.98
6/25/2021 12:00:00 PM 14.87 58.766 0.06 7.23 4.04 9.94
6/25/2021 12:15:00 PM 15.08 59.144 0.06 7.26 4.29 9.9
6/25/2021 12:30:00 PM 15.25 59.45 0.06 7.25 4.28 9.86
6/25/2021 12:45:00 PM 15.38 59.684 0.059 7.25 3.95 9.83
6/25/2021 1:00:00 PM 15.55 59.99 0.059 7.25 4.28 9.79
6/25/2021 1:15:00 PM 15.69 60.242 0.059 7.27 4 9.76
6/25/2021 1:30:00 PM 15.92 60.656 0.059 7.29 4.02 9.72
6/25/2021 1:45:00 PM 16.13 61.034 0.059 7.28 3.97 9.68
6/25/2021 2:00:00 PM 16.33 61.394 0.059 7.26 4.43 9.62
6/25/2021 2:15:00 PM 16.52 61.736 0.059 7.28 4.03 9.57
6/25/2021 2:30:00 PM 16.77 62.186 0.059 7.25 4.13 9.53
6/25/2021 2:45:00 PM 17.04 62.672 0.059 7.28 4.21 9.45
6/25/2021 3:00:00 PM 17.32 63.176 0.059 7.23 4.03 9.37
6/25/2021 3:15:00 PM 17.54 63.572 0.059 7.27 4.39 9.31
6/25/2021 3:30:00 PM 17.62 63.716 0.059 7.22 4.08 9.28
6/25/2021 3:45:00 PM 17.68 63.824 0.059 7.25 4.09 9.25
6/25/2021 4:00:00 PM 17.85 64.13 0.059 7.23 5.25 9.2
6/25/2021 4:15:00 PM 17.98 64.364 0.059 7.26 4.35 9.17
6/25/2021 4:30:00 PM 17.94 64.292 0.059 7.25 4.01 9.15
6/25/2021 4:45:00 PM 17.86 64.148 0.059 7.25 4.06 9.13
6/25/2021 5:00:00 PM 17.79 64.022 0.059 7.22 5.32 9.12
6/25/2021 5:15:00 PM 17.77 63.986 0.059 7.24 4.21 9.11
6/25/2021 5:30:00 PM 17.75 63.95 0.059 7.25 4.33 9.09
6/25/2021 5:45:00 PM 17.67 63.806 0.059 7.24 4.05 9.06
6/25/2021 6:00:00 PM 17.65 63.77 0.059 7.23 4.32 9.07
6/25/2021 6:15:00 PM 17.54 63.572 0.059 7.24 3.95 9.08
6/25/2021 6:30:00 PM 17.47 63.446 0.059 7.23 4.11 9.09
6/25/2021 6:45:00 PM 17.34 63.212 0.059 7.22 4.21 9.05
6/25/2021 7:00:00 PM 17.21 62.978 0.059 7.16 4.36 9.01
6/25/2021 7:15:00 PM 17.08 62.744 0.06 7.18 3.96 9.01
6/25/2021 7:30:00 PM 16.97 62.546 0.06 7.18 4.99 9.02
6/25/2021 7:45:00 PM 16.9 62.42 0.06 7.15 4.16 9.03
6/25/2021 8:00:00 PM 16.8 62.24 0.06 7.11 4.11 9
6/25/2021 8:15:00 PM 16.67 62.006 0.06 7.14 4.76 9
6/25/2021 8:30:00 PM 16.52 61.736 0.06 7.14 4.49 9
6/25/2021 8:45:00 PM 16.39 61.502 0.06 7.12 4.55 9
6/25/2021 9:00:00 PM 16.25 61.25 0.06 7.09 4.34 9.01
6/25/2021 9:15:00 PM 16.11 60.998 0.06 7.11 4.63 9.02
6/25/2021 9:30:00 PM 15.97 60.746 0.06 7.11 4.69 9.03
6/25/2021 9:45:00 PM 15.83 60.494 0.06 7.1 4.81 9.06
6/25/2021 10:00:00 PM 15.69 60.242 0.06 7.08 4.46 9.08
6/25/2021 10:15:00 PM 15.56 60.008 0.06 7.09 4.35 9.11
6/25/2021 10:30:00 PM 15.44 59.792 0.06 7.02 4.53 9.13
6/25/2021 10:45:00 PM 15.32 59.576 0.061 7.09 4.24 9.16
6/25/2021 11:00:00 PM 15.2 59.36 0.061 7.1 4.51 9.17
6/25/2021 11:15:00 PM 15.1 59.18 0.061 7.08 4.2 9.2
6/25/2021 11:30:00 PM 15.02 59.036 0.061 7.08 4.54 9.22
6/25/2021 11:45:00 PM 14.94 58.892 0.061 7.09 4.24 9.24
6/26/2021 12:00:00 AM 14.87 58.766 0.061 7.03 4.06 9.26
6/26/2021 12:15:00 AM 14.79 58.622 0.061 7.06 4.18 9.27
6/26/2021 12:30:00 AM 14.71 58.478 0.061 7.07 4.35 9.28
6/26/2021 12:45:00 AM 14.64 58.352 0.061 7.08 4.38 9.3
6/26/2021 1:00:00 AM 14.57 58.226 0.061 7.05 4.46 9.32
6/26/2021 1:15:00 AM 14.51 58.118 0.061 7.07 4.49 9.33
6/26/2021 1:30:00 AM 14.45 58.01 0.061 7.06 4.39 9.35
6/26/2021 1:45:00 AM 14.4 57.92 0.061 7.07 3.92 9.37
6/26/2021 2:00:00 AM 14.36 57.848 0.061 7.06 4.08 9.38
6/26/2021 2:15:00 AM 14.32 57.776 0.061 7.08 4.4 9.39
6/26/2021 2:30:00 AM 14.27 57.686 0.061 7.03 4.67 9.4
6/26/2021 2:45:00 AM 14.21 57.578 0.061 7.07 4.31 9.41
6/26/2021 3:00:00 AM 14.16 57.488 0.061 7.05 4.29 9.42
6/26/2021 3:15:00 AM 14.1 57.38 0.061 7.06 4.35 9.43
6/26/2021 3:30:00 AM 14.05 57.29 0.061 7.06 4.14 9.44
6/26/2021 3:45:00 AM 14 57.2 0.061 7.07 4.29 9.45
6/26/2021 4:00:00 AM 13.95 57.11 0.061 7.05 4.62 9.47
6/26/2021 4:15:00 AM 13.91 57.038 0.061 7.07 5.2 9.47
6/26/2021 4:30:00 AM 13.89 57.002 0.061 7.03 4.23 9.47
6/26/2021 4:45:00 AM 13.85 56.93 0.061 7.06 5.69 9.49
6/26/2021 5:00:00 AM 13.83 56.894 0.061 7.08 5.3 9.49
6/26/2021 5:15:00 AM 13.8 56.84 0.061 7.06 5.81 9.5
6/26/2021 5:30:00 AM 13.77 56.786 0.061 7.03 5.05 9.51
6/26/2021 5:45:00 AM 13.74 56.732 0.061 7.07 4.89 9.52
6/26/2021 6:00:00 AM 13.71 56.678 0.061 7.02 4.66 9.54
6/26/2021 6:15:00 AM 13.7 56.66 0.061 7.07 4.25 9.56
6/26/2021 6:30:00 AM 13.69 56.642 0.06 7.08 4.42 9.57
6/26/2021 6:45:00 AM 13.69 56.642 0.061 7.07 4.9 9.59
6/26/2021 7:00:00 AM 13.69 56.642 0.061 7.08 4.64 9.61
6/26/2021 7:15:00 AM 13.72 56.696 0.06 7.07 4.52 9.65
6/26/2021 7:30:00 AM 13.76 56.768 0.06 7.06 4.8 9.69
6/26/2021 7:45:00 AM 13.81 56.858 0.06 7.12 6.22 9.71
6/26/2021 8:00:00 AM 13.86 56.948 0.06 7.14 4.54 9.71
6/26/2021 8:15:00 AM 13.9 57.02 0.06 7.12 5.26 9.72
6/26/2021 8:30:00 AM 13.95 57.11 0.06 7.12 4.18 9.74
6/26/2021 8:45:00 AM 14.02 57.236 0.06 7.13 4.09 9.76
6/26/2021 9:00:00 AM 14.09 57.362 0.06 7.15 4.12 9.79
6/26/2021 9:15:00 AM 14.14 57.452 0.06 7.16 4.22 9.77
6/26/2021 9:30:00 AM 14.2 57.56 0.059 7.13 4.87 9.76
6/26/2021 9:45:00 AM 14.4 57.92 0.06 7.17 4.17 9.79
6/26/2021 10:00:00 AM 14.59 58.262 0.059 7.19 4.28 9.79
6/26/2021 10:15:00 AM 14.8 58.64 0.06 7.21 4.24 9.79
6/26/2021 10:30:00 AM 14.97 58.946 0.059 7.2 4.12 9.76
6/26/2021 10:45:00 AM 15.15 59.27 0.059 7.22 4.59 9.74
6/26/2021 11:00:00 AM 15.3 59.54 0.059 7.24 4.61 9.72
6/26/2021 11:15:00 AM 15.48 59.864 0.059 7.25 4.29 9.7
6/26/2021 11:30:00 AM 15.75 60.35 0.059 7.27 4.03 9.67
6/26/2021 11:45:00 AM 16.06 60.908 0.059 7.26 3.94 9.62
6/26/2021 12:00:00 PM 16.42 61.556 0.059 7.27 4.23 9.57
6/26/2021 12:15:00 PM 16.74 62.132 0.059 7.27 4.18 9.5
6/26/2021 12:30:00 PM 17.06 62.708 0.059 7.28 3.97 9.44
6/26/2021 12:45:00 PM 17.28 63.104 0.059 7.27 4.53 9.4
6/26/2021 1:00:00 PM 17.44 63.392 0.059 7.27 4.17 9.37
6/26/2021 1:15:00 PM 17.59 63.662 0.058 7.27 4.65 9.32
6/26/2021 1:30:00 PM 17.78 64.004 0.058 7.28 6.37 9.27
6/26/2021 1:45:00 PM 17.92 64.256 0.058 7.27 4.39 9.24
6/26/2021 2:00:00 PM 18.05 64.49 0.058 7.26 4.04 9.2
6/26/2021 2:15:00 PM 18.16 64.688 0.058 7.26 6.34 9.16
6/26/2021 2:30:00 PM 18.33 64.994 0.058 7.23 4.46 9.12
6/26/2021 2:45:00 PM 18.54 65.372 0.058 7.27 4.08 9.07
6/26/2021 3:00:00 PM 18.76 65.768 0.058 7.28 4.43 9.05
6/26/2021 3:15:00 PM 19.03 66.254 0.058 7.27 4.97 8.99
6/26/2021 3:30:00 PM 19.16 66.488 0.058 7.26 4.17 8.93
6/26/2021 3:45:00 PM 19.24 66.632 0.058 7.24 5.86 8.9
6/26/2021 4:00:00 PM 19.26 66.668 0.058 7.23 4.16 8.9
6/26/2021 4:15:00 PM 19.37 66.866 0.058 7.26 4.35 8.88
6/26/2021 4:30:00 PM 19.37 66.866 0.058 7.23 4.67 8.85
6/26/2021 4:45:00 PM 19.36 66.848 0.058 7.25 5.79 8.82
6/26/2021 5:00:00 PM 19.41 66.938 0.058 7.23 6.81 8.77
6/26/2021 5:15:00 PM 19.39 66.902 0.058 7.23 5.27 8.76
6/26/2021 5:30:00 PM 19.32 66.776 0.058 7.2 4.77 8.74
6/26/2021 5:45:00 PM 19.25 66.65 0.059 7.21 4.35 8.72
6/26/2021 6:00:00 PM 19.22 66.596 0.059 7.23 4.46 8.71
6/26/2021 6:15:00 PM 19.15 66.47 0.059 7.21 4.72 8.7
6/26/2021 6:30:00 PM 19.08 66.344 0.059 7.21 4.48 8.68
6/26/2021 6:45:00 PM 19.03 66.254 0.059 7.19 3.91 8.65
6/26/2021 7:00:00 PM 18.99 66.182 0.059 7.13 5.47 8.63
6/26/2021 7:15:00 PM 18.9 66.02 0.059 7.17 4.21 8.62
6/26/2021 7:30:00 PM 18.76 65.768 0.059 7.16 4.31 8.62
6/26/2021 7:45:00 PM 18.61 65.498 0.059 7.15 4.15 8.62
6/26/2021 8:00:00 PM 18.48 65.264 0.059 7.13 4.3 8.63
6/26/2021 8:15:00 PM 18.35 65.03 0.059 7.12 4.52 8.64
6/26/2021 8:30:00 PM 18.22 64.796 0.059 7.11 4.31 8.63
6/26/2021 8:45:00 PM 18.12 64.616 0.059 7.08 5.3 8.62
6/26/2021 9:00:00 PM 18.01 64.418 0.059 7.08 4.38 8.61
6/26/2021 9:15:00 PM 17.88 64.184 0.059 7.09 4.29 8.62
6/26/2021 9:30:00 PM 17.75 63.95 0.06 7.01 4.52 8.62
6/26/2021 9:45:00 PM 17.62 63.716 0.06 7.07 6.03 8.65
6/26/2021 10:00:00 PM 17.49 63.482 0.06 7.04 4.72 8.67
6/26/2021 10:15:00 PM 17.37 63.266 0.06 7.06 4.74 8.69
6/26/2021 10:30:00 PM 17.25 63.05 0.06 7.05 4.77 8.72
6/26/2021 10:45:00 PM 17.12 62.816 0.06 7.05 5.37 8.74
6/26/2021 11:00:00 PM 17 62.6 0.06 7.05 4.7 8.76
6/26/2021 11:15:00 PM 16.88 62.384 0.06 7.05 5.03 8.79
6/26/2021 11:30:00 PM 16.76 62.168 0.06 7.04 4.51 8.81
6/26/2021 11:45:00 PM 16.64 61.952 0.06 7.05 4.46 8.84
6/27/2021 12:00:00 AM 16.53 61.754 0.06 7.03 6.81 8.85
6/27/2021 12:15:00 AM 16.43 61.574 0.06 7.02 4.22 8.87
6/27/2021 12:30:00 AM 16.32 61.376 0.06 7.03 4.96 8.89
6/27/2021 12:45:00 AM 16.22 61.196 0.06 7.02 5.49 8.92
6/27/2021 1:00:00 AM 16.13 61.034 0.06 7.02 4.39 8.93
6/27/2021 1:15:00 AM 16.04 60.872 0.06 7.02 4.34 8.96
6/27/2021 1:30:00 AM 15.96 60.728 0.06 7.02 5.48 8.98
6/27/2021 1:45:00 AM 15.88 60.584 0.06 7.01 4.77 8.99
6/27/2021 2:00:00 AM 15.8 60.44 0.06 7.04 4.6 9.01
6/27/2021 2:15:00 AM 15.73 60.314 0.06 7.03 4.52 9.03
6/27/2021 2:30:00 AM 15.67 60.206 0.06 7.02 4.42 9.04
6/27/2021 2:45:00 AM 15.61 60.098 0.06 7.02 4.23 9.06
6/27/2021 3:00:00 AM 15.55 59.99 0.06 7.01 5.66 9.07
6/27/2021 3:15:00 AM 15.49 59.882 0.06 6.96 4.88 9.08
6/27/2021 3:30:00 AM 15.43 59.774 0.06 7.01 4.68 9.1
6/27/2021 3:45:00 AM 15.37 59.666 0.06 6.98 5.44 9.11
6/27/2021 4:00:00 AM 15.32 59.576 0.06 7.01 4.66 9.12
6/27/2021 4:15:00 AM 15.26 59.468 0.06 7.01 4.81 9.13
6/27/2021 4:30:00 AM 15.21 59.378 0.06 7.01 4.24 9.14
6/27/2021 4:45:00 AM 15.15 59.27 0.06 7.01 4.59 9.15
6/27/2021 5:00:00 AM 15.1 59.18 0.06 6.95 4.63 9.17
6/27/2021 5:15:00 AM 15.04 59.072 0.06 7 5.43 9.18
6/27/2021 5:30:00 AM 14.99 58.982 0.06 6.96 5.1 9.2
6/27/2021 5:45:00 AM 14.93 58.874 0.06 7.01 4.43 9.22
6/27/2021 6:00:00 AM 14.88 58.784 0.06 6.96 6.13 9.23
6/27/2021 6:15:00 AM 14.84 58.712 0.06 7.01 4.55 9.27
6/27/2021 6:30:00 AM 14.81 58.658 0.06 6.97 4.54 9.3
6/27/2021 6:45:00 AM 14.79 58.622 0.06 7.02 4.44 9.33
6/27/2021 7:00:00 AM 14.78 58.604 0.06 6.99 4.82 9.35
6/27/2021 7:15:00 AM 14.77 58.586 0.06 7.02 4.79 9.37
6/27/2021 7:30:00 AM 14.77 58.586 0.06 7.02 4.37 9.39
6/27/2021 7:45:00 AM 14.75 58.55 0.06 7.05 4.45 9.4
6/27/2021 8:00:00 AM 14.76 58.568 0.06 7.05 4.59 9.43
6/27/2021 8:15:00 AM 14.79 58.622 0.06 7.03 4.51 9.47
6/27/2021 8:30:00 AM 14.87 58.766 0.06 7.04 4.87 9.5
6/27/2021 8:45:00 AM 15 59 0.06 7.09 4.12 9.52
6/27/2021 9:00:00 AM 15.19 59.342 0.06 7.13 4.5 9.53
6/27/2021 9:15:00 AM 15.44 59.792 0.06 7.16 5.14 9.55
6/27/2021 9:30:00 AM 15.64 60.152 0.06 7.17 4.46 9.53
6/27/2021 9:45:00 AM 15.78 60.404 0.06 7.19 4.25 9.5
6/27/2021 10:00:00 AM 15.96 60.728 0.06 7.18 4.41 9.48
6/27/2021 10:15:00 AM 16.23 61.214 0.06 7.13 4.4 9.46
6/27/2021 10:30:00 AM 16.54 61.772 0.059 7.2 4.01 9.42
6/27/2021 10:45:00 AM 16.81 62.258 0.059 7.17 5.21 9.4
6/27/2021 11:00:00 AM 17.06 62.708 0.059 7.21 4.26 9.36
6/27/2021 11:15:00 AM 17.33 63.194 0.059 7.22 4.19 9.33
6/27/2021 11:30:00 AM 17.61 63.698 0.059 7.22 4.21 9.29
6/27/2021 11:45:00 AM 17.93 64.274 0.059 7.22 4.24 9.24
6/27/2021 12:00:00 PM 18.13 64.634 0.059 7.23 5.04 9.18
6/27/2021 12:15:00 PM 18.24 64.832 0.059 7.22 4.79 9.13
6/27/2021 12:30:00 PM 18.52 65.336 0.059 7.24 3.94 9.1
6/27/2021 12:45:00 PM 18.8 65.84 0.059 7.24 4.24 9.07
6/27/2021 1:00:00 PM 18.89 66.002 0.059 7.24 4.72 9.01
6/27/2021 1:15:00 PM 19.08 66.344 0.059 7.24 4.74 8.99
6/27/2021 1:30:00 PM 19.25 66.65 0.058 7.22 4.39 8.97
6/27/2021 1:45:00 PM 19.51 67.118 0.059 7.23 4.05 8.9
6/27/2021 2:00:00 PM 19.69 67.442 0.058 7.23 4.02 8.85
6/27/2021 2:15:00 PM 19.82 67.676 0.058 7.26 4.01 8.86
6/27/2021 2:30:00 PM 20.04 68.07201 0.058 7.24 4.29 8.84
6/27/2021 2:45:00 PM 20.19 68.342 0.058 7.25 4.12 8.77
6/27/2021 3:00:00 PM 20.32 68.576 0.058 7.24 4.14 8.74
6/27/2021 3:15:00 PM 20.47 68.846 0.058 7.25 4.15 8.73
6/27/2021 3:30:00 PM 20.57 69.026 0.058 7.22 4.12 8.69
6/27/2021 3:45:00 PM 20.72 69.296 0.059 7.24 4.45 8.63
6/27/2021 4:00:00 PM 20.78 69.404 0.059 7.25 4.64 8.6
6/27/2021 4:15:00 PM 20.89 69.602 0.059 7.18 3.97 8.57
6/27/2021 4:30:00 PM 20.97 69.746 0.059 7.21 4.1 8.54
6/27/2021 4:45:00 PM 21 69.8 0.058 7.23 3.96 8.5
6/27/2021 5:00:00 PM 21 69.8 0.058 7.22 4.85 8.47
6/27/2021 5:15:00 PM 20.91 69.638 0.059 7.21 4.19 8.46
6/27/2021 5:30:00 PM 20.86 69.548 0.058 7.21 3.94 8.44
6/27/2021 5:45:00 PM 20.87 69.566 0.059 7.2 5.08 8.41
6/27/2021 6:00:00 PM 20.85 69.53 0.059 7.19 4.42 8.37
6/27/2021 6:15:00 PM 20.75 69.35 0.059 7.19 4.27 8.36
6/27/2021 6:30:00 PM 20.61 69.098 0.059 7.17 4.28 8.36
6/27/2021 6:45:00 PM 20.48 68.864 0.059 7.16 4.46 8.34
6/27/2021 7:00:00 PM 20.35 68.63 0.059 7.14 5.1 8.34
6/27/2021 7:15:00 PM 20.22 68.396 0.059 7.12 5.4 8.32
6/27/2021 7:30:00 PM 20.12 68.216 0.059 7.08 4.26 8.31
6/27/2021 7:45:00 PM 19.97 67.946 0.059 7.1 4.17 8.31
6/27/2021 8:00:00 PM 19.78 67.604 0.059 7.1 4.28 8.33
6/27/2021 8:15:00 PM 19.61 67.298 0.059 7.1 4.28 8.33
6/27/2021 8:30:00 PM 19.45 67.01 0.059 7.08 4.37 8.35
6/27/2021 8:45:00 PM 19.29 66.722 0.059 7.04 4.22 8.36
6/27/2021 9:00:00 PM 19.13 66.434 0.06 7.06 4.78 8.37
6/27/2021 9:15:00 PM 19 66.2 0.06 7.07 4.42 8.38
6/27/2021 9:30:00 PM 18.86 65.948 0.06 7.05 4.14 8.39
6/27/2021 9:45:00 PM 18.73 65.714 0.06 7.05 4.65 8.42
6/27/2021 10:00:00 PM 18.58 65.444 0.06 7.06 4.69 8.44
6/27/2021 10:15:00 PM 18.44 65.192 0.06 7.03 4.63 8.46
6/27/2021 10:30:00 PM 18.31 64.958 0.06 7.02 4.69 8.48
6/27/2021 10:45:00 PM 18.18 64.724 0.06 7.03 4.64 8.51
6/27/2021 11:00:00 PM 18.05 64.49 0.06 7.04 4.49 8.54
6/27/2021 11:15:00 PM 17.92 64.256 0.06 7.03 5.08 8.57
6/27/2021 11:30:00 PM 17.78 64.004 0.06 7.02 4.35 8.58
6/27/2021 11:45:00 PM 17.66 63.788 0.06 7.01 4.47 8.61
6/28/2021 12:00:00 AM 17.55 63.59 0.06 7.02 4.6 8.64
6/28/2021 12:15:00 AM 17.44 63.392 0.06 7.02 4.65 8.67
6/28/2021 12:30:00 AM 17.32 63.176 0.06 7.01 4.78 8.69
6/28/2021 12:45:00 AM 17.22 62.996 0.06 6.98 4.57 8.71
6/28/2021 1:00:00 AM 17.11 62.798 0.06 7.03 4.14 8.73
6/28/2021 1:15:00 AM 17.01 62.618 0.06 7.03 4.25 8.75
6/28/2021 1:30:00 AM 16.92 62.456 0.06 7.03 4.35 8.77
6/28/2021 1:45:00 AM 16.83 62.294 0.06 7.01 4.45 8.8
6/28/2021 2:00:00 AM 16.74 62.132 0.06 7 4.49 8.81
6/28/2021 2:15:00 AM 16.66 61.988 0.061 7 4.56 8.82
6/28/2021 2:30:00 AM 16.58 61.844 0.06 7.03 4.51 8.84
6/28/2021 2:45:00 AM 16.5 61.7 0.06 7.01 4.51 8.86
6/28/2021 3:00:00 AM 16.43 61.574 0.06 7.01 5.19 8.87
6/28/2021 3:15:00 AM 16.35 61.43 0.06 7.02 4.31 8.9
6/28/2021 3:30:00 AM 16.28 61.304 0.06 7.01 4.37 8.91
6/28/2021 3:45:00 AM 16.21 61.178 0.06 7.01 4.51 8.93
6/28/2021 4:00:00 AM 16.14 61.052 0.06 7.03 4.52 8.95
6/28/2021 4:15:00 AM 16.08 60.944 0.06 7.01 4.46 8.96
6/28/2021 4:30:00 AM 16.02 60.836 0.06 7.03 4.13 8.97
6/28/2021 4:45:00 AM 15.95 60.71 0.06 7.02 5.06 8.98
6/28/2021 5:00:00 AM 15.89 60.602 0.06 7 4.46 9
6/28/2021 5:15:00 AM 15.81 60.458 0.06 7.01 6.02 9.01
6/28/2021 5:30:00 AM 15.75 60.35 0.06 7.02 4.72 9.04
6/28/2021 5:45:00 AM 15.69 60.242 0.06 7.02 4.89 9.05
6/28/2021 6:00:00 AM 15.62 60.116 0.06 7 4.65 9.07
6/28/2021 6:15:00 AM 15.56 60.008 0.06 7.02 4.59 9.1
6/28/2021 6:30:00 AM 15.51 59.918 0.06 7.03 4.68 9.13
6/28/2021 6:45:00 AM 15.47 59.846 0.06 7.01 4.16 9.15
6/28/2021 7:00:00 AM 15.44 59.792 0.06 7.04 4.18 9.19
6/28/2021 7:15:00 AM 15.41 59.738 0.06 7.03 4.47 9.2
6/28/2021 7:30:00 AM 15.4 59.72 0.06 7.05 4.37 9.23
6/28/2021 7:45:00 AM 15.4 59.72 0.06 7.05 4.31 9.25
6/28/2021 8:00:00 AM 15.41 59.738 0.06 7.05 4.29 9.28
6/28/2021 8:15:00 AM 15.46 59.828 0.06 7.06 4.39 9.31
6/28/2021 8:30:00 AM 15.53 59.954 0.06 7.06 4.51 9.34
6/28/2021 8:45:00 AM 15.65 60.17 0.06 7.05 4.63 9.36
6/28/2021 9:00:00 AM 15.79 60.422 0.06 7.08 4.63 9.37
6/28/2021 9:15:00 AM 15.98 60.764 0.059 7.12 4.39 9.37
6/28/2021 9:30:00 AM 16.2 61.16 0.059 7.14 4.25 9.38
6/28/2021 9:45:00 AM 16.41 61.538 0.059 7.16 4.35 9.37
6/28/2021 10:00:00 AM 16.66 61.988 0.059 7.18 4.38 9.34
6/28/2021 10:15:00 AM 16.88 62.384 0.059 7.18 4.63 9.33
6/28/2021 10:30:00 AM 17.1 62.78 0.059 7.19 4.05 9.31
6/28/2021 10:45:00 AM 17.42 63.356 0.059 7.18 4.95 9.3
6/28/2021 11:00:00 AM 17.54 63.572 0.059 7.18 4.28 9.25
6/28/2021 11:15:00 AM 17.7 63.86 0.059 7.2 4.47 9.23
6/28/2021 11:30:00 AM 17.91 64.238 0.059 7.22 4.47 9.21
6/28/2021 11:45:00 AM 18.12 64.616 0.059 7.23 4.32 9.18
6/28/2021 12:00:00 PM 18.46 65.228 0.059 7.19 4.21 9.15
6/28/2021 12:15:00 PM 18.75 65.75 0.059 7.23 4.08 9.13
6/28/2021 12:30:00 PM 18.99 66.182 0.058 7.2 4.3 9.07
6/28/2021 12:45:00 PM 19.27 66.686 0.059 7.25 4.17 9.03
6/28/2021 1:00:00 PM 19.42 66.956 0.059 7.25 4.16 8.97
6/28/2021 1:15:00 PM 19.73 67.514 0.059 7.25 4.24 8.92
6/28/2021 1:30:00 PM 19.88 67.784 0.059 7.25 4.27 8.9
6/28/2021 1:45:00 PM 20.03 68.054 0.059 7.25 4.44 8.84
6/28/2021 2:00:00 PM 20.16 68.288 0.058 7.25 4.45 8.8
6/28/2021 2:15:00 PM 20.32 68.576 0.058 7.26 4.41 8.79
6/28/2021 2:30:00 PM 20.38 68.684 0.058 7.25 4.24 8.73
6/28/2021 2:45:00 PM 20.53 68.954 0.058 7.24 4.53 8.72
6/28/2021 3:00:00 PM 20.59 69.062 0.058 7.26 4.21 8.7
6/28/2021 3:15:00 PM 20.67 69.206 0.058 7.22 4.18 8.61
6/28/2021 3:30:00 PM 20.74 69.332 0.058 7.21 4.39 8.58
6/28/2021 3:45:00 PM 20.82 69.476 0.058 7.21 4.31 8.57
6/28/2021 4:00:00 PM 20.9 69.62 0.058 7.23 4.24 8.54
6/28/2021 4:15:00 PM 20.99 69.782 0.058 7.23 4.77 8.57
6/28/2021 4:30:00 PM 21.13 70.034 0.058 7.19 4.77 8.54
6/28/2021 4:45:00 PM 21.27 70.286 0.058 7.24 4.85 8.51
6/28/2021 5:00:00 PM 21.3 70.34 0.058 7.17 4.81 8.48
6/28/2021 5:15:00 PM 21.28 70.304 0.058 7.21 4.63 8.45
6/28/2021 5:30:00 PM 21.34 70.412 0.058 7.2 5.82 8.46
6/28/2021 5:45:00 PM 21.27 70.286 0.058 7.21 5.47 8.43
6/28/2021 6:00:00 PM 21.2 70.16 0.058 7.19 4.38 8.37
6/28/2021 6:15:00 PM 21.14 70.052 0.059 7.19 4.62 8.33
6/28/2021 6:30:00 PM 21.04 69.872 0.059 7.15 4.49 8.31
6/28/2021 6:45:00 PM 20.92 69.656 0.059 7.16 4.62 8.29
6/28/2021 7:00:00 PM 20.77 69.386 0.059 7.15 4.44 8.27
6/28/2021 7:15:00 PM 20.65 69.17 0.059 7.12 4.58 8.27
6/28/2021 7:30:00 PM 20.53 68.954 0.059 7.06 4.57 8.26
6/28/2021 7:45:00 PM 20.4 68.72 0.059 7.09 5.27 8.25
6/28/2021 8:00:00 PM 20.25 68.45 0.059 7.11 4.42 8.26
6/28/2021 8:15:00 PM 20.1 68.18 0.059 7.11 4.55 8.27
6/28/2021 8:30:00 PM 19.94 67.892 0.059 7.04 4.61 8.28
6/28/2021 8:45:00 PM 19.8 67.64 0.059 7.07 4.68 8.28
6/28/2021 9:00:00 PM 19.67 67.406 0.059 7.02 4.48 8.28
6/28/2021 9:15:00 PM 19.52 67.136 0.059 7.07 4.65 8.3
6/28/2021 9:30:00 PM 19.38 66.884 0.06 7.05 4.66 8.32
6/28/2021 9:45:00 PM 19.24 66.632 0.06 7.05 5.17 8.34
6/28/2021 10:00:00 PM 19.11 66.398 0.06 7.01 4.81 8.35
6/28/2021 10:15:00 PM 18.98 66.164 0.06 7.05 4.68 8.37
6/28/2021 10:30:00 PM 18.86 65.948 0.06 7.03 4.82 8.4
6/28/2021 10:45:00 PM 18.73 65.714 0.06 7.04 4.77 8.43
6/28/2021 11:00:00 PM 18.6 65.48 0.06 7.03 4.53 8.46
6/28/2021 11:15:00 PM 18.48 65.264 0.06 7.03 5.5 8.48
6/28/2021 11:30:00 PM 18.35 65.03 0.06 7.04 4.82 8.5
6/28/2021 11:45:00 PM 18.23 64.814 0.06 7.03 4.6 8.52
6/29/2021 12:00:00 AM 18.11 64.598 0.06 7.04 5.3 8.55
6/29/2021 12:15:00 AM 17.99 64.382 0.06 7.03 4.64 8.57
6/29/2021 12:30:00 AM 17.88 64.184 0.06 7.01 5.83 8.59
6/29/2021 12:45:00 AM 17.78 64.004 0.06 7.01 4.63 8.61
6/29/2021 1:00:00 AM 17.67 63.806 0.06 7.01 5.36 8.63
6/29/2021 1:15:00 AM 17.57 63.626 0.06 7.02 10.31 8.66
6/29/2021 1:30:00 AM 17.48 63.464 0.06 7.02 4.49 8.68
6/29/2021 1:45:00 AM 17.38 63.284 0.06 7.01 5.08 8.7
6/29/2021 2:00:00 AM 17.3 63.14 0.06 6.98 4.75 8.72
6/29/2021 2:15:00 AM 17.22 62.996 0.06 7.01 4.53 8.73
6/29/2021 2:30:00 AM 17.13 62.834 0.06 7.03 4.44 8.74
6/29/2021 2:45:00 AM 17.05 62.69 0.06 7.01 4.9 8.76
6/29/2021 3:00:00 AM 16.98 62.564 0.06 7.02 4.59 8.78
6/29/2021 3:15:00 AM 16.91 62.438 0.06 7.01 4.77 8.8
6/29/2021 3:30:00 AM 16.84 62.312 0.06 7.02 4.37 8.81
6/29/2021 3:45:00 AM 16.77 62.186 0.061 7.01 4.62 8.83
6/29/2021 4:00:00 AM 16.7 62.06 0.06 7 4.57 8.84
6/29/2021 4:15:00 AM 16.63 61.934 0.061 7.03 4.47 8.85
6/29/2021 4:30:00 AM 16.56 61.808 0.06 7 5.1 8.87
6/29/2021 4:45:00 AM 16.49 61.682 0.061 7.02 4.71 8.88
6/29/2021 5:00:00 AM 16.42 61.556 0.061 7 5.24 8.9
6/29/2021 5:15:00 AM 16.36 61.448 0.061 7 4.99 8.91
6/29/2021 5:30:00 AM 16.3 61.34 0.061 7 4.84 8.93
6/29/2021 5:45:00 AM 16.24 61.232 0.06 7.02 4.38 8.95
6/29/2021 6:00:00 AM 16.18 61.124 0.06 7.02 4.76 8.97
6/29/2021 6:15:00 AM 16.12 61.016 0.06 7.03 4.4 9
6/29/2021 6:30:00 AM 16.08 60.944 0.06 7.01 4.49 9.03
6/29/2021 6:45:00 AM 16.04 60.872 0.06 7 9.4 9.05
6/29/2021 7:00:00 AM 16.01 60.818 0.06 7.03 7.8 9.08
6/29/2021 7:15:00 AM 15.98 60.764 0.06 7.05 9.16 9.1
6/29/2021 7:30:00 AM 15.96 60.728 0.06 7.03 4.48 9.12
6/29/2021 7:45:00 AM 15.96 60.728 0.06 7 4.79 9.14
6/29/2021 8:00:00 AM 15.98 60.764 0.06 7.03 4.54 9.16
6/29/2021 8:15:00 AM 16.02 60.836 0.06 7.06 4.66 9.19
6/29/2021 8:30:00 AM 16.1 60.98 0.06 7.06 4.4 9.22
6/29/2021 8:45:00 AM 16.2 61.16 0.06 7.05 4.49 9.24
6/29/2021 9:00:00 AM 16.32 61.376 0.06 7.08 4.55 9.26
6/29/2021 9:15:00 AM 16.49 61.682 0.06 7.12 4.54 9.26
6/29/2021 9:30:00 AM 16.68 62.024 0.06 7.11 4.82 9.27
6/29/2021 9:45:00 AM 16.88 62.384 0.06 7.11 4.38 9.28
6/29/2021 10:00:00 AM 17.12 62.816 0.06 7.13 4.45 9.26
6/29/2021 10:15:00 AM 17.36 63.248 0.06 7.18 4.62 9.25
6/29/2021 10:30:00 AM 17.62 63.716 0.06 7.18 4.85 9.23
6/29/2021 10:45:00 AM 17.9 64.22 0.06 7.2 4.55 9.2
6/29/2021 11:00:00 AM 18.19 64.742 0.06 7.2 4.59 9.16
6/29/2021 11:15:00 AM 18.47 65.246 0.06 7.21 4.39 9.13
6/29/2021 11:30:00 AM 18.75 65.75 0.06 7.21 5.2 9.1
6/29/2021 11:45:00 AM 19.01 66.218 0.06 7.23 4.42 9.03
6/29/2021 12:00:00 PM 19.37 66.866 0.06 7.22 4.25 9.02
6/29/2021 12:15:00 PM 19.57 67.226 0.059 7.24 4.58 8.97
6/29/2021 12:30:00 PM 19.87 67.766 0.06 7.23 4.39 8.94
6/29/2021 12:45:00 PM 20.06 68.108 0.059 7.22 5.25 8.89
6/29/2021 1:00:00 PM 20.18 68.324 0.059 7.26 4.24 8.83
6/29/2021 1:15:00 PM 20.35 68.63 0.059 7.24 4.58 8.78
6/29/2021 1:30:00 PM 20.41 68.738 0.059 7.22 4.4 8.72
6/29/2021 1:45:00 PM 20.72 69.296 0.06 7.24 4.27 8.71
6/29/2021 2:00:00 PM 20.95 69.71 0.059 7.25 4.3 8.68
6/29/2021 2:15:00 PM 21.01 69.818 0.059 7.24 4.17 8.62
6/29/2021 2:30:00 PM 21.1 69.98 0.059 7.23 4.18 8.58
6/29/2021 2:45:00 PM 21.2 70.16 0.059 7.24 5.28 8.56
6/29/2021 3:00:00 PM 21.38 70.484 0.059 7.23 4.62 8.55
6/29/2021 3:15:00 PM 21.55 70.79 0.059 7.25 5.46 8.52
6/29/2021 3:30:00 PM 21.67 71.006 0.059 7.23 5.61 8.49
6/29/2021 3:45:00 PM 21.64 70.952 0.059 7.22 4.2 8.42
6/29/2021 4:00:00 PM 21.84 71.312 0.059 7.24 4.71 8.42
6/29/2021 4:15:00 PM 21.93 71.474 0.059 7.23 4.32 8.41
6/29/2021 4:30:00 PM 21.83 71.294 0.059 7.22 4.73 8.34
6/29/2021 4:45:00 PM 21.76 71.168 0.059 7.2 4.29 8.32
6/29/2021 5:00:00 PM 21.74 71.132 0.059 7.21 4.33 8.32
6/29/2021 5:15:00 PM 21.83 71.294 0.059 7.21 4 8.32
6/29/2021 5:30:00 PM 21.81 71.258 0.059 7.21 4.48 8.28
6/29/2021 5:45:00 PM 21.74 71.132 0.059 7.2 4.34 8.26
6/29/2021 6:00:00 PM 21.61 70.898 0.059 7.19 5.39 8.23
6/29/2021 6:15:00 PM 21.5 70.7 0.06 7.17 4.59 8.2
6/29/2021 6:30:00 PM 21.44 70.592 0.06 7.16 4.46 8.2
6/29/2021 6:45:00 PM 21.28 70.304 0.06 7.12 4.34 8.18
6/29/2021 7:00:00 PM 21.2 70.16 0.06 7.14 5.07 8.19
6/29/2021 7:15:00 PM 21.11 69.998 0.06 7.11 4.88 8.18
6/29/2021 7:30:00 PM 20.99 69.782 0.06 7.1 4.55 8.15
6/29/2021 7:45:00 PM 20.87 69.566 0.06 7.06 4.39 8.14
6/29/2021 8:00:00 PM 20.73 69.314 0.06 7.1 4.46 8.14
6/29/2021 8:15:00 PM 20.58 69.044 0.06 7.08 4.33 8.15
6/29/2021 8:30:00 PM 20.44 68.792 0.06 7.08 4.43 8.16
6/29/2021 8:45:00 PM 20.31 68.558 0.06 7.05 4.49 8.15
6/29/2021 9:00:00 PM 20.17 68.306 0.06 7.06 4.77 8.16
6/29/2021 9:15:00 PM 20.04 68.07201 0.06 7.05 4.95 8.17
6/29/2021 9:30:00 PM 19.93 67.874 0.06 7.06 4.96 8.19
6/29/2021 9:45:00 PM 19.8 67.64 0.06 7.05 5.04 8.21
6/29/2021 10:00:00 PM 19.68 67.424 0.061 7.04 6.39 8.22
6/29/2021 10:15:00 PM 19.55 67.19 0.061 7.03 5.01 8.25
6/29/2021 10:30:00 PM 19.45 67.01 0.061 7.04 5.45 8.27
6/29/2021 10:45:00 PM 19.34 66.812 0.061 7.01 4.7 8.27
6/29/2021 11:00:00 PM 19.24 66.632 0.061 7.01 4.68 8.29
6/29/2021 11:15:00 PM 19.18 66.524 0.06 7.01 6.66 8.33
6/29/2021 11:30:00 PM 19.09 66.362 0.059 7.02 6.38 8.3
6/29/2021 11:45:00 PM 18.97 66.146 0.06 7.03 6.21 8.31
6/30/2021 12:00:00 AM 18.87 65.966 0.06 7.04 6.01 8.31
6/30/2021 12:15:00 AM 18.73 65.714 0.061 7.05 6.7 8.36
6/30/2021 12:30:00 AM 18.58 65.444 0.061 7.03 5.55 8.4
6/30/2021 12:45:00 AM 18.45 65.21 0.061 7.03 6.45 8.43
6/30/2021 1:00:00 AM 18.34 65.012 0.06 7.04 5.57 8.45
6/30/2021 1:15:00 AM 18.24 64.832 0.06 7.04 6.38 8.47
6/30/2021 1:30:00 AM 18.16 64.688 0.06 7.04 6.43 8.48
6/30/2021 1:45:00 AM 18.08 64.544 0.061 7.01 5.54 8.5
6/30/2021 2:00:00 AM 18.01 64.418 0.061 7.02 5.1 8.51
6/30/2021 2:15:00 AM 17.95 64.31 0.061 7 5.35 8.52
6/30/2021 2:30:00 AM 17.88 64.184 0.061 7.02 5.3 8.53
6/30/2021 2:45:00 AM 17.81 64.058 0.06 7.01 5.39 8.54
6/30/2021 3:00:00 AM 17.76 63.968 0.06 6.98 6.32 8.55
6/30/2021 3:15:00 AM 17.7 63.86 0.06 7 5.86 8.56
6/30/2021 3:30:00 AM 17.66 63.788 0.06 7 5.63 8.59
6/30/2021 3:45:00 AM 17.61 63.698 0.06 7.05 6.57 8.6
6/30/2021 4:00:00 AM 17.56 63.608 0.06 7.01 5.36 8.61
6/30/2021 4:15:00 AM 17.52 63.536 0.06 7.04 6.22 8.62
6/30/2021 4:30:00 AM 17.46 63.428 0.061 7.01 5.24 8.64
6/30/2021 4:45:00 AM 17.39 63.302 0.06 7.04 5.72 8.65
6/30/2021 5:00:00 AM 17.32 63.176 0.06 7.01 5.61 8.67
6/30/2021 5:15:00 AM 17.25 63.05 0.06 7.02 7.03 8.68
6/30/2021 5:30:00 AM 17.19 62.942 0.06 6.99 6.37 8.69
6/30/2021 5:45:00 AM 17.14 62.852 0.061 7.02 7.97 8.7
6/30/2021 6:00:00 AM 17.08 62.744 0.061 7.01 5.48 8.72
6/30/2021 6:15:00 AM 17.03 62.654 0.06 7.03 6.01 8.74
6/30/2021 6:30:00 AM 16.97 62.546 0.06 7.01 6.3 8.77
6/30/2021 6:45:00 AM 16.91 62.438 0.06 7.03 5.86 8.8
6/30/2021 7:00:00 AM 16.87 62.366 0.06 7.05 6.33 8.84
6/30/2021 7:15:00 AM 16.85 62.33 0.06 7.05 5.39 8.89
6/30/2021 7:30:00 AM 16.84 62.312 0.06 7.05 6.44 8.92
6/30/2021 7:45:00 AM 16.83 62.294 0.061 7.09 6.37 8.92
6/30/2021 8:00:00 AM 16.84 62.312 0.06 7.07 5.02 8.94
6/30/2021 8:15:00 AM 16.84 62.312 0.061 7.08 6.21 8.95
6/30/2021 8:30:00 AM 16.86 62.348 0.061 7.09 5.22 8.99
6/30/2021 8:45:00 AM 16.93 62.474 0.061 7.1 4.8 9.05
6/30/2021 9:00:00 AM 16.99 62.582 0.061 7.11 5.01 9.08
6/30/2021 9:15:00 AM 16.98 62.564 0.061 7.13 4.79 9.03
6/30/2021 9:30:00 AM 16.97 62.546 0.061 7.12 4.88 8.97
6/30/2021 9:45:00 AM 16.98 62.564 0.061 7.1 6.34 9
6/30/2021 10:00:00 AM 17.1 62.78 0.061 7.12 6.04 9.08
6/30/2021 10:15:00 AM 17.3 63.14 0.061 7.17 4.59 9.13
6/30/2021 10:30:00 AM 17.56 63.608 0.061 7.19 6.07 9.13
6/30/2021 10:45:00 AM 17.83 64.094 0.061 7.19 4.81 9.11
6/30/2021 11:00:00 AM 18.1 64.58 0.06 7.18 4.83 9.09
6/30/2021 11:15:00 AM 18.42 65.156 0.061 7.23 4.59 9.05
6/30/2021 11:30:00 AM 18.8 65.84 0.06 7.2 6.35 9.02
6/30/2021 11:45:00 AM 19.09 66.362 0.06 7.21 5.22 8.98
6/30/2021 12:00:00 PM 19.1 66.38 0.06 7.22 4.88 8.89
6/30/2021 12:15:00 PM 19.17 66.506 0.06 7.2 5 8.88
6/30/2021 12:30:00 PM 19.33 66.794 0.06 7.23 4.75 8.9
6/30/2021 12:45:00 PM 19.44 66.992 0.06 7.22 5.9 8.88
6/30/2021 1:00:00 PM 19.57 67.226 0.06 7.24 4.95 8.85
6/30/2021 1:15:00 PM 19.79 67.622 0.06 7.23 4.7 8.83
6/30/2021 1:30:00 PM 19.92 67.856 0.06 7.25 4.76 8.79
6/30/2021 1:45:00 PM 20.13 68.234 0.06 7.27 4.78 8.75
6/30/2021 2:00:00 PM 20.33 68.594 0.06 7.24 4.84 8.7
6/30/2021 2:15:00 PM 20.49 68.882 0.06 7.25 4.72 8.65
6/30/2021 2:30:00 PM 20.46 68.828 0.06 7.24 4.82 8.59
6/30/2021 2:45:00 PM 20.43 68.774 0.06 7.2 6.59 8.56
6/30/2021 3:00:00 PM 20.44 68.792 0.06 7.23 4.91 8.6
6/30/2021 3:15:00 PM 20.65 69.17 0.06 7.24 4.66 8.6
6/30/2021 3:30:00 PM 20.61 69.098 0.059 7.22 4.69 8.49
6/30/2021 3:45:00 PM 20.56 69.008 0.059 7.21 4.93 8.44
6/30/2021 4:00:00 PM 20.4 68.72 0.06 7.19 5.84 8.4
6/30/2021 4:15:00 PM 20.29 68.522 0.059 7.19 6.02 8.4
6/30/2021 4:30:00 PM 20.4 68.72 0.059 7.21 4.86 8.5
6/30/2021 4:45:00 PM 20.37 68.666 0.059 7.22 5.09 8.5
6/30/2021 5:00:00 PM 20.34 68.612 0.059 7.2 4.45 8.43
6/30/2021 5:15:00 PM 20.23 68.414 0.059 7.16 4.83 8.35
6/30/2021 5:30:00 PM 20.03 68.054 0.06 7.15 4.99 8.33
6/30/2021 5:45:00 PM 19.84 67.712 0.06 7.12 4.81 8.31
6/30/2021 6:00:00 PM 19.68 67.424 0.059 7.12 4.68 8.32
6/30/2021 6:15:00 PM 19.58 67.244 0.059 7.09 4.55 8.32
6/30/2021 6:30:00 PM 19.51 67.118 0.059 7.11 5.15 8.33
6/30/2021 6:45:00 PM 19.45 67.01 0.059 7.12 5.21 8.34
6/30/2021 7:00:00 PM 19.36 66.848 0.06 7.1 4.84 8.35
6/30/2021 7:15:00 PM 19.25 66.65 0.06 7.11 4.42 8.36
6/30/2021 7:30:00 PM 19.14 66.452 0.06 7.09 4.82 8.36
6/30/2021 7:45:00 PM 19.04 66.272 0.06 7.1 4.66 8.36
6/30/2021 8:00:00 PM 18.93 66.074 0.06 7.07 5.84 8.37
6/30/2021 8:15:00 PM 18.83 65.894 0.06 7.04 4.86 8.38
6/30/2021 8:30:00 PM 18.73 65.714 0.06 7.06 4.86 8.4
6/30/2021 8:45:00 PM 18.63 65.534 0.06 7.06 4.91 8.41
6/30/2021 9:00:00 PM 18.53 65.354 0.06 7.07 4.9 8.42
6/30/2021 9:15:00 PM 18.45 65.21 0.06 7.05 4.67 8.43
6/30/2021 9:30:00 PM 18.35 65.03 0.06 7.05 5.12 8.45
6/30/2021 9:45:00 PM 18.25 64.85 0.06 7.04 5.24 8.46
6/30/2021 10:00:00 PM 18.15 64.67 0.061 7.04 5.08 8.49
6/30/2021 10:15:00 PM 18.06 64.508 0.061 7.03 5.52 8.5
6/30/2021 10:30:00 PM 17.97 64.346 0.061 7.02 5.13 8.52
6/30/2021 10:45:00 PM 17.88 64.184 0.061 7.01 5.15 8.53
6/30/2021 11:00:00 PM 17.8 64.04 0.061 7.03 5.2 8.55
6/30/2021 11:15:00 PM 17.72 63.896 0.061 7.02 6 8.57
6/30/2021 11:30:00 PM 17.65 63.77 0.061 7.01 5.65 8.58
6/30/2021 11:45:00 PM 17.58 63.644 0.061 7.01 5.56 8.59
7/1/2021 12:00:00 AM 17.52 63.536 0.061 6.98 4.75 8.61
7/1/2021 12:15:00 AM 17.46 63.428 0.061 7 5.17 8.63
7/1/2021 12:30:00 AM 17.4 63.32 0.061 6.98 4.85 8.63
7/1/2021 12:45:00 AM 17.34 63.212 0.061 6.98 5.01 8.65
7/1/2021 1:00:00 AM 17.29 63.122 0.061 6.99 5.29 8.66
7/1/2021 1:15:00 AM 17.24 63.032 0.061 6.99 10.74 8.67
7/1/2021 1:30:00 AM 17.19 62.942 0.061 6.99 4.96 8.67
7/1/2021 1:45:00 AM 17.14 62.852 0.061 6.98 5.3 8.69
7/1/2021 2:00:00 AM 17.1 62.78 0.061 6.96 4.97 8.69
7/1/2021 2:15:00 AM 17.06 62.708 0.061 6.97 5.35 8.7
7/1/2021 2:30:00 AM 17.03 62.654 0.061 6.98 4.45 8.7
7/1/2021 2:45:00 AM 16.99 62.582 0.061 6.97 6.27 8.71
7/1/2021 3:00:00 AM 16.95 62.51 0.061 6.96 4.67 8.72
7/1/2021 3:15:00 AM 16.91 62.438 0.061 6.95 4.96 8.72
7/1/2021 3:30:00 AM 16.87 62.366 0.061 6.97 6.21 8.73
7/1/2021 3:45:00 AM 16.83 62.294 0.061 6.95 4.69 8.74
7/1/2021 4:00:00 AM 16.8 62.24 0.061 6.94 5.78 8.73
7/1/2021 4:15:00 AM 16.76 62.168 0.061 6.95 4.96 8.74
7/1/2021 4:30:00 AM 16.72 62.096 0.06 6.93 4.96 8.75
7/1/2021 4:45:00 AM 16.68 62.024 0.061 6.93 5.5 8.75
7/1/2021 5:00:00 AM 16.64 61.952 0.061 6.92 6.34 8.76
7/1/2021 5:15:00 AM 16.6 61.88 0.061 6.94 6.36 8.76
7/1/2021 5:30:00 AM 16.56 61.808 0.061 6.93 9.13 8.77
7/1/2021 5:45:00 AM 16.52 61.736 0.061 6.9 7.35 8.78
7/1/2021 6:00:00 AM 16.48 61.664 0.061 6.94 6.67 8.8
7/1/2021 6:15:00 AM 16.44 61.592 0.061 6.96 8.37 8.81
7/1/2021 6:30:00 AM 16.4 61.52 0.061 6.96 7.62 8.83
7/1/2021 6:45:00 AM 16.37 61.466 0.061 6.95 7.7 8.86
7/1/2021 7:00:00 AM 16.33 61.394 0.061 6.97 5.34 8.87
7/1/2021 7:15:00 AM 16.3 61.34 0.061 6.96 9.3 8.9
7/1/2021 7:30:00 AM 16.29 61.322 0.061 6.98 9.06 8.93
7/1/2021 7:45:00 AM 16.28 61.304 0.06 7 6.9 8.94
7/1/2021 8:00:00 AM 16.28 61.304 0.061 7.03 6.98 8.97
7/1/2021 8:15:00 AM 16.28 61.304 0.061 7.05 6.76 8.97
7/1/2021 8:30:00 AM 16.28 61.304 0.061 7.04 5.29 8.98
7/1/2021 8:45:00 AM 16.27 61.286 0.061 7.05 5.86 8.96
7/1/2021 9:00:00 AM 16.27 61.286 0.061 7.05 5.2 8.98
7/1/2021 9:15:00 AM 16.27 61.286 0.061 7.02 5.36 9.01
7/1/2021 9:30:00 AM 16.28 61.304 0.061 7.05 5.27 9.01
7/1/2021 9:45:00 AM 16.3 61.34 0.061 7.06 5.27 9.04
7/1/2021 10:00:00 AM 16.33 61.394 0.061 7.07 6.31 9.07
7/1/2021 10:15:00 AM 16.35 61.43 0.061 7.08 5.03 9.05
7/1/2021 10:30:00 AM 16.36 61.448 0.061 7.07 5.67 9.02
7/1/2021 10:45:00 AM 16.35 61.43 0.061 7.08 6.36 9.01
7/1/2021 11:00:00 AM 16.34 61.412 0.061 7.09 5.35 9.04
7/1/2021 11:15:00 AM 16.36 61.448 0.062 7.11 5.24 9.08
7/1/2021 11:30:00 AM 16.38 61.484 0.062 7.11 9.82 9.07
7/1/2021 11:45:00 AM 16.39 61.502 0.062 7.12 5.27 9.07
7/1/2021 12:00:00 PM 16.44 61.592 0.062 7.11 5.74 9.11
7/1/2021 12:15:00 PM 16.47 61.646 0.063 7.14 5.38 9.12
7/1/2021 12:30:00 PM 16.51 61.718 0.063 7.12 4.99 9.11
7/1/2021 12:45:00 PM 16.51 61.718 0.063 7.15 5.16 9.08
7/1/2021 1:00:00 PM 16.52 61.736 0.063 7.16 5.66 9.08
7/1/2021 1:15:00 PM 16.54 61.772 0.063 7.15 6.48 9.09
7/1/2021 1:30:00 PM 16.61 61.898 0.064 7.18 12.72 9.14
7/1/2021 1:45:00 PM 16.71 62.078 0.063 7.19 5.62 9.15
7/1/2021 2:00:00 PM 16.85 62.33 0.064 7.21 4.86 9.18
7/1/2021 2:15:00 PM 16.93 62.474 0.064 7.19 5.49 9.15
7/1/2021 2:30:00 PM 16.99 62.582 0.064 7.22 5.21 9.14
7/1/2021 2:45:00 PM 17.05 62.69 0.064 7.21 4.74 9.11
7/1/2021 3:00:00 PM 17.07 62.726 0.064 7.19 4.53 9.08
7/1/2021 3:15:00 PM 17.09 62.762 0.064 7.19 5.08 9.06
7/1/2021 3:30:00 PM 17.14 62.852 0.064 7.21 4.86 9.07
7/1/2021 3:45:00 PM 17.19 62.942 0.064 7.23 5.52 9.08
7/1/2021 4:00:00 PM 17.19 62.942 0.064 7.22 5.33 9.01
7/1/2021 4:15:00 PM 17.25 63.05 0.064 7.23 4.87 9.04
7/1/2021 4:30:00 PM 17.33 63.194 0.065 7.23 4.86 9.06
7/1/2021 4:45:00 PM 17.36 63.248 0.065 7.24 4.8 9.03
7/1/2021 5:00:00 PM 17.32 63.176 0.065 7.23 4.83 8.98
7/1/2021 5:15:00 PM 17.31 63.158 0.065 7.21 4.55 8.99
7/1/2021 5:30:00 PM 17.28 63.104 0.065 7.22 4.57 8.99
7/1/2021 5:45:00 PM 17.25 63.05 0.065 7.22 4.57 8.97
7/1/2021 6:00:00 PM 17.22 62.996 0.066 7.21 6.19 8.93
7/1/2021 6:15:00 PM 17.18 62.924 0.066 7.2 4.54 8.91
7/1/2021 6:30:00 PM 17.15 62.87 0.066 7.18 4.91 8.89
7/1/2021 6:45:00 PM 17.1 62.78 0.066 7.15 4.95 8.88
7/1/2021 7:00:00 PM 17.04 62.672 0.066 7.18 4.47 8.86
7/1/2021 7:15:00 PM 16.99 62.582 0.066 7.17 4.44 8.85
7/1/2021 7:30:00 PM 16.94 62.492 0.066 7.16 4.66 8.86
7/1/2021 7:45:00 PM 16.9 62.42 0.066 7.15 5.81 8.86
7/1/2021 8:00:00 PM 16.86 62.348 0.067 7.15 5.29 8.84
7/1/2021 8:15:00 PM 16.81 62.258 0.067 7.14 4.31 8.83
7/1/2021 8:30:00 PM 16.76 62.168 0.067 7.13 4.69 8.84
7/1/2021 8:45:00 PM 16.71 62.078 0.067 7.12 4.27 8.83
7/1/2021 9:00:00 PM 16.64 61.952 0.067 7.12 5.29 8.82
7/1/2021 9:15:00 PM 16.58 61.844 0.067 7.11 4.54 8.81
7/1/2021 9:30:00 PM 16.51 61.718 0.067 7.11 5.08 8.82
7/1/2021 9:45:00 PM 16.45 61.61 0.067 7.09 4.94 8.83
7/1/2021 10:00:00 PM 16.39 61.502 0.067 7.1 5.14 8.84
7/1/2021 10:15:00 PM 16.34 61.412 0.067 7.1 4.75 8.85
7/1/2021 10:30:00 PM 16.28 61.304 0.067 7.1 5.67 8.86
7/1/2021 10:45:00 PM 16.22 61.196 0.067 7.09 5.1 8.87
7/1/2021 11:00:00 PM 16.17 61.106 0.068 7.11 4.39 8.88
7/1/2021 11:15:00 PM 16.11 60.998 0.068 7.1 4.93 8.89
7/1/2021 11:30:00 PM 16.05 60.89 0.068 7.1 4.41 8.89
7/1/2021 11:45:00 PM 15.99 60.782 0.068 7.11 4.38 8.9
7/2/2021 12:00:00 AM 15.93 60.674 0.068 7.08 5.3 8.91
7/2/2021 12:15:00 AM 15.89 60.602 0.068 7.09 4.63 8.92
7/2/2021 12:30:00 AM 15.84 60.512 0.068 7.08 4.35 8.93
7/2/2021 12:45:00 AM 15.79 60.422 0.068 7.11 4.49 8.94
7/2/2021 1:00:00 AM 15.74 60.332 0.068 7.07 5.24 8.95
7/2/2021 1:15:00 AM 15.7 60.26 0.068 7.11 5.07 8.96
7/2/2021 1:30:00 AM 15.65 60.17 0.068 7.11 4.32 8.97
7/2/2021 1:45:00 AM 15.59 60.062 0.068 7.1 4.55 8.98
7/2/2021 2:00:00 AM 15.53 59.954 0.068 7.11 5.08 8.99
7/2/2021 2:15:00 AM 15.47 59.846 0.068 7.11 4.48 9.01
7/2/2021 2:30:00 AM 15.43 59.774 0.068 7.11 4.54 9.01
7/2/2021 2:45:00 AM 15.39 59.702 0.068 7.12 5.58 9.02
7/2/2021 3:00:00 AM 15.36 59.648 0.068 7.12 4.44 9.03
7/2/2021 3:15:00 AM 15.33 59.594 0.068 7.14 4.55 9.04
7/2/2021 3:30:00 AM 15.3 59.54 0.068 7.12 4.63 9.05
7/2/2021 3:45:00 AM 15.27 59.486 0.068 7.13 5.04 9.06
7/2/2021 4:00:00 AM 15.23 59.414 0.068 7.12 4.54 9.06
7/2/2021 4:15:00 AM 15.2 59.36 0.068 7.13 4.59 9.07
7/2/2021 4:30:00 AM 15.16 59.288 0.068 7.13 4.91 9.08
7/2/2021 4:45:00 AM 15.13 59.234 0.068 7.13 4.58 9.09
7/2/2021 5:00:00 AM 15.09 59.162 0.068 7.11 4.32 9.1
7/2/2021 5:15:00 AM 15.06 59.108 0.068 7.12 4.47 9.11
7/2/2021 5:30:00 AM 15.02 59.036 0.068 7.11 4.59 9.11
7/2/2021 5:45:00 AM 14.99 58.982 0.068 7.13 4.44 9.12
7/2/2021 6:00:00 AM 14.96 58.928 0.068 7.14 4.5 9.13
7/2/2021 6:15:00 AM 14.93 58.874 0.068 7.13 5.02 9.14
7/2/2021 6:30:00 AM 14.91 58.838 0.068 7.14 4.42 9.16
7/2/2021 6:45:00 AM 14.88 58.784 0.068 7.13 4.86 9.17
7/2/2021 7:00:00 AM 14.87 58.766 0.068 7.13 4.63 9.18
7/2/2021 7:15:00 AM 14.85 58.73 0.068 7.13 4.27 9.2
7/2/2021 7:30:00 AM 14.84 58.712 0.068 7.15 5.79 9.24
7/2/2021 7:45:00 AM 14.87 58.766 0.068 7.16 4.64 9.28
7/2/2021 8:00:00 AM 14.86 58.748 0.067 7.15 4.23 9.28
7/2/2021 8:15:00 AM 14.87 58.766 0.067 7.15 4.33 9.29
7/2/2021 8:30:00 AM 14.87 58.766 0.067 7.17 4.56 9.29
7/2/2021 8:45:00 AM 14.87 58.766 0.068 7.17 4.45 9.31
7/2/2021 9:00:00 AM 14.86 58.748 0.067 7.17 4.69 9.32
7/2/2021 9:15:00 AM 14.86 58.748 0.067 7.16 4.49 9.32
7/2/2021 9:30:00 AM 14.85 58.73 0.067 7.16 4.5 9.3
7/2/2021 9:45:00 AM 14.86 58.748 0.067 7.18 4.37 9.32
7/2/2021 10:00:00 AM 14.9 58.82 0.067 7.18 4.4 9.39
7/2/2021 10:15:00 AM 14.98 58.964 0.067 7.22 4.38 9.45
7/2/2021 10:30:00 AM 15.06 59.108 0.067 7.23 4.51 9.47
7/2/2021 10:45:00 AM 15.33 59.594 0.067 7.24 4.48 9.48
7/2/2021 11:00:00 AM 15.35 59.63 0.067 7.23 4.36 9.45
7/2/2021 11:15:00 AM 15.6 60.08 0.067 7.26 4.39 9.45
7/2/2021 11:30:00 AM 15.76 60.368 0.067 7.24 4.47 9.45
7/2/2021 11:45:00 AM 15.81 60.458 0.067 7.27 4.22 9.39
7/2/2021 12:00:00 PM 16.04 60.872 0.067 7.27 4.62 9.39
7/2/2021 12:15:00 PM 16.14 61.052 0.067 7.27 7.28 9.37
7/2/2021 12:30:00 PM 16.5 61.7 0.067 7.28 4.31 9.37
7/2/2021 12:45:00 PM 16.47 61.646 0.066 7.28 4.46 9.27
7/2/2021 1:00:00 PM 16.46 61.628 0.066 7.27 4.37 9.24
7/2/2021 1:15:00 PM 16.31 61.358 0.066 7.24 4.54 9.22
7/2/2021 1:30:00 PM 16.41 61.538 0.066 7.24 4.17 9.25
7/2/2021 1:45:00 PM 16.82 62.276 0.066 7.28 4.07 9.27
7/2/2021 2:00:00 PM 17.29 63.122 0.066 7.29 4.4 9.22
7/2/2021 2:15:00 PM 17.66 63.788 0.066 7.28 4.46 9.15
7/2/2021 2:30:00 PM 17.77 63.986 0.066 7.27 4.3 9.08
7/2/2021 2:45:00 PM 17.79 64.022 0.066 7.29 4.51 9.05
7/2/2021 3:00:00 PM 17.74 63.932 0.066 7.26 4.61 9.04
7/2/2021 3:15:00 PM 17.77 63.986 0.066 7.27 4.57 9.05
7/2/2021 3:30:00 PM 17.68 63.824 0.066 7.28 4.39 8.99
7/2/2021 3:45:00 PM 17.49 63.482 0.066 7.26 6.52 8.91
7/2/2021 4:00:00 PM 17.32 63.176 0.066 7.24 4.19 8.89
7/2/2021 4:15:00 PM 17.25 63.05 0.066 7.22 4.59 8.86
7/2/2021 4:30:00 PM 17.19 62.942 0.066 7.21 4.46 8.84
7/2/2021 4:45:00 PM 17.11 62.798 0.066 7.21 4.39 8.84
7/2/2021 5:00:00 PM 17 62.6 0.066 7.21 4.62 8.87
7/2/2021 5:15:00 PM 16.9 62.42 0.066 7.21 4.74 8.92
7/2/2021 5:30:00 PM 16.78 62.204 0.066 7.23 4.61 8.97
7/2/2021 5:45:00 PM 16.7 62.06 0.066 7.2 4.58 9.01
7/2/2021 6:00:00 PM 16.67 62.006 0.066 7.21 4.56 9.05
7/2/2021 6:15:00 PM 16.65 61.97 0.066 7.22 5.65 9.05
7/2/2021 6:30:00 PM 16.59 61.862 0.066 7.22 4.46 9.02
7/2/2021 6:45:00 PM 16.5 61.7 0.066 7.21 4.56 9
7/2/2021 7:00:00 PM 16.39 61.502 0.066 7.15 25.33 8.96
7/2/2021 7:15:00 PM 15.96 60.728 0.065 7.12 37.11 9.04
7/2/2021 7:30:00 PM 15.68 60.224 0.065 7.15 17.33 9.12
7/2/2021 7:45:00 PM 15.62 60.116 0.065 7.11 17.62 9.12
7/2/2021 8:00:00 PM 15.58 60.044 0.065 7.09 16.74 9.12
7/2/2021 8:15:00 PM 15.49 59.882 0.066 7.09 13.2 9.13
7/2/2021 8:30:00 PM 15.4 59.72 0.068 7.14 15.19 9.14
7/2/2021 8:45:00 PM 15.28 59.504 0.07 7.12 14.03 9.16
7/2/2021 9:00:00 PM 15.17 59.306 0.071 7.12 14.75 9.17
7/2/2021 9:15:00 PM 15.06 59.108 0.073 7.11 16.31 9.2
7/2/2021 9:30:00 PM 14.95 58.91 0.074 7.14 18.66 9.21
7/2/2021 9:45:00 PM 14.85 58.73 0.075 7.12 25.95 9.23
7/2/2021 10:00:00 PM 14.76 58.568 0.074 7.11 35.15 9.23
7/2/2021 10:15:00 PM 14.69 58.442 0.074 7.1 39.57 9.25
7/2/2021 10:30:00 PM 14.64 58.352 0.073 7.09 52.46 9.26
7/2/2021 10:45:00 PM 14.59 58.262 0.072 7.1 61.32 9.27
7/2/2021 11:00:00 PM 14.54 58.172 0.072 7.09 62.21 9.28
7/2/2021 11:15:00 PM 14.5 58.1 0.073 7.11 59.4 9.29
7/2/2021 11:30:00 PM 14.44 57.992 0.073 7.13 54.62 9.29
7/2/2021 11:45:00 PM 14.39 57.902 0.074 7.13 54.53 9.31
7/3/2021 12:00:00 AM 14.35 57.83 0.075 7.13 44.24 9.31
7/3/2021 12:15:00 AM 14.3 57.74 0.076 7.14 51.09 9.33
7/3/2021 12:30:00 AM 14.26 57.668 0.077 7.16 38.57 9.34
7/3/2021 12:45:00 AM 14.07 57.326 0.078 7.14 39.16 9.39
7/3/2021 1:00:00 AM 14.03 57.254 0.079 7.14 30.39 9.4
7/3/2021 1:15:00 AM 14 57.2 0.079 7.16 31.21 9.41
7/3/2021 1:30:00 AM 13.97 57.146 0.079 7.15 30.7 9.4
7/3/2021 1:45:00 AM 13.94 57.092 0.08 7.17 26.12 9.41
7/3/2021 2:00:00 AM 13.9 57.02 0.079 7.15 29.17 9.42
7/3/2021 2:15:00 AM 13.87 56.966 0.079 7.16 19.57 9.42
7/3/2021 2:30:00 AM 13.84 56.912 0.08 7.16 20.48 9.43
7/3/2021 2:45:00 AM 13.81 56.858 0.08 7.15 19.05 9.43
7/3/2021 3:00:00 AM 13.79 56.822 0.08 7.15 18.46 9.44
7/3/2021 3:15:00 AM 13.76 56.768 0.08 7.16 15.83 9.45
7/3/2021 3:30:00 AM 13.74 56.732 0.08 7.16 17.82 9.46
7/3/2021 3:45:00 AM 13.71 56.678 0.08 7.15 13.36 9.46
7/3/2021 4:00:00 AM 13.69 56.642 0.08 7.16 11.78 9.46
7/3/2021 4:15:00 AM 13.66 56.588 0.081 7.15 13.81 9.47
7/3/2021 4:30:00 AM 13.64 56.552 0.08 7.15 11.22 9.47
7/3/2021 4:45:00 AM 13.61 56.498 0.08 7.16 11.93 9.48
7/3/2021 5:00:00 AM 13.59 56.462 0.08 7.15 12.05 9.49
7/3/2021 5:15:00 AM 13.57 56.426 0.08 7.16 11.85 9.49
7/3/2021 5:30:00 AM 13.55 56.39 0.081 7.16 11.48 9.5
7/3/2021 5:45:00 AM 13.54 56.372 0.081 7.16 11.83 9.5
7/3/2021 6:00:00 AM 13.53 56.354 0.081 7.14 11.23 9.52
7/3/2021 6:15:00 AM 13.52 56.336 0.081 7.16 10.76 9.52
7/3/2021 6:30:00 AM 13.51 56.318 0.081 7.15 10.28 9.53
7/3/2021 6:45:00 AM 13.51 56.318 0.081 7.16 9.97 9.55
7/3/2021 7:00:00 AM 13.51 56.318 0.081 7.18 10.16 9.56
7/3/2021 7:15:00 AM 13.52 56.336 0.081 7.19 9.72 9.57
7/3/2021 7:30:00 AM 13.51 56.318 0.081 7.17 9.5 9.56
7/3/2021 7:45:00 AM 13.52 56.336 0.081 7.16 9.59 9.56
7/3/2021 8:00:00 AM 13.53 56.354 0.081 7.17 9.35 9.59
7/3/2021 8:15:00 AM 13.55 56.39 0.08 7.19 8.84 9.61
7/3/2021 8:30:00 AM 13.57 56.426 0.08 7.18 8.32 9.62
7/3/2021 8:45:00 AM 13.59 56.462 0.08 7.18 8.44 9.62
7/3/2021 9:00:00 AM 13.58 56.444 0.08 7.19 8.11 9.6
7/3/2021 9:15:00 AM 13.63 56.534 0.08 7.21 7.91 9.65
7/3/2021 9:30:00 AM 13.67 56.606 0.08 7.22 7.59 9.67
7/3/2021 9:45:00 AM 13.72 56.696 0.08 7.23 8.09 9.68
7/3/2021 10:00:00 AM 13.74 56.732 0.08 7.22 7.65 9.66
7/3/2021 10:15:00 AM 13.78 56.804 0.08 7.2 7.91 9.66
7/3/2021 10:30:00 AM 13.84 56.912 0.08 7.23 7.45 9.69
7/3/2021 10:45:00 AM 13.93 57.074 0.08 7.21 7.67 9.69
7/3/2021 11:00:00 AM 14.08 57.344 0.079 7.26 7.4 9.72
7/3/2021 11:15:00 AM 14.25 57.65 0.08 7.24 7.17 9.72
7/3/2021 11:30:00 AM 14.47 58.046 0.08 7.27 7.18 9.68
7/3/2021 11:45:00 AM 14.75 58.55 0.079 7.28 7.28 9.65
7/3/2021 12:00:00 PM 14.93 58.874 0.08 7.28 7.03 9.62
7/3/2021 12:15:00 PM 15.08 59.144 0.079 7.28 7.61 9.59
7/3/2021 12:30:00 PM 15.18 59.324 0.079 7.29 6.87 9.56
7/3/2021 12:45:00 PM 15.28 59.504 0.079 7.28 7 9.54
7/3/2021 1:00:00 PM 15.52 59.936 0.079 7.31 6.89 9.54
7/3/2021 1:15:00 PM 15.7 60.26 0.079 7.28 7.01 9.5
7/3/2021 1:30:00 PM 15.96 60.728 0.079 7.31 6.6 9.47
7/3/2021 1:45:00 PM 15.98 60.764 0.079 7.28 6.39 9.43
7/3/2021 2:00:00 PM 16.07 60.926 0.079 7.32 6.73 9.41
7/3/2021 2:15:00 PM 16.19 61.142 0.08 7.3 6.47 9.4
7/3/2021 2:30:00 PM 16.29 61.322 0.08 7.33 7.27 9.36
7/3/2021 2:45:00 PM 16.31 61.358 0.08 7.33 6.7 9.32
7/3/2021 3:00:00 PM 16.27 61.286 0.08 7.28 6.72 9.29
7/3/2021 3:15:00 PM 16.25 61.25 0.08 7.32 6.81 9.29
7/3/2021 3:30:00 PM 16.38 61.484 0.08 7.28 6.7 9.29
7/3/2021 3:45:00 PM 16.49 61.682 0.08 7.33 6.34 9.27
7/3/2021 4:00:00 PM 16.52 61.736 0.08 7.3 6.25 9.24
7/3/2021 4:15:00 PM 16.47 61.646 0.08 7.32 6.08 9.22
7/3/2021 4:30:00 PM 16.55 61.79 0.08 7.32 6.33 9.23
7/3/2021 4:45:00 PM 16.71 62.078 0.08 7.32 6.1 9.2
7/3/2021 5:00:00 PM 16.81 62.258 0.08 7.32 5.97 9.16
7/3/2021 5:15:00 PM 16.77 62.186 0.08 7.31 6.03 9.13
7/3/2021 5:30:00 PM 16.6 61.88 0.08 7.29 5.87 9.08
7/3/2021 5:45:00 PM 16.52 61.736 0.08 7.29 5.81 9.09
7/3/2021 6:00:00 PM 16.43 61.574 0.08 7.28 6.13 9.07
7/3/2021 6:15:00 PM 16.35 61.43 0.08 7.24 6.71 9.07
7/3/2021 6:30:00 PM 16.26 61.268 0.08 7.27 5.96 9.09
7/3/2021 6:45:00 PM 16.18 61.124 0.08 7.26 6.1 9.1
7/3/2021 7:00:00 PM 16.08 60.944 0.08 7.23 6.18 9.11
7/3/2021 7:15:00 PM 15.99 60.782 0.08 7.25 5.55 9.12
7/3/2021 7:30:00 PM 15.89 60.602 0.08 7.25 5.92 9.11
7/3/2021 7:45:00 PM 15.83 60.494 0.08 7.21 5.84 9.1
7/3/2021 8:00:00 PM 15.76 60.368 0.08 7.2 6.3 9.09
7/3/2021 8:15:00 PM 15.68 60.224 0.08 7.19 6.11 9.09
7/3/2021 8:30:00 PM 15.62 60.116 0.08 7.19 5.8 9.1
7/3/2021 8:45:00 PM 15.56 60.008 0.08 7.18 6.31 9.1
7/3/2021 9:00:00 PM 15.5 59.9 0.08 7.18 5.85 9.11
7/3/2021 9:15:00 PM 15.43 59.774 0.08 7.18 6.14 9.11
7/3/2021 9:30:00 PM 15.36 59.648 0.08 7.2 6.22 9.12
7/3/2021 9:45:00 PM 15.29 59.522 0.08 7.18 6.11 9.13
7/3/2021 10:00:00 PM 15.23 59.414 0.079 7.18 6.41 9.14
7/3/2021 10:15:00 PM 15.17 59.306 0.079 7.15 6.57 9.14
7/3/2021 10:30:00 PM 15.13 59.234 0.079 7.18 6.15 9.15
7/3/2021 10:45:00 PM 15.07 59.126 0.08 7.17 5.81 9.17
7/3/2021 11:00:00 PM 15.01 59.018 0.08 7.16 5.66 9.18
7/3/2021 11:15:00 PM 14.95 58.91 0.08 7.15 5.69 9.2
7/3/2021 11:30:00 PM 14.89 58.802 0.08 7.17 5.7 9.2
7/3/2021 11:45:00 PM 14.83 58.694 0.08 7.18 5.54 9.22
7/4/2021 12:00:00 AM 14.77 58.586 0.08 7.16 5.71 9.23
7/4/2021 12:15:00 AM 14.71 58.478 0.08 7.16 6.41 9.24
7/4/2021 12:30:00 AM 14.65 58.37 0.08 7.15 5.72 9.26
7/4/2021 12:45:00 AM 14.59 58.262 0.08 7.16 6.26 9.26
7/4/2021 1:00:00 AM 14.53 58.154 0.08 7.15 5.87 9.28
7/4/2021 1:15:00 AM 14.47 58.046 0.08 7.12 5.86 9.29
7/4/2021 1:30:00 AM 14.42 57.956 0.08 7.15 5.54 9.3
7/4/2021 1:45:00 AM 14.37 57.866 0.08 7.11 5.95 9.32
7/4/2021 2:00:00 AM 14.33 57.794 0.08 7.15 5.44 9.33
7/4/2021 2:15:00 AM 14.28 57.704 0.08 7.12 5.61 9.34
7/4/2021 2:30:00 AM 14.22 57.596 0.08 7.14 5.77 9.35
7/4/2021 2:45:00 AM 14.16 57.488 0.08 7.12 5.66 9.36
7/4/2021 3:00:00 AM 14.11 57.398 0.08 7.16 5.61 9.37
7/4/2021 3:15:00 AM 14.07 57.326 0.08 7.16 5.53 9.38
7/4/2021 3:30:00 AM 14.04 57.272 0.08 7.15 5.29 9.39
7/4/2021 3:45:00 AM 13.99 57.182 0.08 7.12 5.3 9.4
7/4/2021 4:00:00 AM 13.93 57.074 0.08 7.15 5.81 9.41
7/4/2021 4:15:00 AM 13.88 56.984 0.08 7.15 5.89 9.42
7/4/2021 4:30:00 AM 13.83 56.894 0.08 7.15 5.44 9.44
7/4/2021 4:45:00 AM 13.77 56.786 0.08 7.14 5.4 9.45
7/4/2021 5:00:00 AM 13.72 56.696 0.079 7.14 5.42 9.46
7/4/2021 5:15:00 AM 13.69 56.642 0.079 7.15 5.47 9.47
7/4/2021 5:30:00 AM 13.66 56.588 0.079 7.15 5.66 9.48
7/4/2021 5:45:00 AM 13.63 56.534 0.079 7.13 5.53 9.5
7/4/2021 6:00:00 AM 13.6 56.48 0.079 7.16 5.72 9.51
7/4/2021 6:15:00 AM 13.57 56.426 0.079 7.16 5.51 9.53
7/4/2021 6:30:00 AM 13.54 56.372 0.079 7.18 5.41 9.55
7/4/2021 6:45:00 AM 13.51 56.318 0.079 7.19 5.37 9.57
7/4/2021 7:00:00 AM 13.48 56.264 0.079 7.18 5.18 9.59
7/4/2021 7:15:00 AM 13.46 56.228 0.079 7.16 5.26 9.61
7/4/2021 7:30:00 AM 13.44 56.192 0.079 7.19 5.73 9.65
7/4/2021 7:45:00 AM 13.42 56.156 0.079 7.21 5.41 9.66
7/4/2021 8:00:00 AM 13.43 56.174 0.079 7.21 5.69 9.69
7/4/2021 8:15:00 AM 13.46 56.228 0.079 7.2 5.36 9.7
7/4/2021 8:30:00 AM 13.53 56.354 0.079 7.23 5.32 9.71
7/4/2021 8:45:00 AM 13.6 56.48 0.078 7.21 5.11 9.72
7/4/2021 9:00:00 AM 13.71 56.678 0.078 7.24 5.16 9.73
7/4/2021 9:15:00 AM 13.86 56.948 0.078 7.23 5.28 9.73
7/4/2021 9:30:00 AM 14.03 57.254 0.078 7.25 5.03 9.73
7/4/2021 9:45:00 AM 14.22 57.596 0.078 7.25 5.31 9.72
7/4/2021 10:00:00 AM 14.41 57.938 0.078 7.26 5.24 9.7
7/4/2021 10:15:00 AM 14.62 58.316 0.078 7.27 5.47 9.67
7/4/2021 10:30:00 AM 14.83 58.694 0.078 7.27 5.69 9.66
7/4/2021 10:45:00 AM 15.05 59.09 0.078 7.27 5.28 9.63
7/4/2021 11:00:00 AM 15.28 59.504 0.078 7.29 5.44 9.59
7/4/2021 11:15:00 AM 15.5 59.9 0.078 7.29 5.17 9.57
7/4/2021 11:30:00 AM 15.73 60.314 0.077 7.29 5.29 9.53
7/4/2021 11:45:00 AM 15.96 60.728 0.078 7.3 5.41 9.49
7/4/2021 12:00:00 PM 16.2 61.16 0.077 7.27 4.95 9.45
7/4/2021 12:15:00 PM 16.46 61.628 0.077 7.3 5.28 9.42
7/4/2021 12:30:00 PM 16.6 61.88 0.077 7.29 5.24 9.35
7/4/2021 12:45:00 PM 16.77 62.186 0.077 7.3 5.26 9.32
7/4/2021 1:00:00 PM 16.93 62.474 0.077 7.26 5.5 9.3
7/4/2021 1:15:00 PM 17.17 62.906 0.077 7.3 5.09 9.27
7/4/2021 1:30:00 PM 17.5 63.5 0.077 7.29 5.08 9.23
7/4/2021 1:45:00 PM 17.81 64.058 0.077 7.32 5.02 9.17
7/4/2021 2:00:00 PM 18.1 64.58 0.077 7.31 4.9 9.12
7/4/2021 2:15:00 PM 18.03 64.454 0.077 7.31 5.08 9.05
7/4/2021 2:30:00 PM 18.14 64.652 0.077 7.31 5.34 9.07
7/4/2021 2:45:00 PM 18.37 65.066 0.077 7.32 5.18 9.04
7/4/2021 3:00:00 PM 18.56 65.408 0.076 7.29 5.28 9.01
7/4/2021 3:15:00 PM 18.65 65.57 0.076 7.32 5.42 8.98
7/4/2021 3:30:00 PM 18.55 65.39 0.076 7.3 5.43 8.92
7/4/2021 3:45:00 PM 18.52 65.336 0.076 7.3 5.34 8.9
7/4/2021 4:00:00 PM 18.57 65.426 0.076 7.29 5.02 8.92
7/4/2021 4:15:00 PM 18.63 65.534 0.076 7.3 4.94 8.87
7/4/2021 4:30:00 PM 18.65 65.57 0.076 7.29 5.58 8.82
7/4/2021 4:45:00 PM 18.54 65.372 0.076 7.28 5.07 8.85
7/4/2021 5:00:00 PM 18.41 65.138 0.076 7.28 5.39 8.84
7/4/2021 5:15:00 PM 18.31 64.958 0.076 7.25 5.52 8.82
7/4/2021 5:30:00 PM 18.32 64.976 0.076 7.27 5.13 8.83
7/4/2021 5:45:00 PM 18.28 64.904 0.076 7.27 5.74 8.84
7/4/2021 6:00:00 PM 18.21 64.778 0.076 7.27 5.46 8.84
7/4/2021 6:15:00 PM 18.14 64.652 0.076 7.27 4.94 8.85
7/4/2021 6:30:00 PM 18.01 64.418 0.076 7.22 5.17 8.82
7/4/2021 6:45:00 PM 17.86 64.148 0.076 7.24 5.79 8.82
7/4/2021 7:00:00 PM 17.67 63.806 0.076 7.22 5.44 8.82
7/4/2021 7:15:00 PM 17.51 63.518 0.076 7.21 5.1 8.83
7/4/2021 7:30:00 PM 17.36 63.248 0.076 7.18 5.02 8.85
7/4/2021 7:45:00 PM 17.22 62.996 0.076 7.2 5.18 8.85
7/4/2021 8:00:00 PM 17.09 62.762 0.076 7.21 5.28 8.85
7/4/2021 8:15:00 PM 16.96 62.528 0.076 7.18 5.01 8.86
7/4/2021 8:30:00 PM 16.84 62.312 0.076 7.17 5.15 8.87
7/4/2021 8:45:00 PM 16.72 62.096 0.076 7.16 5.98 8.88
7/4/2021 9:00:00 PM 16.6 61.88 0.076 7.18 5.02 8.89
7/4/2021 9:15:00 PM 16.48 61.664 0.076 7.18 5.84 8.9
7/4/2021 9:30:00 PM 16.36 61.448 0.076 7.17 6.51 8.91
7/4/2021 9:45:00 PM 16.25 61.25 0.076 7.17 5.48 8.93
7/4/2021 10:00:00 PM 16.14 61.052 0.076 7.15 5.63 8.96
7/4/2021 10:15:00 PM 16.03 60.854 0.076 7.13 5.52 8.98
7/4/2021 10:30:00 PM 15.92 60.656 0.076 7.16 5.68 8.99
7/4/2021 10:45:00 PM 15.82 60.476 0.076 7.11 6.09 9.01
7/4/2021 11:00:00 PM 15.73 60.314 0.076 7.15 5.36 9.03
7/4/2021 11:15:00 PM 15.63 60.134 0.076 7.15 5.38 9.05
7/4/2021 11:30:00 PM 15.54 59.972 0.076 7.14 5.26 9.08
7/4/2021 11:45:00 PM 15.45 59.81 0.076 7.12 5.37 9.09
7/5/2021 12:00:00 AM 15.36 59.648 0.076 7.14 5.59 9.11
7/5/2021 12:15:00 AM 15.27 59.486 0.076 7.1 5.53 9.13
7/5/2021 12:30:00 AM 15.19 59.342 0.076 7.14 5.23 9.14
7/5/2021 12:45:00 AM 15.11 59.198 0.076 7.11 5.34 9.17
7/5/2021 1:00:00 AM 15.03 59.054 0.076 7.14 5.29 9.19
7/5/2021 1:15:00 AM 14.94 58.892 0.076 7.11 4.72 9.21
7/5/2021 1:30:00 AM 14.86 58.748 0.075 7.13 5.14 9.23
7/5/2021 1:45:00 AM 14.78 58.604 0.076 7.14 5.23 9.24
7/5/2021 2:00:00 AM 14.7 58.46 0.075 7.12 4.97 9.26
7/5/2021 2:15:00 AM 14.62 58.316 0.075 7.11 5.15 9.28
7/5/2021 2:30:00 AM 14.54 58.172 0.075 7.13 4.92 9.29
7/5/2021 2:45:00 AM 14.46 58.028 0.075 7.14 5.53 9.32
7/5/2021 3:00:00 AM 14.37 57.866 0.075 7.14 5.18 9.34
7/5/2021 3:15:00 AM 14.29 57.722 0.075 7.11 4.98 9.36
7/5/2021 3:30:00 AM 14.21 57.578 0.075 7.13 5.2 9.38
7/5/2021 3:45:00 AM 14.13 57.434 0.075 7.12 4.84 9.4
7/5/2021 4:00:00 AM 14.05 57.29 0.075 7.13 5.2 9.41
7/5/2021 4:15:00 AM 13.97 57.146 0.075 7.11 4.79 9.42
7/5/2021 4:30:00 AM 13.89 57.002 0.075 7.11 5.27 9.44
7/5/2021 4:45:00 AM 13.82 56.876 0.075 7.13 5.12 9.46
7/5/2021 5:00:00 AM 13.74 56.732 0.075 7.12 5.01 9.48
7/5/2021 5:15:00 AM 13.67 56.606 0.075 7.12 5.04 9.5
7/5/2021 5:30:00 AM 13.6 56.48 0.074 7.13 4.82 9.52
7/5/2021 5:45:00 AM 13.53 56.354 0.074 7.12 5.26 9.54
7/5/2021 6:00:00 AM 13.47 56.246 0.074 7.1 5.91 9.56
7/5/2021 6:15:00 AM 13.41 56.138 0.074 7.12 4.88 9.59
7/5/2021 6:30:00 AM 13.36 56.048 0.074 7.12 5.3 9.61
7/5/2021 6:45:00 AM 13.32 55.976 0.074 7.14 5.07 9.65
7/5/2021 7:00:00 AM 13.29 55.922 0.074 7.12 5.08 9.67
7/5/2021 7:15:00 AM 13.26 55.868 0.074 7.15 5.25 9.7
7/5/2021 7:30:00 AM 13.25 55.85 0.074 7.16 4.89 9.73
7/5/2021 7:45:00 AM 13.25 55.85 0.074 7.17 5.76 9.75
7/5/2021 8:00:00 AM 13.26 55.868 0.074 7.16 5.35 9.78
7/5/2021 8:15:00 AM 13.3 55.94 0.073 7.19 4.84 9.79
7/5/2021 8:30:00 AM 13.36 56.048 0.073 7.19 4.95 9.82
7/5/2021 8:45:00 AM 13.46 56.228 0.073 7.2 6.46 9.83
7/5/2021 9:00:00 AM 13.58 56.444 0.073 7.21 5.03 9.84
7/5/2021 9:15:00 AM 13.75 56.75 0.073 7.22 5.07 9.85
7/5/2021 9:30:00 AM 13.94 57.092 0.073 7.23 5.91 9.84
7/5/2021 9:45:00 AM 14.13 57.434 0.073 7.24 6.21 9.83
7/5/2021 10:00:00 AM 14.33 57.794 0.073 7.25 5.28 9.82
7/5/2021 10:15:00 AM 14.53 58.154 0.072 7.25 5 9.79
7/5/2021 10:30:00 AM 14.76 58.568 0.072 7.26 4.88 9.77
7/5/2021 10:45:00 AM 15.01 59.018 0.072 7.24 5.06 9.74
7/5/2021 11:00:00 AM 15.25 59.45 0.072 7.28 5.2 9.7
7/5/2021 11:15:00 AM 15.49 59.882 0.072 7.29 4.83 9.67
7/5/2021 11:30:00 AM 15.75 60.35 0.072 7.29 5.1 9.63
7/5/2021 11:45:00 AM 16.03 60.854 0.072 7.29 5.99 9.57
7/5/2021 12:00:00 PM 16.27 61.286 0.072 7.31 5.32 9.54
7/5/2021 12:15:00 PM 16.45 61.61 0.072 7.3 5.02 9.5
7/5/2021 12:30:00 PM 16.67 62.006 0.072 7.3 5.23 9.47
7/5/2021 12:45:00 PM 16.86 62.348 0.071 7.31 5.21 9.44
7/5/2021 1:00:00 PM 17.16 62.888 0.071 7.29 5.13 9.37
7/5/2021 1:15:00 PM 17.46 63.428 0.071 7.31 5.34 9.32
7/5/2021 1:30:00 PM 17.71 63.878 0.071 7.32 5.1 9.27
7/5/2021 1:45:00 PM 17.96 64.328 0.071 7.31 7.58 9.22
7/5/2021 2:00:00 PM 18.18 64.724 0.071 7.32 4.91 9.18
7/5/2021 2:15:00 PM 18.41 65.138 0.071 7.33 5.07 9.13
7/5/2021 2:30:00 PM 18.58 65.444 0.071 7.32 5.03 9.09
7/5/2021 2:45:00 PM 18.78 65.804 0.071 7.31 4.89 9.04
7/5/2021 3:00:00 PM 18.91 66.038 0.071 7.31 4.78 9
7/5/2021 3:15:00 PM 19.08 66.344 0.071 7.31 4.86 8.95
7/5/2021 3:30:00 PM 19.22 66.596 0.071 7.31 5.01 8.92
7/5/2021 3:45:00 PM 19.3 66.74 0.071 7.3 5.25 8.87
7/5/2021 4:00:00 PM 19.38 66.884 0.071 7.3 4.93 8.86
7/5/2021 4:15:00 PM 19.42 66.956 0.07 7.29 4.64 8.82
7/5/2021 4:30:00 PM 19.42 66.956 0.071 7.3 4.76 8.77
7/5/2021 4:45:00 PM 19.41 66.938 0.071 7.28 5.62 8.75
7/5/2021 5:00:00 PM 19.43 66.974 0.071 7.29 5.26 8.74
7/5/2021 5:15:00 PM 19.43 66.974 0.071 7.26 5.58 8.72
7/5/2021 5:30:00 PM 19.42 66.956 0.071 7.28 4.89 8.71
7/5/2021 5:45:00 PM 19.42 66.956 0.071 7.27 4.77 8.69
7/5/2021 6:00:00 PM 19.38 66.884 0.071 7.27 5.55 8.67
7/5/2021 6:15:00 PM 19.33 66.794 0.071 7.25 5.07 8.65
7/5/2021 6:30:00 PM 19.25 66.65 0.07 7.25 5.1 8.63
7/5/2021 6:45:00 PM 19.17 66.506 0.071 7.24 5.05 8.62
7/5/2021 7:00:00 PM 19.09 66.362 0.071 7.23 5.19 8.6
7/5/2021 7:15:00 PM 18.99 66.182 0.071 7.21 5.43 8.59
7/5/2021 7:30:00 PM 18.87 65.966 0.071 7.19 4.95 8.59
7/5/2021 7:45:00 PM 18.76 65.768 0.07 7.16 5.21 8.58
7/5/2021 8:00:00 PM 18.63 65.534 0.071 7.16 5.1 8.58
7/5/2021 8:15:00 PM 18.51 65.318 0.071 7.12 5.08 8.56
7/5/2021 8:30:00 PM 18.4 65.12 0.071 7.11 5.81 8.55
7/5/2021 8:45:00 PM 18.28 64.904 0.071 7.12 5.32 8.56
7/5/2021 9:00:00 PM 18.16 64.688 0.071 7.1 5.94 8.56
7/5/2021 9:15:00 PM 18.05 64.49 0.071 7.1 5.11 8.57
7/5/2021 9:30:00 PM 17.94 64.292 0.071 7.08 5.58 8.58
7/5/2021 9:45:00 PM 17.82 64.076 0.071 7.06 5.23 8.6
7/5/2021 10:00:00 PM 17.71 63.878 0.071 7.06 5.2 8.62
7/5/2021 10:15:00 PM 17.6 63.68 0.071 7.06 5.37 8.65
7/5/2021 10:30:00 PM 17.49 63.482 0.071 7.06 5.31 8.66
7/5/2021 10:45:00 PM 17.38 63.284 0.071 7.04 5.19 8.68
7/5/2021 11:00:00 PM 17.28 63.104 0.071 7.05 5.35 8.7
7/5/2021 11:15:00 PM 17.18 62.924 0.071 7.04 5.17 8.71
7/5/2021 11:30:00 PM 17.08 62.744 0.071 7.01 5.37 8.73
7/5/2021 11:45:00 PM 16.98 62.564 0.071 7.05 4.97 8.75
7/6/2021 12:00:00 AM 16.89 62.402 0.071 7.01 4.1 8.78
7/6/2021 12:15:00 AM 16.8 62.24 0.072 7.03 5.24 8.8
7/6/2021 12:30:00 AM 16.71 62.078 0.072 7.04 4.82 8.81
7/6/2021 12:45:00 AM 16.63 61.934 0.072 7.03 4.97 8.83
7/6/2021 1:00:00 AM 16.56 61.808 0.071 7.04 5.37 8.84
7/6/2021 1:15:00 AM 16.49 61.682 0.072 7 4.83 8.85
7/6/2021 1:30:00 AM 16.42 61.556 0.072 7.04 5.83 8.87
7/6/2021 1:45:00 AM 16.36 61.448 0.072 7.04 4.9 8.89
7/6/2021 2:00:00 AM 16.29 61.322 0.072 7.03 4.97 8.89
7/6/2021 2:15:00 AM 16.23 61.214 0.072 7.03 5.17 8.91
7/6/2021 2:30:00 AM 16.17 61.106 0.072 6.99 5.66 8.92
7/6/2021 2:45:00 AM 16.11 60.998 0.072 7 4.91 8.93
7/6/2021 3:00:00 AM 16.05 60.89 0.072 7.02 4.83 8.94
7/6/2021 3:15:00 AM 15.99 60.782 0.072 7.02 5.8 8.96
7/6/2021 3:30:00 AM 15.93 60.674 0.072 7 4.73 8.97
7/6/2021 3:45:00 AM 15.88 60.584 0.072 7.01 4.91 8.98
7/6/2021 4:00:00 AM 15.82 60.476 0.072 7.02 4.68 8.99
7/6/2021 4:15:00 AM 15.77 60.386 0.071 7 5.38 9
7/6/2021 4:30:00 AM 15.71 60.278 0.071 6.96 4.96 9.02
7/6/2021 4:45:00 AM 15.67 60.206 0.071 7.02 5.22 9.04
7/6/2021 5:00:00 AM 15.62 60.116 0.071 7.02 5.06 9.05
7/6/2021 5:15:00 AM 15.58 60.044 0.071 7 5.29 9.06
7/6/2021 5:30:00 AM 15.53 59.954 0.071 7 5.56 9.07
7/6/2021 5:45:00 AM 15.49 59.882 0.071 7.02 5.41 9.08
7/6/2021 6:00:00 AM 15.44 59.792 0.071 7.02 5.83 9.1
7/6/2021 6:15:00 AM 15.39 59.702 0.071 7.01 5.26 9.11
7/6/2021 6:30:00 AM 15.36 59.648 0.071 7 2.75 9.13
7/6/2021 6:45:00 AM 15.32 59.576 0.071 7.02 4.92 9.16
7/6/2021 7:00:00 AM 15.3 59.54 0.071 7.02 5.96 9.2
7/6/2021 7:15:00 AM 15.29 59.522 0.071 7.04 4.83 9.22
7/6/2021 7:30:00 AM 15.3 59.54 0.071 7.05 5.05 9.25
7/6/2021 7:45:00 AM 15.32 59.576 0.07 7.07 5 9.27
7/6/2021 8:00:00 AM 15.39 59.702 0.071 7.07 4.69 9.3
7/6/2021 8:15:00 AM 15.47 59.846 0.07 7.09 5.03 9.32
7/6/2021 8:30:00 AM 15.55 59.99 0.07 7.15 5.08 9.33
7/6/2021 8:45:00 AM 15.7 60.26 0.07 7.18 4.73 9.35
7/6/2021 9:00:00 AM 15.84 60.512 0.07 7.18 5.1 9.35
7/6/2021 9:15:00 AM 15.98 60.764 0.07 7.2 5.07 9.36
7/6/2021 9:30:00 AM 16.11 60.998 0.07 7.21 5.03 9.34
7/6/2021 9:45:00 AM 16.27 61.286 0.07 7.2 5.48 9.33
7/6/2021 10:00:00 AM 16.46 61.628 0.07 7.22 6.03 9.34
7/6/2021 10:15:00 AM 16.69 62.042 0.07 7.22 4.78 9.33
7/6/2021 10:30:00 AM 16.93 62.474 0.069 7.25 4.88 9.3
7/6/2021 10:45:00 AM 17.12 62.816 0.069 7.25 4.83 9.26
7/6/2021 11:00:00 AM 17.4 63.32 0.069 7.25 5.25 9.25
7/6/2021 11:15:00 AM 17.7 63.86 0.069 7.28 5.93 9.2
7/6/2021 11:30:00 AM 17.97 64.346 0.069 7.28 5.44 9.16
7/6/2021 11:45:00 AM 18.17 64.706 0.069 7.29 5.31 9.11
7/6/2021 12:00:00 PM 18.39 65.102 0.069 7.28 4.85 9.07
7/6/2021 12:15:00 PM 18.67 65.606 0.069 7.29 4.72 9.05
7/6/2021 12:30:00 PM 18.95 66.11 0.069 7.29 5.08 9.01
7/6/2021 12:45:00 PM 19.18 66.524 0.068 7.31 5.06 8.97
7/6/2021 1:00:00 PM 19.38 66.884 0.068 7.31 4.92 8.93
7/6/2021 1:15:00 PM 19.67 67.406 0.068 7.32 5.69 8.88
7/6/2021 1:30:00 PM 19.68 67.424 0.068 7.31 5.47 8.79
7/6/2021 1:45:00 PM 19.39 66.902 0.066 7.19 7.27 8.6
7/6/2021 2:00:00 PM 19.11 66.398 0.066 7.19 7.38 8.52
7/6/2021 2:15:00 PM 18.93 66.074 0.067 7.18 6.85 8.51
7/6/2021 2:30:00 PM 18.84 65.912 0.067 7.18 6.28 8.6
7/6/2021 2:45:00 PM 18.85 65.93 0.067 7.2 6.27 8.71
7/6/2021 3:00:00 PM 18.97 66.146 0.067 7.23 6.11 8.78
7/6/2021 3:15:00 PM 19.17 66.506 0.067 7.24 6.36 8.79
7/6/2021 3:30:00 PM 19.38 66.884 0.067 7.24 5.96 8.76
7/6/2021 3:45:00 PM 19.55 67.19 0.067 7.24 6.48 8.72
7/6/2021 4:00:00 PM 19.56 67.208 0.067 7.22 5.74 8.67
7/6/2021 4:15:00 PM 19.47 67.046 0.067 7.21 5.77 8.62
7/6/2021 4:30:00 PM 19.34 66.812 0.067 7.19 6.6 8.59
7/6/2021 4:45:00 PM 19.3 66.74 0.067 7.19 5.87 8.59
7/6/2021 5:00:00 PM 19.32 66.776 0.067 7.19 5.77 8.6
7/6/2021 5:15:00 PM 19.36 66.848 0.067 7.19 5.79 8.63
7/6/2021 5:30:00 PM 19.33 66.794 0.068 7.22 6.25 8.67
7/6/2021 5:45:00 PM 19.28 66.704 0.068 7.23 7.14 8.66
7/6/2021 6:00:00 PM 19.26 66.668 0.068 7.22 6.79 8.65
7/6/2021 6:15:00 PM 19.23 66.614 0.069 7.21 6.95 8.63
7/6/2021 6:30:00 PM 19.14 66.452 0.069 7.19 6.47 8.59
7/6/2021 6:45:00 PM 19.05 66.29 0.069 7.18 6.1 8.55
7/6/2021 7:00:00 PM 18.96 66.128 0.069 7.14 6.72 8.53
7/6/2021 7:15:00 PM 18.86 65.948 0.069 7.14 6.86 8.57
7/6/2021 7:30:00 PM 18.77 65.786 0.069 7.13 6.36 8.59
7/6/2021 7:45:00 PM 18.7 65.66 0.069 7.14 5.83 8.61
7/6/2021 8:00:00 PM 18.62 65.516 0.068 7.14 5.67 8.6
7/6/2021 8:15:00 PM 18.53 65.354 0.068 7.1 5.7 8.58
7/6/2021 8:30:00 PM 18.43 65.174 0.068 7.11 6.09 8.56
7/6/2021 8:45:00 PM 18.34 65.012 0.068 7.1 5.64 8.55
7/6/2021 9:00:00 PM 18.24 64.832 0.068 7.09 6.37 8.55
7/6/2021 9:15:00 PM 18.15 64.67 0.069 7.08 6.01 8.56
7/6/2021 9:30:00 PM 18.06 64.508 0.069 7.07 5.45 8.57
7/6/2021 9:45:00 PM 17.97 64.346 0.069 7.04 5.73 8.58
7/6/2021 10:00:00 PM 17.88 64.184 0.069 7.07 5.47 8.58
7/6/2021 10:15:00 PM 17.79 64.022 0.069 7.05 5.53 8.6
7/6/2021 10:30:00 PM 17.7 63.86 0.07 7.06 5.45 8.62
7/6/2021 10:45:00 PM 17.62 63.716 0.07 7.05 5.36 8.63
7/6/2021 11:00:00 PM 17.53 63.554 0.07 7.05 7.32 8.65
7/6/2021 11:15:00 PM 17.45 63.41 0.071 7.04 5.44 8.66
7/6/2021 11:30:00 PM 17.38 63.284 0.071 7.04 5.66 8.67
7/6/2021 11:45:00 PM 17.31 63.158 0.071 7.04 5.8 8.69
7/7/2021 12:00:00 AM 17.24 63.032 0.071 7.04 4.78 8.7
7/7/2021 12:15:00 AM 17.18 62.924 0.071 7.05 5.6 8.71
7/7/2021 12:30:00 AM 17.12 62.816 0.071 7.03 4.84 8.72
7/7/2021 12:45:00 AM 17.06 62.708 0.071 7.02 4.89 8.74
7/7/2021 1:00:00 AM 17 62.6 0.071 7.04 4.79 8.75
7/7/2021 1:15:00 AM 16.95 62.51 0.071 7.04 4.77 8.76
7/7/2021 1:30:00 AM 16.89 62.402 0.071 7.03 5.17 8.77
7/7/2021 1:45:00 AM 16.82 62.276 0.071 7.02 5.87 8.79
7/7/2021 2:00:00 AM 16.76 62.168 0.071 7.01 5.08 8.8
7/7/2021 2:15:00 AM 16.71 62.078 0.071 7.01 4.82 8.81
7/7/2021 2:30:00 AM 16.66 61.988 0.071 7.02 5.19 8.81
7/7/2021 2:45:00 AM 16.61 61.898 0.071 7.01 5.05 8.83
7/7/2021 3:00:00 AM 16.57 61.826 0.071 7 5.07 8.84
7/7/2021 3:15:00 AM 16.53 61.754 0.071 7.01 4.87 8.85
7/7/2021 3:30:00 AM 16.49 61.682 0.071 7.02 5.05 8.86
7/7/2021 3:45:00 AM 16.45 61.61 0.071 7.04 4.97 8.87
7/7/2021 4:00:00 AM 16.4 61.52 0.07 7.07 4.84 8.87
7/7/2021 4:15:00 AM 16.35 61.43 0.071 7.07 5.12 8.89
7/7/2021 4:30:00 AM 16.31 61.358 0.071 7.06 4.89 8.89
7/7/2021 4:45:00 AM 16.24 61.232 0.071 7.04 6.01 8.91
7/7/2021 5:00:00 AM 16.17 61.106 0.071 7.08 5.53 8.93
7/7/2021 5:15:00 AM 16.11 60.998 0.071 7.06 5.24 8.94
7/7/2021 5:30:00 AM 16.05 60.89 0.071 7.08 5.16 8.95
7/7/2021 5:45:00 AM 16 60.8 0.071 7.06 5.47 8.96
7/7/2021 6:00:00 AM 15.94 60.692 0.071 7.08 5.51 8.97
7/7/2021 6:15:00 AM 15.87 60.566 0.071 7.06 5.6 9
7/7/2021 6:30:00 AM 15.82 60.476 0.071 7.07 5.47 9.03
7/7/2021 6:45:00 AM 15.77 60.386 0.071 7.09 5.93 9.06
7/7/2021 7:00:00 AM 15.73 60.314 0.071 7.08 6.31 9.07
7/7/2021 7:15:00 AM 15.71 60.278 0.071 7.09 5.86 9.11
7/7/2021 7:30:00 AM 15.7 60.26 0.071 7.09 6.54 9.14
7/7/2021 7:45:00 AM 15.71 60.278 0.07 7.1 6.24 9.17
7/7/2021 8:00:00 AM 15.73 60.314 0.07 7.11 6.05 9.19
7/7/2021 8:15:00 AM 15.78 60.404 0.07 7.14 5.73 9.21
7/7/2021 8:30:00 AM 15.85 60.53 0.07 7.14 5.15 9.23
7/7/2021 8:45:00 AM 15.94 60.692 0.071 7.14 5.5 9.24
7/7/2021 9:00:00 AM 16.04 60.872 0.07 7.16 5.42 9.26
7/7/2021 9:15:00 AM 16.18 61.124 0.07 7.17 5.49 9.27
7/7/2021 9:30:00 AM 16.34 61.412 0.07 7.18 5.3 9.28
7/7/2021 9:45:00 AM 16.5 61.7 0.07 7.18 5.05 9.28
7/7/2021 10:00:00 AM 16.69 62.042 0.07 7.22 5.45 9.27
7/7/2021 10:15:00 AM 16.88 62.384 0.07 7.22 5.23 9.27
7/7/2021 10:30:00 AM 17.06 62.708 0.071 7.23 5.17 9.25
7/7/2021 10:45:00 AM 17.23 63.014 0.071 7.25 5.32 9.22
7/7/2021 11:00:00 AM 17.48 63.464 0.071 7.25 5.22 9.2
7/7/2021 11:15:00 AM 17.71 63.878 0.072 7.25 5.57 9.15
7/7/2021 11:30:00 AM 17.93 64.274 0.072 7.28 5.39 9.15
7/7/2021 11:45:00 AM 18.17 64.706 0.072 7.28 5.41 9.12
7/7/2021 12:00:00 PM 18.4 65.12 0.072 7.3 5.14 9.08
7/7/2021 12:15:00 PM 18.63 65.534 0.072 7.3 5.26 9.05
7/7/2021 12:30:00 PM 18.79 65.82201 0.072 7.3 5.35 9.02
7/7/2021 12:45:00 PM 18.98 66.164 0.072 7.31 5.16 8.99
7/7/2021 1:00:00 PM 19.22 66.596 0.072 7.31 5.61 8.96
7/7/2021 1:15:00 PM 19.48 67.064 0.072 7.31 4.98 8.92
7/7/2021 1:30:00 PM 19.7 67.46 0.072 7.31 5.13 8.88
7/7/2021 1:45:00 PM 19.83 67.694 0.072 7.31 4.98 8.83
7/7/2021 2:00:00 PM 19.99 67.982 0.072 7.31 4.96 8.79
7/7/2021 2:15:00 PM 20.09 68.162 0.072 7.31 5.15 8.76
7/7/2021 2:30:00 PM 20.2 68.36 0.072 7.3 4.87 8.72
7/7/2021 2:45:00 PM 20.33 68.594 0.072 7.3 4.93 8.7
7/7/2021 3:00:00 PM 20.47 68.846 0.072 7.31 4.63 8.68
7/7/2021 3:15:00 PM 20.57 69.026 0.073 7.26 4.79 8.65
7/7/2021 3:30:00 PM 20.79 69.422 0.073 7.31 5.1 8.63
7/7/2021 3:45:00 PM 20.83 69.494 0.073 7.32 5.32 8.6
7/7/2021 4:00:00 PM 20.87 69.566 0.073 7.32 5.17 8.57
7/7/2021 4:15:00 PM 20.92 69.656 0.073 7.3 5.2 8.53
7/7/2021 4:30:00 PM 20.91 69.638 0.073 7.29 5.85 8.51
7/7/2021 4:45:00 PM 20.87 69.566 0.073 7.28 5.17 8.5
7/7/2021 5:00:00 PM 20.84 69.512 0.073 7.28 5.29 8.45
7/7/2021 5:15:00 PM 20.79 69.422 0.073 7.27 5.06 8.45
7/7/2021 5:30:00 PM 20.72 69.296 0.074 7.27 4.8 8.44
7/7/2021 5:45:00 PM 20.68 69.224 0.074 7.24 4.96 8.43
7/7/2021 6:00:00 PM 20.68 69.224 0.074 7.25 4.7 8.42
7/7/2021 6:15:00 PM 20.6 69.08 0.074 7.23 5.12 8.39
7/7/2021 6:30:00 PM 20.46 68.828 0.074 7.21 5.06 8.34
7/7/2021 6:45:00 PM 20.31 68.558 0.074 7.17 5.1 8.3
7/7/2021 7:00:00 PM 20.16 68.288 0.075 7.16 4.93 8.29
7/7/2021 7:15:00 PM 20.01 68.018 0.075 7.16 5.42 8.29
7/7/2021 7:30:00 PM 19.89 67.802 0.075 7.15 5.42 8.3
7/7/2021 7:45:00 PM 19.75 67.55 0.075 7.17 4.85 8.29
7/7/2021 8:00:00 PM 19.58 67.244 0.074 7.17 5.47 8.31
7/7/2021 8:15:00 PM 19.44 66.992 0.074 7.16 5.45 8.31
7/7/2021 8:30:00 PM 19.31 66.758 0.075 7.16 5.3 8.32
7/7/2021 8:45:00 PM 19.17 66.506 0.075 7.16 5.48 8.34
7/7/2021 9:00:00 PM 19.01 66.218 0.075 7.15 5.42 8.36
7/7/2021 9:15:00 PM 18.87 65.966 0.075 7.14 5.34 8.38
7/7/2021 9:30:00 PM 18.74 65.732 0.075 7.12 5.68 8.4
7/7/2021 9:45:00 PM 18.63 65.534 0.075 7.14 5.5 8.41
7/7/2021 10:00:00 PM 18.53 65.354 0.075 7.13 5.29 8.43
7/7/2021 10:15:00 PM 18.43 65.174 0.075 7.11 5.47 8.44
7/7/2021 10:30:00 PM 18.32 64.976 0.075 7.13 5.52 8.46
7/7/2021 10:45:00 PM 18.22 64.796 0.075 7.13 5.08 8.49
7/7/2021 11:00:00 PM 18.11 64.598 0.075 7.12 5.5 8.52
7/7/2021 11:15:00 PM 18.01 64.418 0.075 7.11 5.18 8.53
7/7/2021 11:30:00 PM 17.92 64.256 0.075 7.12 5.43 8.55
7/7/2021 11:45:00 PM 17.83 64.094 0.075 7.11 5.47 8.56
7/8/2021 12:00:00 AM 17.75 63.95 0.075 7.1 5.29 8.57
7/8/2021 12:15:00 AM 17.67 63.806 0.075 7.11 6.12 8.59
7/8/2021 12:30:00 AM 17.61 63.698 0.074 7.11 5.28 8.62
7/8/2021 12:45:00 AM 17.54 63.572 0.074 7.12 5.7 8.62
7/8/2021 1:00:00 AM 17.47 63.446 0.075 7.11 5.74 8.64
7/8/2021 1:15:00 AM 17.4 63.32 0.075 7.11 5.44 8.65
7/8/2021 1:30:00 AM 17.33 63.194 0.075 7.12 8.05 8.67
7/8/2021 1:45:00 AM 17.27 63.086 0.075 7.1 7 8.68
7/8/2021 2:00:00 AM 17.21 62.978 0.075 7.11 6.31 8.69
7/8/2021 2:15:00 AM 17.15 62.87 0.075 7.1 5.99 8.7
7/8/2021 2:30:00 AM 17.08 62.744 0.075 7.11 6.02 8.71
7/8/2021 2:45:00 AM 17.02 62.636 0.075 7.09 7.85 8.73
7/8/2021 3:00:00 AM 16.96 62.528 0.075 7.1 8.74 8.73
7/8/2021 3:15:00 AM 16.9 62.42 0.075 7.09 6.27 8.76
7/8/2021 3:30:00 AM 16.85 62.33 0.075 7.1 6.31 8.77
7/8/2021 3:45:00 AM 16.8 62.24 0.075 7.09 5.43 8.78
7/8/2021 4:00:00 AM 16.75 62.15 0.075 7.1 5.84 8.8
7/8/2021 4:15:00 AM 16.69 62.042 0.075 7.11 5.4 8.81
7/8/2021 4:30:00 AM 16.64 61.952 0.075 7.12 5.22 8.82
7/8/2021 4:45:00 AM 16.59 61.862 0.075 7.12 5.35 8.82
7/8/2021 5:00:00 AM 16.54 61.772 0.075 7.11 5.58 8.84
7/8/2021 5:15:00 AM 16.48 61.664 0.075 7.1 5.4 8.84
7/8/2021 5:30:00 AM 16.43 61.574 0.075 7.12 5.49 8.85
7/8/2021 5:45:00 AM 16.38 61.484 0.075 7.09 5.44 8.87
7/8/2021 6:00:00 AM 16.33 61.394 0.075 7.11 5.53 8.89
7/8/2021 6:15:00 AM 16.29 61.322 0.075 7.11 5.37 8.91
7/8/2021 6:30:00 AM 16.25 61.25 0.075 7.1 5.45 8.92
7/8/2021 6:45:00 AM 16.22 61.196 0.075 7.1 5.16 8.95
7/8/2021 7:00:00 AM 16.2 61.16 0.075 7.09 5.62 8.96
7/8/2021 7:15:00 AM 16.18 61.124 0.075 7.09 5.38 8.98
7/8/2021 7:30:00 AM 16.17 61.106 0.075 7.13 5.12 9
7/8/2021 7:45:00 AM 16.15 61.07 0.075 7.15 5.22 9.02
7/8/2021 8:00:00 AM 16.13 61.034 0.075 7.14 6.09 9.02
7/8/2021 8:15:00 AM 16.11 60.998 0.076 7.13 5.03 9.01
7/8/2021 8:30:00 AM 16.1 60.98 0.076 7.14 5.35 9.03
7/8/2021 8:45:00 AM 16.09 60.962 0.076 7.13 5.02 9.05
7/8/2021 9:00:00 AM 16.08 60.944 0.076 7.13 5.05 9.07
7/8/2021 9:15:00 AM 16.08 60.944 0.076 7.16 5.03 9.08
7/8/2021 9:30:00 AM 16.09 60.962 0.076 7.13 5.1 9.09
7/8/2021 9:45:00 AM 16.1 60.98 0.076 7.17 5.11 9.12
7/8/2021 10:00:00 AM 16.12 61.016 0.076 7.16 6.55 9.15
7/8/2021 10:15:00 AM 16.14 61.052 0.075 7.16 5.07 9.13
7/8/2021 10:30:00 AM 16.19 61.142 0.075 7.17 5.18 9.18
7/8/2021 10:45:00 AM 16.26 61.268 0.075 7.21 5.16 9.24
7/8/2021 11:00:00 AM 16.35 61.43 0.076 7.22 4.85 9.26
7/8/2021 11:15:00 AM 16.47 61.646 0.076 7.25 5.06 9.28
7/8/2021 11:30:00 AM 16.56 61.808 0.076 7.23 5.34 9.27
7/8/2021 11:45:00 AM 16.83 62.294 0.076 7.27 5.28 9.31
7/8/2021 12:00:00 PM 16.96 62.528 0.076 7.27 4.89 9.27
7/8/2021 12:15:00 PM 17.09 62.762 0.076 7.28 5.36 9.25
7/8/2021 12:30:00 PM 17.3 63.14 0.076 7.3 4.89 9.26
7/8/2021 12:45:00 PM 17.41 63.338 0.076 7.3 6.01 9.22
7/8/2021 1:00:00 PM 17.46 63.428 0.077 7.29 5.56 9.13
7/8/2021 1:15:00 PM 17.45 63.41 0.077 7.27 5.44 9.08
7/8/2021 1:30:00 PM 17.49 63.482 0.077 7.27 5.22 9.11
7/8/2021 1:45:00 PM 17.56 63.608 0.077 7.29 4.95 9.13
7/8/2021 2:00:00 PM 17.65 63.77 0.077 7.29 5.07 9.11
7/8/2021 2:15:00 PM 17.62 63.716 0.077 7.28 5.24 9.03
7/8/2021 2:30:00 PM 17.56 63.608 0.077 7.27 5.13 8.95
7/8/2021 2:45:00 PM 17.51 63.518 0.077 7.23 4.89 8.91
7/8/2021 3:00:00 PM 17.48 63.464 0.076 7.24 5.11 8.91
7/8/2021 3:15:00 PM 17.51 63.518 0.076 7.24 5.18 8.96
7/8/2021 3:30:00 PM 17.49 63.482 0.077 7.25 5.54 8.96
7/8/2021 3:45:00 PM 17.55 63.59 0.077 7.25 5.33 8.98
7/8/2021 4:00:00 PM 17.62 63.716 0.077 7.27 5.45 9.03
7/8/2021 4:15:00 PM 17.65 63.77 0.077 7.28 4.94 8.99
7/8/2021 4:30:00 PM 17.73 63.914 0.077 7.28 6.11 9
7/8/2021 4:45:00 PM 17.75 63.95 0.077 7.28 5.16 8.96
7/8/2021 5:00:00 PM 17.81 64.058 0.077 7.27 4.7 8.93
7/8/2021 5:15:00 PM 17.75 63.95 0.077 7.25 5.32 8.9
7/8/2021 5:30:00 PM 17.71 63.878 0.078 7.26 5.3 8.88
7/8/2021 5:45:00 PM 17.68 63.824 0.078 7.21 4.81 8.83
7/8/2021 6:00:00 PM 17.64 63.752 0.078 7.23 5.01 8.87
7/8/2021 6:15:00 PM 17.63 63.734 0.078 7.24 5.01 8.87
7/8/2021 6:30:00 PM 17.61 63.698 0.078 7.24 5.11 8.85
7/8/2021 6:45:00 PM 17.56 63.608 0.078 7.24 4.92 8.84
7/8/2021 7:00:00 PM 17.52 63.536 0.078 7.22 4.8 8.85
7/8/2021 7:15:00 PM 17.48 63.464 0.078 7.23 5.11 8.84
7/8/2021 7:30:00 PM 17.43 63.374 0.078 7.2 6.16 8.8
7/8/2021 7:45:00 PM 17.38 63.284 0.078 7.19 4.89 8.78
7/8/2021 8:00:00 PM 17.34 63.212 0.078 7.18 5.27 8.77
7/8/2021 8:15:00 PM 17.29 63.122 0.078 7.19 5.5 8.77
7/8/2021 8:30:00 PM 17.24 63.032 0.079 7.17 4.75 8.77
7/8/2021 8:45:00 PM 17.18 62.924 0.079 7.15 5.18 8.76
7/8/2021 9:00:00 PM 17.11 62.798 0.079 7.15 5.31 8.76
7/8/2021 9:15:00 PM 17.05 62.69 0.079 7.15 5.02 8.75
7/8/2021 9:30:00 PM 17 62.6 0.079 7.15 5.23 8.75
7/8/2021 9:45:00 PM 16.95 62.51 0.079 7.13 5.22 8.76
7/8/2021 10:00:00 PM 16.9 62.42 0.079 7.12 5.65 8.77
7/8/2021 10:15:00 PM 16.84 62.312 0.079 7.12 5.1 8.77
7/8/2021 10:30:00 PM 16.79 62.222 0.079 7.12 5.15 8.78
7/8/2021 10:45:00 PM 16.75 62.15 0.079 7.11 5.04 8.79
7/8/2021 11:00:00 PM 16.72 62.096 0.079 7.09 5.07 8.79
7/8/2021 11:15:00 PM 16.68 62.024 0.079 7.1 5.21 8.8
7/8/2021 11:30:00 PM 16.63 61.934 0.079 7.09 4.88 8.81
7/8/2021 11:45:00 PM 16.59 61.862 0.079 7.09 5.39 8.81
7/9/2021 12:00:00 AM 16.54 61.772 0.079 7.08 4.86 8.82
7/9/2021 12:15:00 AM 16.5 61.7 0.079 7.1 5.25 8.83
7/9/2021 12:30:00 AM 16.45 61.61 0.079 7.09 4.87 8.84
7/9/2021 12:45:00 AM 16.41 61.538 0.079 7.1 5.5 8.85
7/9/2021 1:00:00 AM 16.36 61.448 0.079 7.1 4.95 8.86
7/9/2021 1:15:00 AM 16.32 61.376 0.079 7.1 5.13 8.87
7/9/2021 1:30:00 AM 16.27 61.286 0.079 7.1 4.71 8.88
7/9/2021 1:45:00 AM 16.23 61.214 0.079 7.1 4.88 8.88
7/9/2021 2:00:00 AM 16.19 61.142 0.079 7.09 6.05 8.89
7/9/2021 2:15:00 AM 16.14 61.052 0.079 7.1 5 8.9
7/9/2021 2:30:00 AM 16.09 60.962 0.079 7.11 5.04 8.91
7/9/2021 2:45:00 AM 16.05 60.89 0.079 7.1 5.13 8.91
7/9/2021 3:00:00 AM 16 60.8 0.079 7.09 6.32 8.92
7/9/2021 3:15:00 AM 15.96 60.728 0.078 7.11 5.82 8.92
7/9/2021 3:30:00 AM 15.92 60.656 0.078 7.11 5.03 8.93
7/9/2021 3:45:00 AM 15.88 60.584 0.078 7.1 6.27 8.94
7/9/2021 4:00:00 AM 15.85 60.53 0.078 7.1 5.4 8.95
7/9/2021 4:15:00 AM 15.82 60.476 0.078 7.11 4.98 8.96
7/9/2021 4:30:00 AM 15.8 60.44 0.078 7.11 4.83 8.96
7/9/2021 4:45:00 AM 15.78 60.404 0.078 7.11 5.12 8.96
7/9/2021 5:00:00 AM 15.76 60.368 0.078 7.07 5.81 8.97
7/9/2021 5:15:00 AM 15.73 60.314 0.078 7.1 5.09 8.98
7/9/2021 5:30:00 AM 15.71 60.278 0.078 7.11 4.92 8.98
7/9/2021 5:45:00 AM 15.69 60.242 0.078 7.09 5.37 8.99
7/9/2021 6:00:00 AM 15.66 60.188 0.078 7.11 5.15 9
7/9/2021 6:15:00 AM 15.64 60.152 0.078 7.1 5.19 9.01
7/9/2021 6:30:00 AM 15.62 60.116 0.078 7.11 7.62 9.03
7/9/2021 6:45:00 AM 15.61 60.098 0.077 7.11 4.93 9.05
7/9/2021 7:00:00 AM 15.6 60.08 0.077 7.1 6.77 9.07
7/9/2021 7:15:00 AM 15.6 60.08 0.077 7.12 5.57 9.1
7/9/2021 7:30:00 AM 15.63 60.134 0.077 7.15 5.02 9.16
7/9/2021 7:45:00 AM 15.67 60.206 0.077 7.18 4.88 9.23
7/9/2021 8:00:00 AM 15.72 60.296 0.077 7.19 5.48 9.24
7/9/2021 8:15:00 AM 15.77 60.386 0.077 7.18 5.28 9.27
7/9/2021 8:30:00 AM 15.81 60.458 0.077 7.2 5.37 9.27
7/9/2021 8:45:00 AM 15.87 60.566 0.077 7.2 5.13 9.28
7/9/2021 9:00:00 AM 15.93 60.674 0.077 7.21 4.73 9.29
7/9/2021 9:15:00 AM 16.03 60.854 0.077 7.23 4.86 9.31
7/9/2021 9:30:00 AM 16.08 60.944 0.077 7.23 4.84 9.3
7/9/2021 9:45:00 AM 16.13 61.034 0.077 7.24 4.91 9.29
7/9/2021 10:00:00 AM 16.22 61.196 0.077 7.24 5.05 9.29
7/9/2021 10:15:00 AM 16.32 61.376 0.077 7.26 5.17 9.3
7/9/2021 10:30:00 AM 16.39 61.502 0.077 7.27 6 9.29
7/9/2021 10:45:00 AM 16.47 61.646 0.076 7.27 5.23 9.27
7/9/2021 11:00:00 AM 16.54 61.772 0.076 7.26 5.7 9.26
7/9/2021 11:15:00 AM 16.56 61.808 0.076 7.26 6.22 9.21
7/9/2021 11:30:00 AM 16.55 61.79 0.076 7.26 6.16 9.17
7/9/2021 11:45:00 AM 16.55 61.79 0.076 7.24 5.77 9.17
7/9/2021 12:00:00 PM 16.65 61.97 0.076 7.25 5.26 9.22
7/9/2021 12:15:00 PM 16.85 62.33 0.076 7.27 5.14 9.27
7/9/2021 12:30:00 PM 16.86 62.348 0.076 7.28 4.96 9.18
7/9/2021 12:45:00 PM 16.87 62.366 0.076 7.26 4.96 9.15
7/9/2021 1:00:00 PM 16.85 62.33 0.076 7.25 5.32 9.15
7/9/2021 1:15:00 PM 17.09 62.762 0.076 7.24 5.01 9.18
7/9/2021 1:30:00 PM 17.47 63.446 0.076 7.3 5.14 9.2
7/9/2021 1:45:00 PM 17.76 63.968 0.075 7.31 5.16 9.14
7/9/2021 2:00:00 PM 17.71 63.878 0.076 7.28 5.42 9.02
7/9/2021 2:15:00 PM 17.59 63.662 0.076 7.27 5.52 9
7/9/2021 2:30:00 PM 17.63 63.734 0.075 7.28 5.11 9.06
7/9/2021 2:45:00 PM 17.78 64.004 0.076 7.29 4.88 9.05
7/9/2021 3:00:00 PM 17.99 64.382 0.075 7.3 5.45 9.05
7/9/2021 3:15:00 PM 18.14 64.652 0.075 7.28 5.3 9.04
7/9/2021 3:30:00 PM 18.33 64.994 0.075 7.32 5.03 9.01
7/9/2021 3:45:00 PM 18.49 65.282 0.076 7.29 5.15 8.96
7/9/2021 4:00:00 PM 18.63 65.534 0.075 7.31 5.28 8.96
7/9/2021 4:15:00 PM 18.7 65.66 0.075 7.31 5 8.92
7/9/2021 4:30:00 PM 18.76 65.768 0.075 7.32 5.04 8.9
7/9/2021 4:45:00 PM 18.87 65.966 0.075 7.3 5.17 8.87
7/9/2021 5:00:00 PM 18.91 66.038 0.075 7.31 5.13 8.81
7/9/2021 5:15:00 PM 18.9 66.02 0.075 7.3 5.7 8.77
7/9/2021 5:30:00 PM 18.98 66.164 0.075 7.3 5.35 8.8
7/9/2021 5:45:00 PM 18.97 66.146 0.075 7.3 5.06 8.8
7/9/2021 6:00:00 PM 18.93 66.074 0.075 7.29 5.07 8.75
7/9/2021 6:15:00 PM 18.87 65.966 0.075 7.29 4.89 8.74
7/9/2021 6:30:00 PM 18.8 65.84 0.075 7.3 5.28 8.75
7/9/2021 6:45:00 PM 18.71 65.67799 0.075 7.27 4.64 8.72
7/9/2021 7:00:00 PM 18.64 65.552 0.075 7.27 5.86 8.71
7/9/2021 7:15:00 PM 18.53 65.354 0.075 7.26 4.97 8.69
7/9/2021 7:30:00 PM 18.42 65.156 0.075 7.24 4.57 8.66
7/9/2021 7:45:00 PM 18.28 64.904 0.075 7.24 5.01 8.65
7/9/2021 8:00:00 PM 18.15 64.67 0.075 7.23 4.89 8.64
7/9/2021 8:15:00 PM 18.05 64.49 0.075 7.22 5.38 8.64
7/9/2021 8:30:00 PM 17.95 64.31 0.075 7.2 5.24 8.63
7/9/2021 8:45:00 PM 17.86 64.148 0.075 7.21 5.22 8.63
7/9/2021 9:00:00 PM 17.76 63.968 0.075 7.17 5.93 8.63
7/9/2021 9:15:00 PM 17.65 63.77 0.075 7.2 5.13 8.64
7/9/2021 9:30:00 PM 17.55 63.59 0.075 7.19 4.96 8.66
7/9/2021 9:45:00 PM 17.45 63.41 0.075 7.2 5.22 8.67
7/9/2021 10:00:00 PM 17.34 63.212 0.075 7.18 7.2 8.69
7/9/2021 10:15:00 PM 17.23 63.014 0.075 7.16 5.03 8.7
7/9/2021 10:30:00 PM 17.11 62.798 0.075 7.19 4.82 8.72
7/9/2021 10:45:00 PM 16.99 62.582 0.075 7.17 4.89 8.74
7/9/2021 11:00:00 PM 16.88 62.384 0.075 7.18 5.05 8.77
7/9/2021 11:15:00 PM 16.78 62.204 0.075 7.16 5.16 8.79
7/9/2021 11:30:00 PM 16.69 62.042 0.075 7.18 4.99 8.81
7/9/2021 11:45:00 PM 16.61 61.898 0.075 7.17 4.89 8.82
7/10/2021 12:00:00 AM 16.54 61.772 0.075 7.15 5.01 8.83
7/10/2021 12:15:00 AM 16.45 61.61 0.075 7.16 4.8 8.85
7/10/2021 12:30:00 AM 16.38 61.484 0.075 7.16 5.12 8.87
7/10/2021 12:45:00 AM 16.31 61.358 0.075 7.16 4.97 8.89
7/10/2021 1:00:00 AM 16.23 61.214 0.075 7.16 5.03 8.9
7/10/2021 1:15:00 AM 16.15 61.07 0.075 7.16 5.09 8.92
7/10/2021 1:30:00 AM 16.08 60.944 0.075 7.17 4.85 8.93
7/10/2021 1:45:00 AM 16.03 60.854 0.075 7.16 4.6 8.94
7/10/2021 2:00:00 AM 15.98 60.764 0.075 7.16 5.02 8.96
7/10/2021 2:15:00 AM 15.94 60.692 0.075 7.16 4.65 8.97
7/10/2021 2:30:00 AM 15.9 60.62 0.075 7.16 5.35 8.98
7/10/2021 2:45:00 AM 15.86 60.548 0.074 7.16 4.92 8.98
7/10/2021 3:00:00 AM 15.81 60.458 0.074 7.15 4.86 9
7/10/2021 3:15:00 AM 15.77 60.386 0.074 7.14 4.71 9
7/10/2021 3:30:00 AM 15.72 60.296 0.074 7.16 4.98 9.02
7/10/2021 3:45:00 AM 15.68 60.224 0.074 7.13 6.09 9.03
7/10/2021 4:00:00 AM 15.64 60.152 0.074 7.15 5.04 9.04
7/10/2021 4:15:00 AM 15.58 60.044 0.074 7.16 5.03 9.05
7/10/2021 4:30:00 AM 15.53 59.954 0.074 7.14 4.88 9.05
7/10/2021 4:45:00 AM 15.47 59.846 0.074 7.15 5.02 9.07
7/10/2021 5:00:00 AM 15.4 59.72 0.074 7.14 5.2 9.08
7/10/2021 5:15:00 AM 15.33 59.594 0.074 7.15 5.31 9.09
7/10/2021 5:30:00 AM 15.25 59.45 0.074 7.15 5.47 9.11
7/10/2021 5:45:00 AM 15.17 59.306 0.074 7.14 4.87 9.13
7/10/2021 6:00:00 AM 15.12 59.216 0.074 7.15 4.85 9.15
7/10/2021 6:15:00 AM 15.07 59.126 0.074 7.14 5.04 9.18
7/10/2021 6:30:00 AM 15.03 59.054 0.074 7.15 5.79 9.21
7/10/2021 6:45:00 AM 14.98 58.964 0.074 7.15 5.11 9.23
7/10/2021 7:00:00 AM 14.95 58.91 0.073 7.14 4.93 9.26
7/10/2021 7:15:00 AM 14.95 58.91 0.073 7.17 5.1 9.3
7/10/2021 7:30:00 AM 14.96 58.928 0.073 7.19 4.75 9.34
7/10/2021 7:45:00 AM 14.98 58.964 0.073 7.19 5.53 9.35
7/10/2021 8:00:00 AM 15 59 0.073 7.19 5.01 9.38
7/10/2021 8:15:00 AM 15.01 59.018 0.073 7.2 5.5 9.39
7/10/2021 8:30:00 AM 15.02 59.036 0.073 7.21 5.14 9.39
7/10/2021 8:45:00 AM 15.11 59.198 0.073 7.22 5.18 9.45
7/10/2021 9:00:00 AM 15.18 59.324 0.073 7.24 4.85 9.48
7/10/2021 9:15:00 AM 15.32 59.576 0.073 7.26 5.26 9.48
7/10/2021 9:30:00 AM 15.5 59.9 0.073 7.26 4.89 9.47
7/10/2021 9:45:00 AM 15.54 59.972 0.073 7.27 5.73 9.44
7/10/2021 10:00:00 AM 15.58 60.044 0.073 7.26 5.98 9.42
7/10/2021 10:15:00 AM 15.84 60.512 0.072 7.26 5.01 9.48
7/10/2021 10:30:00 AM 16.01 60.818 0.073 7.29 4.99 9.44
7/10/2021 10:45:00 AM 16.12 61.016 0.072 7.3 5.6 9.42
7/10/2021 11:00:00 AM 16.15 61.07 0.073 7.3 4.96 9.43
7/10/2021 11:15:00 AM 16.3 61.34 0.072 7.29 4.6 9.47
7/10/2021 11:30:00 AM 16.3 61.34 0.072 7.31 5.26 9.45
7/10/2021 11:45:00 AM 16.37 61.466 0.072 7.33 4.76 9.44
7/10/2021 12:00:00 PM 16.55 61.79 0.072 7.32 5.21 9.45
7/10/2021 12:15:00 PM 16.66 61.988 0.072 7.34 5.21 9.45
7/10/2021 12:30:00 PM 16.81 62.258 0.072 7.35 4.73 9.42
7/10/2021 12:45:00 PM 17.02 62.636 0.072 7.34 4.82 9.4
7/10/2021 1:00:00 PM 17.25 63.05 0.072 7.36 5.01 9.38
7/10/2021 1:15:00 PM 17.53 63.554 0.072 7.36 4.91 9.36
7/10/2021 1:30:00 PM 17.6 63.68 0.072 7.35 5.08 9.32
7/10/2021 1:45:00 PM 17.73 63.914 0.072 7.35 5.14 9.28
7/10/2021 2:00:00 PM 17.78 64.004 0.072 7.36 5.3 9.27
7/10/2021 2:15:00 PM 17.85 64.13 0.072 7.36 5.65 9.24
7/10/2021 2:30:00 PM 17.85 64.13 0.072 7.35 5.5 9.22
7/10/2021 2:45:00 PM 17.82 64.076 0.071 7.36 5.02 9.18
7/10/2021 3:00:00 PM 17.84 64.112 0.072 7.35 4.8 9.16
7/10/2021 3:15:00 PM 17.85 64.13 0.072 7.35 5.17 9.13
7/10/2021 3:30:00 PM 17.86 64.148 0.071 7.34 4.76 9.12
7/10/2021 3:45:00 PM 17.88 64.184 0.072 7.32 4.65 9.13
7/10/2021 4:00:00 PM 17.9 64.22 0.074 7.27 5.74 9.13
7/10/2021 4:15:00 PM 17.9 64.22 0.071 7.31 5.19 9.1
7/10/2021 4:30:00 PM 17.89 64.202 0.071 7.31 4.8 9.09
7/10/2021 4:45:00 PM 17.9 64.22 0.071 7.3 5.03 9.1
7/10/2021 5:00:00 PM 17.85 64.13 0.071 7.31 5.34 9.06
7/10/2021 5:15:00 PM 17.89 64.202 0.071 7.3 4.88 9.06
7/10/2021 5:30:00 PM 17.89 64.202 0.071 7.32 4.9 9.05
7/10/2021 5:45:00 PM 17.85 64.13 0.072 7.29 5.31 8.97
7/10/2021 6:00:00 PM 17.76 63.968 0.072 7.26 4.99 8.89
7/10/2021 6:15:00 PM 17.66 63.788 0.072 7.23 5.17 8.86
7/10/2021 6:30:00 PM 17.6 63.68 0.072 7.25 5.13 8.91
7/10/2021 6:45:00 PM 17.57 63.626 0.072 7.23 4.92 8.95
7/10/2021 7:00:00 PM 17.52 63.536 0.072 7.21 4.95 8.95
7/10/2021 7:15:00 PM 17.47 63.446 0.072 7.23 5.12 8.94
7/10/2021 7:30:00 PM 17.42 63.356 0.072 7.19 5.26 8.93
7/10/2021 7:45:00 PM 17.33 63.194 0.072 7.2 4.65 8.9
7/10/2021 8:00:00 PM 17.24 63.032 0.072 7.2 5.04 8.87
7/10/2021 8:15:00 PM 17.14 62.852 0.072 7.2 4.72 8.86
7/10/2021 8:30:00 PM 17.04 62.672 0.072 7.18 5.77 8.84
7/10/2021 8:45:00 PM 16.94 62.492 0.072 7.19 4.88 8.85
7/10/2021 9:00:00 PM 16.83 62.294 0.072 7.16 5.92 8.85
7/10/2021 9:15:00 PM 16.73 62.114 0.072 7.17 5.28 8.85
7/10/2021 9:30:00 PM 16.64 61.952 0.072 7.16 5.81 8.85
7/10/2021 9:45:00 PM 16.54 61.772 0.072 7.16 5.45 8.87
7/10/2021 10:00:00 PM 16.44 61.592 0.072 7.15 5.34 8.89
7/10/2021 10:15:00 PM 16.34 61.412 0.072 7.16 5.03 8.91
7/10/2021 10:30:00 PM 16.24 61.232 0.072 7.14 5.21 8.93
7/10/2021 10:45:00 PM 16.15 61.07 0.072 7.13 4.93 8.93
7/10/2021 11:00:00 PM 16.06 60.908 0.072 7.15 5.09 8.96
7/10/2021 11:15:00 PM 15.98 60.764 0.072 7.13 7.21 8.97
7/10/2021 11:30:00 PM 15.89 60.602 0.072 7.12 6.34 8.98
7/10/2021 11:45:00 PM 15.82 60.476 0.072 7.14 5.58 9
7/11/2021 12:00:00 AM 15.74 60.332 0.072 7.14 5.53 9.03
7/11/2021 12:15:00 AM 15.66 60.188 0.072 7.13 5.32 9.04
7/11/2021 12:30:00 AM 15.58 60.044 0.072 7.11 4.77 9.05
7/11/2021 12:45:00 AM 15.5 59.9 0.072 7.12 4.88 9.06
7/11/2021 1:00:00 AM 15.42 59.756 0.073 7.14 4.71 9.07
7/11/2021 1:15:00 AM 15.34 59.612 0.072 7.14 4.99 9.08
7/11/2021 1:30:00 AM 15.26 59.468 0.073 7.14 4.96 9.11
7/11/2021 1:45:00 AM 15.18 59.324 0.072 7.13 5.16 9.13
7/11/2021 2:00:00 AM 15.11 59.198 0.072 7.12 4.77 9.15
7/11/2021 2:15:00 AM 15.03 59.054 0.072 7.12 4.76 9.17
7/11/2021 2:30:00 AM 14.97 58.946 0.073 7.12 4.66 9.18
7/11/2021 2:45:00 AM 14.92 58.856 0.072 7.12 5.16 9.19
7/11/2021 3:00:00 AM 14.87 58.766 0.072 7.15 5.01 9.2
7/11/2021 3:15:00 AM 14.83 58.694 0.072 7.13 4.95 9.21
7/11/2021 3:30:00 AM 14.79 58.622 0.072 7.14 5.07 9.23
7/11/2021 3:45:00 AM 14.76 58.568 0.072 7.12 5.14 9.23
7/11/2021 4:00:00 AM 14.73 58.514 0.072 7.14 5.92 9.24
7/11/2021 4:15:00 AM 14.69 58.442 0.072 7.15 4.84 9.25
7/11/2021 4:30:00 AM 14.65 58.37 0.072 7.12 4.86 9.27
7/11/2021 4:45:00 AM 14.61 58.298 0.072 7.14 4.89 9.28
7/11/2021 5:00:00 AM 14.57 58.226 0.072 7.14 5.55 9.29
7/11/2021 5:15:00 AM 14.52 58.136 0.072 7.13 5.95 9.3
7/11/2021 5:30:00 AM 14.47 58.046 0.072 7.13 5.33 9.31
7/11/2021 5:45:00 AM 14.42 57.956 0.072 7.13 6.59 9.32
7/11/2021 6:00:00 AM 14.38 57.884 0.072 7.13 4.99 9.34
7/11/2021 6:15:00 AM 14.34 57.812 0.072 7.14 4.96 9.36
7/11/2021 6:30:00 AM 14.32 57.776 0.072 7.14 4.81 9.39
7/11/2021 6:45:00 AM 14.3 57.74 0.072 7.14 5.19 9.41
7/11/2021 7:00:00 AM 14.29 57.722 0.071 7.14 4.78 9.45
7/11/2021 7:15:00 AM 14.27 57.686 0.071 7.16 4.91 9.46
7/11/2021 7:30:00 AM 14.28 57.704 0.071 7.17 4.79 9.49
7/11/2021 7:45:00 AM 14.28 57.704 0.071 7.18 4.63 9.52
7/11/2021 8:00:00 AM 14.29 57.722 0.071 7.17 4.9 9.54
7/11/2021 8:15:00 AM 14.3 57.74 0.071 7.19 4.75 9.53
7/11/2021 8:30:00 AM 14.31 57.758 0.071 7.15 4.69 9.54
7/11/2021 8:45:00 AM 14.34 57.812 0.071 7.19 4.89 9.57
7/11/2021 9:00:00 AM 14.34 57.812 0.071 7.19 4.81 9.55
7/11/2021 9:15:00 AM 14.37 57.866 0.071 7.2 4.64 9.57
7/11/2021 9:30:00 AM 14.43 57.974 0.071 7.2 4.98 9.62
7/11/2021 9:45:00 AM 14.49 58.082 0.071 7.23 4.99 9.65
7/11/2021 10:00:00 AM 14.51 58.118 0.071 7.2 4.91 9.59
7/11/2021 10:15:00 AM 14.53 58.154 0.07 7.21 4.94 9.56
7/11/2021 10:30:00 AM 14.6 58.28 0.07 7.19 5.22 9.61
7/11/2021 10:45:00 AM 14.67 58.406 0.07 7.2 4.67 9.64
7/11/2021 11:00:00 AM 14.7 58.46 0.07 7.23 4.87 9.59
7/11/2021 11:15:00 AM 14.75 58.55 0.07 7.25 4.98 9.58
7/11/2021 11:30:00 AM 14.76 58.568 0.07 7.23 4.67 9.56
7/11/2021 11:45:00 AM 14.81 58.658 0.07 7.24 4.97 9.58
7/11/2021 12:00:00 PM 14.86 58.748 0.07 7.26 4.87 9.59
7/11/2021 12:15:00 PM 14.91 58.838 0.07 7.25 4.68 9.58
7/11/2021 12:30:00 PM 14.93 58.874 0.07 7.24 5.63 9.56
7/11/2021 12:45:00 PM 14.94 58.892 0.07 7.25 4.81 9.53
7/11/2021 1:00:00 PM 14.95 58.91 0.07 7.21 5.32 9.5
7/11/2021 1:15:00 PM 14.95 58.91 0.07 7.23 5.19 9.46
7/11/2021 1:30:00 PM 14.95 58.91 0.07 7.2 5.38 9.46
7/11/2021 1:45:00 PM 14.97 58.946 0.07 7.22 4.83 9.44
7/11/2021 2:00:00 PM 14.99 58.982 0.069 7.22 4.77 9.45
7/11/2021 2:15:00 PM 15.02 59.036 0.07 7.21 6.72 9.45
7/11/2021 2:30:00 PM 15.02 59.036 0.069 7.22 5.18 9.43
7/11/2021 2:45:00 PM 15.02 59.036 0.07 7.22 4.68 9.41
7/11/2021 3:00:00 PM 15.04 59.072 0.07 7.22 4.83 9.4
7/11/2021 3:15:00 PM 15.05 59.09 0.07 7.18 5.29 9.39
7/11/2021 3:30:00 PM 15.06 59.108 0.07 7.19 6.44 9.38
7/11/2021 3:45:00 PM 15.08 59.144 0.07 7.18 4.65 9.39
7/11/2021 4:00:00 PM 15.09 59.162 0.07 7.18 5.24 9.38
7/11/2021 4:15:00 PM 15.1 59.18 0.07 7.18 4.79 9.38
7/11/2021 4:30:00 PM 15.11 59.198 0.07 7.19 4.67 9.36
7/11/2021 4:45:00 PM 15.12 59.216 0.07 7.18 5.17 9.35
7/11/2021 5:00:00 PM 15.12 59.216 0.07 7.17 4.81 9.35
7/11/2021 5:15:00 PM 15.12 59.216 0.07 7.16 5 9.32
7/11/2021 5:30:00 PM 15.13 59.234 0.069 7.13 4.84 9.29
7/11/2021 5:45:00 PM 15.12 59.216 0.069 7.09 5.25 9.26
7/11/2021 6:00:00 PM 15.13 59.234 0.069 7.12 5.49 9.24
7/11/2021 6:15:00 PM 15.13 59.234 0.069 7.11 5.3 9.23
7/11/2021 6:30:00 PM 15.15 59.27 0.068 7.1 5.92 9.22
7/11/2021 6:45:00 PM 15.15 59.27 0.068 7.07 6.55 9.19
7/11/2021 7:00:00 PM 15.16 59.288 0.068 7.1 7.12 9.18
7/11/2021 7:15:00 PM 15.14 59.252 0.068 7.08 7.9 9.18
7/11/2021 7:30:00 PM 15.14 59.252 0.068 7.07 7.95 9.17
7/11/2021 7:45:00 PM 15.25 59.45 0.066 7.04 9.58 9.15
7/11/2021 8:00:00 PM 15.26 59.468 0.065 7.02 10.44 9.11
7/11/2021 8:15:00 PM 15.26 59.468 0.066 7.01 13.31 9.08
7/11/2021 8:30:00 PM 15.24 59.432 0.067 6.98 11.35 9.06
7/11/2021 8:45:00 PM 15.22 59.396 0.067 6.99 11.19 9.07
7/11/2021 9:00:00 PM 15.23 59.414 0.067 6.97 13.12 9.07
7/11/2021 9:15:00 PM 15.24 59.432 0.068 6.99 13.1 9.07
7/11/2021 9:30:00 PM 15.23 59.414 0.07 7.01 12.6 9.06
7/11/2021 9:45:00 PM 15.24 59.432 0.073 7 13.75 9.07
7/11/2021 10:00:00 PM 15.27 59.486 0.076 7.04 12.94 9.07
7/11/2021 10:15:00 PM 15.3 59.54 0.076 7.03 13.24 9.07
7/11/2021 10:30:00 PM 15.33 59.594 0.076 7.03 12.96 9.07
7/11/2021 10:45:00 PM 15.33 59.594 0.075 7.02 11.15 9.08
7/11/2021 11:00:00 PM 15.34 59.612 0.075 7.02 11.05 9.08
7/11/2021 11:15:00 PM 15.34 59.612 0.076 7.02 11.9 9.09
7/11/2021 11:30:00 PM 15.35 59.63 0.077 7.04 11.13 9.09
7/11/2021 11:45:00 PM 15.35 59.63 0.078 7.04 11.22 9.09
7/12/2021 12:00:00 AM 15.36 59.648 0.078 7.05 10.03 9.09
7/12/2021 12:15:00 AM 15.35 59.63 0.079 7.04 11.03 9.1
7/12/2021 12:30:00 AM 15.34 59.612 0.079 7.05 9.11 9.1
7/12/2021 12:45:00 AM 15.33 59.594 0.079 7.04 10.17 9.1
7/12/2021 1:00:00 AM 15.3 59.54 0.079 7.04 8.76 9.11
7/12/2021 1:15:00 AM 15.27 59.486 0.079 7.04 8.79 9.12
7/12/2021 1:30:00 AM 15.24 59.432 0.079 7.02 9 9.13
7/12/2021 1:45:00 AM 15.21 59.378 0.079 7.02 8.61 9.14
7/12/2021 2:00:00 AM 15.18 59.324 0.079 7.01 8.18 9.14
7/12/2021 2:15:00 AM 15.15 59.27 0.079 7.02 8.04 9.15
7/12/2021 2:30:00 AM 15.11 59.198 0.079 7.01 8.12 9.16
7/12/2021 2:45:00 AM 15.08 59.144 0.08 7 7.53 9.16
7/12/2021 3:00:00 AM 15.05 59.09 0.08 6.99 7.6 9.17
7/12/2021 3:15:00 AM 15.02 59.036 0.081 7.01 7.08 9.18
7/12/2021 3:30:00 AM 15 59 0.081 7 7.35 9.18
7/12/2021 3:45:00 AM 14.97 58.946 0.082 7 6.98 9.18
7/12/2021 4:00:00 AM 14.95 58.91 0.082 7 6.97 9.19
7/12/2021 4:15:00 AM 14.92 58.856 0.082 6.99 7.69 9.2
7/12/2021 4:30:00 AM 14.91 58.838 0.082 7 7.1 9.21
7/12/2021 4:45:00 AM 14.88 58.784 0.083 7 7.34 9.21
7/12/2021 5:00:00 AM 14.86 58.748 0.083 7 7.69 9.21
7/12/2021 5:15:00 AM 14.85 58.73 0.083 7.01 8.22 9.21
7/12/2021 5:30:00 AM 14.83 58.694 0.083 6.99 7.03 9.22
7/12/2021 5:45:00 AM 14.81 58.658 0.084 7 6.74 9.22
7/12/2021 6:00:00 AM 14.8 58.64 0.084 7 7.2 9.22
7/12/2021 6:15:00 AM 14.78 58.604 0.084 6.98 6.54 9.23
7/12/2021 6:30:00 AM 14.77 58.586 0.084 6.98 6.59 9.24
7/12/2021 6:45:00 AM 14.76 58.568 0.085 6.99 6.68 9.25
7/12/2021 7:00:00 AM 14.76 58.568 0.085 7 6.46 9.28
7/12/2021 7:15:00 AM 14.76 58.568 0.085 6.99 6.33 9.29
7/12/2021 7:30:00 AM 14.77 58.586 0.085 6.99 6.51 9.32
7/12/2021 7:45:00 AM 14.77 58.586 0.086 7.01 6.31 9.33
7/12/2021 8:00:00 AM 14.8 58.64 0.086 7.06 5.98 9.36
7/12/2021 8:15:00 AM 14.83 58.694 0.086 7.07 6.32 9.39
7/12/2021 8:30:00 AM 14.85 58.73 0.086 7.05 5.77 9.39
7/12/2021 8:45:00 AM 14.9 58.82 0.086 7.09 5.89 9.42
7/12/2021 9:00:00 AM 14.99 58.982 0.086 7.03 5.92 9.48
7/12/2021 9:15:00 AM 15.06 59.108 0.086 7.11 6.36 9.49
7/12/2021 9:30:00 AM 15.13 59.234 0.086 7.14 5.85 9.49
7/12/2021 9:45:00 AM 15.29 59.522 0.086 7.15 5.65 9.51
7/12/2021 10:00:00 AM 15.44 59.792 0.086 7.15 5.63 9.52
7/12/2021 10:15:00 AM 15.47 59.846 0.086 7.14 5.54 9.47
7/12/2021 10:30:00 AM 15.7 60.26 0.086 7.18 5.48 9.5
7/12/2021 10:45:00 AM 15.85 60.53 0.086 7.23 5.77 9.49
7/12/2021 11:00:00 AM 15.92 60.656 0.086 7.24 6.02 9.46
7/12/2021 11:15:00 AM 16.02 60.836 0.086 7.23 5.42 9.47
7/12/2021 11:30:00 AM 16.09 60.962 0.086 7.25 5.54 9.43
7/12/2021 11:45:00 AM 16.28 61.304 0.086 7.26 5.98 9.45
7/12/2021 12:00:00 PM 16.54 61.772 0.086 7.27 5.65 9.42
7/12/2021 12:15:00 PM 16.67 62.006 0.085 7.28 5.61 9.38
7/12/2021 12:30:00 PM 16.68 62.024 0.085 7.28 5.54 9.33
7/12/2021 12:45:00 PM 16.79 62.222 0.085 7.28 5.19 9.35
7/12/2021 1:00:00 PM 16.86 62.348 0.085 7.3 5.23 9.37
7/12/2021 1:15:00 PM 17.01 62.618 0.085 7.3 5.51 9.35
7/12/2021 1:30:00 PM 17.09 62.762 0.084 7.31 5.46 9.33
7/12/2021 1:45:00 PM 17.13 62.834 0.084 7.26 5.21 9.28
7/12/2021 2:00:00 PM 17.12 62.816 0.084 7.29 5.39 9.19
7/12/2021 2:15:00 PM 17.04 62.672 0.084 7.23 5.36 9.07
7/12/2021 2:30:00 PM 17.01 62.618 0.084 7.24 5.34 9.12
7/12/2021 2:45:00 PM 17.12 62.816 0.083 7.24 5.24 9.19
7/12/2021 3:00:00 PM 17.29 63.122 0.083 7.28 5.45 9.24
7/12/2021 3:15:00 PM 17.44 63.392 0.083 7.3 5.96 9.23
7/12/2021 3:30:00 PM 17.47 63.446 0.083 7.29 5.33 9.18
7/12/2021 3:45:00 PM 17.54 63.572 0.083 7.28 5.38 9.15
7/12/2021 4:00:00 PM 17.57 63.626 0.083 7.28 5.02 9.14
7/12/2021 4:15:00 PM 17.6 63.68 0.083 7.27 5.2 9.1
7/12/2021 4:30:00 PM 17.6 63.68 0.083 7.27 5.23 9.11
7/12/2021 4:45:00 PM 17.57 63.626 0.083 7.26 4.91 9.1
7/12/2021 5:00:00 PM 17.54 63.572 0.083 7.26 5.3 9.05
7/12/2021 5:15:00 PM 17.53 63.554 0.082 7.26 5.14 9.06
7/12/2021 5:30:00 PM 17.6 63.68 0.082 7.27 5.29 9.1
7/12/2021 5:45:00 PM 17.64 63.752 0.082 7.27 4.81 9.08
7/12/2021 6:00:00 PM 17.65 63.77 0.082 7.27 4.95 9.04
7/12/2021 6:15:00 PM 17.58 63.644 0.082 7.25 5.49 9.01
7/12/2021 6:30:00 PM 17.52 63.536 0.082 7.23 5.82 8.93
7/12/2021 6:45:00 PM 17.46 63.428 0.082 7.21 5.09 8.89
7/12/2021 7:00:00 PM 17.4 63.32 0.081 7.19 5.95 8.88
7/12/2021 7:15:00 PM 17.34 63.212 0.081 7.17 5.33 8.88
7/12/2021 7:30:00 PM 17.31 63.158 0.081 7.17 4.9 8.9
7/12/2021 7:45:00 PM 17.25 63.05 0.081 7.17 5.15 8.91
7/12/2021 8:00:00 PM 17.17 62.906 0.081 7.15 5.36 8.9
7/12/2021 8:15:00 PM 17.08 62.744 0.081 7.15 5.15 8.89
7/12/2021 8:30:00 PM 16.99 62.582 0.081 7.14 5.18 8.89
7/12/2021 8:45:00 PM 16.92 62.456 0.081 7.14 5.58 8.88
7/12/2021 9:00:00 PM 16.86 62.348 0.081 7.13 5.38 8.88
7/12/2021 9:15:00 PM 16.79 62.222 0.081 7.12 4.83 8.88
7/12/2021 9:30:00 PM 16.72 62.096 0.081 7.11 5.08 8.89
7/12/2021 9:45:00 PM 16.66 61.988 0.081 7.09 5.73 8.89
7/12/2021 10:00:00 PM 16.6 61.88 0.081 7.09 5.32 8.9
7/12/2021 10:15:00 PM 16.55 61.79 0.081 7.08 5.87 8.91
7/12/2021 10:30:00 PM 16.51 61.718 0.08 7.07 5.68 8.91
7/12/2021 10:45:00 PM 16.46 61.628 0.08 7.06 5.25 8.92
7/12/2021 11:00:00 PM 16.42 61.556 0.08 7.04 5.09 8.92
7/12/2021 11:15:00 PM 16.38 61.484 0.08 7.04 5.33 8.93
7/12/2021 11:30:00 PM 16.34 61.412 0.08 7.03 5.14 8.94
7/12/2021 11:45:00 PM 16.29 61.322 0.08 7.04 5.22 8.95
7/13/2021 12:00:00 AM 16.25 61.25 0.08 7.03 5.3 8.96
7/13/2021 12:15:00 AM 16.21 61.178 0.08 7.01 5.05 8.96
7/13/2021 12:30:00 AM 16.16 61.088 0.08 7.02 5.4 8.97
7/13/2021 12:45:00 AM 16.13 61.034 0.08 7.01 5.52 8.98
7/13/2021 1:00:00 AM 16.09 60.962 0.08 7.01 5.36 8.99
7/13/2021 1:15:00 AM 16.06 60.908 0.079 7 5.35 8.99
7/13/2021 1:30:00 AM 16.03 60.854 0.08 6.99 5.73 8.99
7/13/2021 1:45:00 AM 15.99 60.782 0.079 6.99 5.84 9
7/13/2021 2:00:00 AM 15.95 60.71 0.079 6.98 5.3 9.01
7/13/2021 2:15:00 AM 15.91 60.638 0.079 6.96 5.94 9.02
7/13/2021 2:30:00 AM 15.87 60.566 0.079 6.99 5.73 9.03
7/13/2021 2:45:00 AM 15.83 60.494 0.079 6.98 5.4 9.04
7/13/2021 3:00:00 AM 15.79 60.422 0.079 6.98 5.1 9.04
7/13/2021 3:15:00 AM 15.75 60.35 0.079 6.97 5.5 9.05
7/13/2021 3:30:00 AM 15.72 60.296 0.079 6.97 5.13 9.06
7/13/2021 3:45:00 AM 15.68 60.224 0.079 6.97 5.05 9.06
7/13/2021 4:00:00 AM 15.65 60.17 0.079 6.96 5.47 9.07
7/13/2021 4:15:00 AM 15.62 60.116 0.078 6.96 5.55 9.08
7/13/2021 4:30:00 AM 15.59 60.062 0.078 6.96 5.3 9.08
7/13/2021 4:45:00 AM 15.56 60.008 0.078 6.95 5.23 9.09
7/13/2021 5:00:00 AM 15.54 59.972 0.078 6.96 6.04 9.1
7/13/2021 5:15:00 AM 15.52 59.936 0.078 6.94 5.5 9.1
7/13/2021 5:30:00 AM 15.49 59.882 0.078 6.96 5.7 9.11
7/13/2021 5:45:00 AM 15.47 59.846 0.078 6.95 5.79 9.11
7/13/2021 6:00:00 AM 15.44 59.792 0.078 6.94 5.58 9.12
7/13/2021 6:15:00 AM 15.42 59.756 0.078 6.94 5.64 9.14
7/13/2021 6:30:00 AM 15.41 59.738 0.078 6.94 6.04 9.16
7/13/2021 6:45:00 AM 15.39 59.702 0.078 6.96 5.26 9.18
7/13/2021 7:00:00 AM 15.39 59.702 0.078 6.96 6 9.23
7/13/2021 7:15:00 AM 15.4 59.72 0.078 6.97 5.2 9.27
7/13/2021 7:30:00 AM 15.41 59.738 0.077 6.99 5.55 9.29
7/13/2021 7:45:00 AM 15.43 59.774 0.077 6.99 5.13 9.32
7/13/2021 8:00:00 AM 15.44 59.792 0.077 7.03 5.58 9.31
7/13/2021 8:15:00 AM 15.44 59.792 0.077 7.04 5.34 9.28
7/13/2021 8:30:00 AM 15.44 59.792 0.077 7.04 5.43 9.25
7/13/2021 8:45:00 AM 15.44 59.792 0.077 7.04 5.3 9.28
7/13/2021 9:00:00 AM 15.45 59.81 0.077 7.06 5.67 9.32
7/13/2021 9:15:00 AM 15.45 59.81 0.077 7.04 5.18 9.33
7/13/2021 9:30:00 AM 15.49 59.882 0.076 7.07 5.06 9.39
7/13/2021 9:45:00 AM 15.57 60.026 0.076 7.1 5.09 9.45
7/13/2021 10:00:00 AM 15.65 60.17 0.076 7.14 6.44 9.46
7/13/2021 10:15:00 AM 15.73 60.314 0.076 7.15 5.21 9.46
7/13/2021 10:30:00 AM 15.85 60.53 0.076 7.17 4.98 9.47
7/13/2021 10:45:00 AM 15.98 60.764 0.076 7.19 4.75 9.48
7/13/2021 11:00:00 AM 16.1 60.98 0.076 7.21 5.67 9.48
7/13/2021 11:15:00 AM 16.17 61.106 0.076 7.22 5.1 9.47
7/13/2021 11:30:00 AM 16.41 61.538 0.076 7.24 4.83 9.48
7/13/2021 11:45:00 AM 16.65 61.97 0.075 7.25 4.75 9.45
7/13/2021 12:00:00 PM 16.84 62.312 0.075 7.26 5.77 9.44
7/13/2021 12:15:00 PM 16.91 62.438 0.075 7.26 4.97 9.38
7/13/2021 12:30:00 PM 17.02 62.636 0.075 7.25 5.32 9.34
7/13/2021 12:45:00 PM 17.18 62.924 0.075 7.26 4.98 9.3
7/13/2021 1:00:00 PM 17.27 63.086 0.075 7.26 4.95 9.27
7/13/2021 1:15:00 PM 17.45 63.41 0.076 7.26 5.28 9.26
7/13/2021 1:30:00 PM 17.59 63.662 0.075 7.27 4.93 9.21
7/13/2021 1:45:00 PM 17.59 63.662 0.075 7.25 5 9.16
7/13/2021 2:00:00 PM 17.78 64.004 0.075 7.28 5.39 9.23
7/13/2021 2:15:00 PM 18.09 64.562 0.075 7.3 4.89 9.21
7/13/2021 2:30:00 PM 18.17 64.706 0.075 7.28 5.16 9.07
7/13/2021 2:45:00 PM 18.1 64.58 0.075 7.26 5 9.05
7/13/2021 3:00:00 PM 17.97 64.346 0.075 7.25 5 9.01
7/13/2021 3:15:00 PM 18.04 64.472 0.073 7.23 6.12 8.94
7/13/2021 3:30:00 PM 18.21 64.778 0.071 7.19 7.82 8.9
7/13/2021 3:45:00 PM 18.44 65.192 0.071 7.2 7.32 8.95
7/13/2021 4:00:00 PM 18.64 65.552 0.073 7.18 6.99 8.93
7/13/2021 4:15:00 PM 18.73 65.714 0.074 7.17 6.34 8.88
7/13/2021 4:30:00 PM 18.86 65.948 0.074 7.17 6.58 8.83
7/13/2021 4:45:00 PM 18.98 66.164 0.073 7.15 6.47 8.78
7/13/2021 5:00:00 PM 19.05 66.29 0.074 7.17 6.51 8.75
7/13/2021 5:15:00 PM 19.03 66.254 0.074 7.17 6.65 8.73
7/13/2021 5:30:00 PM 19.04 66.272 0.075 7.18 7.05 8.73
7/13/2021 5:45:00 PM 19.1 66.38 0.076 7.18 7.51 8.72
7/13/2021 6:00:00 PM 19.06 66.308 0.076 7.16 5.75 8.68
7/13/2021 6:15:00 PM 18.98 66.164 0.078 7.16 5.82 8.64
7/13/2021 6:30:00 PM 18.9 66.02 0.08 7.16 5.61 8.61
7/13/2021 6:45:00 PM 18.87 65.966 0.08 7.15 6.24 8.63
7/13/2021 7:00:00 PM 18.8 65.84 0.081 7.14 6.15 8.56
7/13/2021 7:15:00 PM 18.75 65.75 0.081 7.12 5.5 8.53
7/13/2021 7:30:00 PM 18.71 65.67799 0.078 7.13 7.02 8.5
7/13/2021 7:45:00 PM 18.59 65.462 0.078 7.1 7.23 8.48
7/13/2021 8:00:00 PM 18.42 65.156 0.078 7.09 7.8 8.48
7/13/2021 8:15:00 PM 18.33 64.994 0.079 7.06 7.6 8.47
7/13/2021 8:30:00 PM 18.24 64.832 0.079 7.04 8.41 8.48
7/13/2021 8:45:00 PM 18.13 64.634 0.079 7.04 8.39 8.5
7/13/2021 9:00:00 PM 18 64.4 0.079 7.04 8.82 8.52
7/13/2021 9:15:00 PM 17.89 64.202 0.08 7.04 8.75 8.53
7/13/2021 9:30:00 PM 17.78 64.004 0.082 7.04 11.07 8.53
7/13/2021 9:45:00 PM 17.68 63.824 0.085 7.04 11.42 8.55
7/13/2021 10:00:00 PM 17.59 63.662 0.089 7.04 10.9 8.58
7/13/2021 10:15:00 PM 17.5 63.5 0.09 7.06 11.61 8.62
7/13/2021 10:30:00 PM 17.43 63.374 0.089 7.07 10.76 8.64
7/13/2021 10:45:00 PM 17.36 63.248 0.088 7.07 11.75 8.67
7/13/2021 11:00:00 PM 17.3 63.14 0.088 7.07 10.74 8.69
7/13/2021 11:15:00 PM 17.23 63.014 0.088 7.07 12.43 8.72
7/13/2021 11:30:00 PM 17.16 62.888 0.088 7.09 12.03 8.74
7/13/2021 11:45:00 PM 17.1 62.78 0.087 7.08 11.23 8.75
7/14/2021 12:00:00 AM 17.04 62.672 0.087 7.08 10.81 8.77
7/14/2021 12:15:00 AM 16.98 62.564 0.086 7.08 12.11 8.79
7/14/2021 12:30:00 AM 16.91 62.438 0.086 7.08 12.35 8.81
7/14/2021 12:45:00 AM 16.85 62.33 0.086 7.1 11.1 8.83
7/14/2021 1:00:00 AM 16.79 62.222 0.086 7.09 11.43 8.84
7/14/2021 1:15:00 AM 16.73 62.114 0.086 7.09 10.29 8.86
7/14/2021 1:30:00 AM 16.66 61.988 0.086 7.09 10.04 8.87
7/14/2021 1:45:00 AM 16.59 61.862 0.085 7.07 9.26 8.88
7/14/2021 2:00:00 AM 16.53 61.754 0.085 7.08 8.87 8.9
7/14/2021 2:15:00 AM 16.46 61.628 0.084 7.07 8.79 8.92
7/14/2021 2:30:00 AM 16.39 61.502 0.084 7.08 8.92 8.94
7/14/2021 2:45:00 AM 16.33 61.394 0.084 7.09 8.56 8.95
7/14/2021 3:00:00 AM 16.27 61.286 0.084 7.07 8.14 8.96
7/14/2021 3:15:00 AM 16.21 61.178 0.085 7.08 7.86 8.97
7/14/2021 3:30:00 AM 16.16 61.088 0.085 7.07 7.9 8.99
7/14/2021 3:45:00 AM 16.1 60.98 0.085 7.08 7.4 9
7/14/2021 4:00:00 AM 16.04 60.872 0.085 7.07 7.89 9.01
7/14/2021 4:15:00 AM 16 60.8 0.085 7.07 7.53 9.01
7/14/2021 4:30:00 AM 15.94 60.692 0.085 7.07 7.43 9.03
7/14/2021 4:45:00 AM 15.9 60.62 0.085 7.08 7.31 9.03
7/14/2021 5:00:00 AM 15.84 60.512 0.086 7.07 7.67 9.05
7/14/2021 5:15:00 AM 15.79 60.422 0.086 7.08 7.63 9.06
7/14/2021 5:30:00 AM 15.75 60.35 0.086 7.07 7.78 9.07
7/14/2021 5:45:00 AM 15.71 60.278 0.086 7.07 7.76 9.08
7/14/2021 6:00:00 AM 15.67 60.206 0.087 7.07 7.09 9.09
7/14/2021 6:15:00 AM 15.64 60.152 0.087 7.09 8.33 9.1
7/14/2021 6:30:00 AM 15.6 60.08 0.087 7.08 7.44 9.12
7/14/2021 6:45:00 AM 15.57 60.026 0.088 7.08 7.22 9.13
7/14/2021 7:00:00 AM 15.54 59.972 0.088 7.08 7.48 9.15
7/14/2021 7:15:00 AM 15.51 59.918 0.088 7.06 7.53 9.17
7/14/2021 7:30:00 AM 15.5 59.9 0.088 7.09 6.85 9.2
7/14/2021 7:45:00 AM 15.48 59.864 0.088 7.09 6.9 9.2
7/14/2021 8:00:00 AM 15.46 59.828 0.088 7.09 6.7 9.2
7/14/2021 8:15:00 AM 15.43 59.774 0.088 7.09 6.66 9.21
7/14/2021 8:30:00 AM 15.41 59.738 0.087 7.11 6.27 9.23
7/14/2021 8:45:00 AM 15.4 59.72 0.087 7.11 6.28 9.25
7/14/2021 9:00:00 AM 15.39 59.702 0.087 7.12 6.35 9.27
7/14/2021 9:15:00 AM 15.4 59.72 0.087 7.13 6.43 9.29
7/14/2021 9:30:00 AM 15.4 59.72 0.087 7.14 6.2 9.3
7/14/2021 9:45:00 AM 15.38 59.684 0.087 7.13 5.98 9.28
7/14/2021 10:00:00 AM 15.39 59.702 0.086 7.14 6.21 9.31
7/14/2021 10:15:00 AM 15.41 59.738 0.086 7.15 6.34 9.36
7/14/2021 10:30:00 AM 15.52 59.936 0.086 7.18 6.09 9.42
7/14/2021 10:45:00 AM 15.58 60.044 0.086 7.2 6.25 9.42
7/14/2021 11:00:00 AM 15.63 60.134 0.086 7.21 6.05 9.42
7/14/2021 11:15:00 AM 15.71 60.278 0.085 7.23 6.23 9.44
7/14/2021 11:30:00 AM 15.83 60.494 0.085 7.24 5.95 9.44
7/14/2021 11:45:00 AM 15.89 60.602 0.085 7.25 6.17 9.43
7/14/2021 12:00:00 PM 16.08 60.944 0.085 7.25 5.6 9.45
7/14/2021 12:15:00 PM 16.3 61.34 0.084 7.26 5.75 9.45
7/14/2021 12:30:00 PM 16.48 61.664 0.084 7.28 6.29 9.41
7/14/2021 12:45:00 PM 16.72 62.096 0.084 7.3 6.39 9.4
7/14/2021 1:00:00 PM 16.85 62.33 0.084 7.3 6.23 9.36
7/14/2021 1:15:00 PM 17.03 62.654 0.083 7.31 6.4 9.34
7/14/2021 1:30:00 PM 17.19 62.942 0.083 7.3 6.4 9.31
7/14/2021 1:45:00 PM 17.16 62.888 0.083 7.31 5.78 9.26
7/14/2021 2:00:00 PM 17.27 63.086 0.083 7.31 6.12 9.27
7/14/2021 2:15:00 PM 17.38 63.284 0.082 7.3 6.19 9.24
7/14/2021 2:30:00 PM 17.49 63.482 0.082 7.31 6.28 9.21
7/14/2021 2:45:00 PM 17.43 63.374 0.082 7.3 5.51 9.16
7/14/2021 3:00:00 PM 17.5 63.5 0.082 7.31 5.92 9.21
7/14/2021 3:15:00 PM 17.63 63.734 0.082 7.31 6.2 9.17
7/14/2021 3:30:00 PM 17.74 63.932 0.082 7.31 5.87 9.16
7/14/2021 3:45:00 PM 17.84 64.112 0.081 7.31 5.8 9.15
7/14/2021 4:00:00 PM 17.94 64.292 0.081 7.29 5.63 9.13
7/14/2021 4:15:00 PM 17.92 64.256 0.081 7.3 5.76 9.06
7/14/2021 4:30:00 PM 17.82 64.076 0.08 7.28 5.97 9.02
7/14/2021 4:45:00 PM 17.74 63.932 0.08 7.27 6.54 9.06
7/14/2021 5:00:00 PM 17.71 63.878 0.08 7.28 6.71 9.1
7/14/2021 5:15:00 PM 17.7 63.86 0.08 7.29 6.09 9.09
7/14/2021 5:30:00 PM 17.66 63.788 0.079 7.28 5.94 9.05
7/14/2021 5:45:00 PM 17.62 63.716 0.079 7.27 5.7 9.05
7/14/2021 6:00:00 PM 17.63 63.734 0.079 7.27 6.38 9.05
7/14/2021 6:15:00 PM 17.55 63.59 0.079 7.27 6.04 9.02
7/14/2021 6:30:00 PM 17.45 63.41 0.079 7.26 5.9 9.01
7/14/2021 6:45:00 PM 17.37 63.266 0.079 7.24 6.5 9.01
7/14/2021 7:00:00 PM 17.24 63.032 0.078 7.23 6.09 8.99
7/14/2021 7:15:00 PM 17.13 62.834 0.078 7.22 5.97 8.99
7/14/2021 7:30:00 PM 17.03 62.654 0.078 7.21 6.01 9.01
7/14/2021 7:45:00 PM 16.94 62.492 0.078 7.2 6.03 9
7/14/2021 8:00:00 PM 16.84 62.312 0.078 7.19 6.17 9
7/14/2021 8:15:00 PM 16.74 62.132 0.078 7.19 6.12 9
7/14/2021 8:30:00 PM 16.65 61.97 0.077 7.19 6.19 8.99
7/14/2021 8:45:00 PM 16.56 61.808 0.078 7.19 6.31 8.99
7/14/2021 9:00:00 PM 16.47 61.646 0.077 7.17 6.52 9
7/14/2021 9:15:00 PM 16.38 61.484 0.077 7.16 6.38 9.01
7/14/2021 9:30:00 PM 16.28 61.304 0.077 7.16 6.44 9.03
7/14/2021 9:45:00 PM 16.19 61.142 0.077 7.15 6.42 9.04
7/14/2021 10:00:00 PM 16.1 60.98 0.077 7.16 6.67 9.06
7/14/2021 10:15:00 PM 16.01 60.818 0.077 7.16 6.08 9.07
7/14/2021 10:30:00 PM 15.93 60.674 0.077 7.15 6.29 9.08
7/14/2021 10:45:00 PM 15.85 60.53 0.076 7.14 6.11 9.1
7/14/2021 11:00:00 PM 15.77 60.386 0.077 7.12 6.23 9.12
7/14/2021 11:15:00 PM 15.69 60.242 0.077 7.13 6.56 9.14
7/14/2021 11:30:00 PM 15.62 60.116 0.077 7.12 5.88 9.15
7/14/2021 11:45:00 PM 15.56 60.008 0.076 7.12 6.08 9.17
7/15/2021 12:00:00 AM 15.5 59.9 0.076 7.14 6.42 9.17
7/15/2021 12:15:00 AM 15.44 59.792 0.076 7.14 6.15 9.19
7/15/2021 12:30:00 AM 15.37 59.666 0.076 7.12 5.95 9.2
7/15/2021 12:45:00 AM 15.3 59.54 0.076 7.13 5.97 9.22
7/15/2021 1:00:00 AM 15.24 59.432 0.075 7.12 5.59 9.23
7/15/2021 1:15:00 AM 15.18 59.324 0.075 7.12 5.93 9.25
7/15/2021 1:30:00 AM 15.12 59.216 0.075 7.12 5.95 9.26
7/15/2021 1:45:00 AM 15.06 59.108 0.075 7.12 5.99 9.28
7/15/2021 2:00:00 AM 15.01 59.018 0.075 7.12 6.05 9.29
7/15/2021 2:15:00 AM 14.96 58.928 0.075 7.1 6.04 9.3
7/15/2021 2:30:00 AM 14.91 58.838 0.075 7.12 5.79 9.31
7/15/2021 2:45:00 AM 14.87 58.766 0.074 7.12 5.92 9.32
7/15/2021 3:00:00 AM 14.81 58.658 0.075 7.13 5.96 9.33
7/15/2021 3:15:00 AM 14.76 58.568 0.074 7.14 5.7 9.34
7/15/2021 3:30:00 AM 14.71 58.478 0.074 7.13 5.77 9.35
7/15/2021 3:45:00 AM 14.65 58.37 0.074 7.13 6.22 9.37
7/15/2021 4:00:00 AM 14.61 58.298 0.074 7.13 6.09 9.38
7/15/2021 4:15:00 AM 14.56 58.208 0.074 7.13 5.6 9.39
7/15/2021 4:30:00 AM 14.52 58.136 0.074 7.14 6.39 9.4
7/15/2021 4:45:00 AM 14.47 58.046 0.074 7.14 5.86 9.41
7/15/2021 5:00:00 AM 14.42 57.956 0.073 7.14 6.05 9.43
7/15/2021 5:15:00 AM 14.38 57.884 0.073 7.14 6.18 9.43
7/15/2021 5:30:00 AM 14.33 57.794 0.073 7.14 6.21 9.45
7/15/2021 5:45:00 AM 14.29 57.722 0.073 7.13 6.45 9.46
7/15/2021 6:00:00 AM 14.25 57.65 0.073 7.15 6.99 9.47
7/15/2021 6:15:00 AM 14.06 57.308 0.073 7.14 6.27 9.54
7/15/2021 6:30:00 AM 14.03 57.254 0.073 7.15 5.94 9.55
7/15/2021 6:45:00 AM 14 57.2 0.073 7.14 6.4 9.58
7/15/2021 7:00:00 AM 13.97 57.146 0.073 7.15 5.68 9.6
7/15/2021 7:15:00 AM 13.96 57.128 0.073 7.14 5.91 9.62
7/15/2021 7:30:00 AM 13.95 57.11 0.073 7.17 5.81 9.64
7/15/2021 7:45:00 AM 13.94 57.092 0.073 7.18 5.63 9.66
7/15/2021 8:00:00 AM 13.93 57.074 0.073 7.18 5.97 9.69
7/15/2021 8:15:00 AM 13.94 57.092 0.072 7.17 5.93 9.71
7/15/2021 8:30:00 AM 13.98 57.164 0.072 7.19 6.17 9.73
7/15/2021 8:45:00 AM 14.06 57.308 0.072 7.2 5.6 9.75
7/15/2021 9:00:00 AM 14.14 57.452 0.072 7.2 5.72 9.76
7/15/2021 9:15:00 AM 14.24 57.632 0.072 7.2 5.76 9.76
7/15/2021 9:30:00 AM 14.35 57.83 0.072 7.22 5.73 9.77
7/15/2021 9:45:00 AM 14.48 58.064 0.072 7.21 5.69 9.76
7/15/2021 10:00:00 AM 14.6 58.28 0.072 7.23 5.45 9.74
7/15/2021 10:15:00 AM 14.76 58.568 0.071 7.24 5.6 9.75
7/15/2021 10:30:00 AM 14.91 58.838 0.071 7.27 5.95 9.73
7/15/2021 10:45:00 AM 15.05 59.09 0.071 7.27 6.53 9.7
7/15/2021 11:00:00 AM 15.26 59.468 0.071 7.28 5.88 9.68
7/15/2021 11:15:00 AM 15.51 59.918 0.071 7.29 5.63 9.67
7/15/2021 11:30:00 AM 15.66 60.188 0.071 7.3 5.83 9.63
7/15/2021 11:45:00 AM 15.85 60.53 0.071 7.29 6.49 9.6
7/15/2021 12:00:00 PM 16.04 60.872 0.071 7.32 5.97 9.57
7/15/2021 12:15:00 PM 16.27 61.286 0.07 7.32 5.73 9.54
7/15/2021 12:30:00 PM 16.39 61.502 0.07 7.32 6 9.5
7/15/2021 12:45:00 PM 16.55 61.79 0.07 7.32 6.02 9.47
7/15/2021 1:00:00 PM 16.74 62.132 0.07 7.31 5.72 9.45
7/15/2021 1:15:00 PM 16.88 62.384 0.07 7.32 6.13 9.42
7/15/2021 1:30:00 PM 17.04 62.672 0.07 7.32 6.39 9.39
7/15/2021 1:45:00 PM 17.08 62.744 0.07 7.34 5.73 9.34
7/15/2021 2:00:00 PM 17.1 62.78 0.07 7.32 5.57 9.31
7/15/2021 2:15:00 PM 17.21 62.978 0.07 7.33 6.01 9.31
7/15/2021 2:30:00 PM 17.39 63.302 0.07 7.33 5.55 9.29
7/15/2021 2:45:00 PM 17.5 63.5 0.07 7.33 5.87 9.26
7/15/2021 3:00:00 PM 17.57 63.626 0.07 7.34 5.73 9.23
7/15/2021 3:15:00 PM 17.64 63.752 0.07 7.34 5.63 9.21
7/15/2021 3:30:00 PM 17.72 63.896 0.07 7.33 5.57 9.17
7/15/2021 3:45:00 PM 17.75 63.95 0.07 7.32 5.88 9.16
7/15/2021 4:00:00 PM 17.77 63.986 0.069 7.33 6.28 9.14
7/15/2021 4:15:00 PM 17.83 64.094 0.069 7.32 5.79 9.13
7/15/2021 4:30:00 PM 17.78 64.004 0.069 7.33 6.09 9.1
7/15/2021 4:45:00 PM 17.73 63.914 0.069 7.32 5.73 9.09
7/15/2021 5:00:00 PM 17.71 63.878 0.069 7.31 5.66 9.08
7/15/2021 5:15:00 PM 17.65 63.77 0.069 7.29 5.65 9.07
7/15/2021 5:30:00 PM 17.57 63.626 0.069 7.29 5.56 9.05
7/15/2021 5:45:00 PM 17.48 63.464 0.069 7.26 6.3 9.05
7/15/2021 6:00:00 PM 17.45 63.41 0.069 7.28 6.15 9.09
7/15/2021 6:15:00 PM 17.42 63.356 0.069 7.27 6.13 9.08
7/15/2021 6:30:00 PM 17.36 63.248 0.068 7.26 5.77 9.06
7/15/2021 6:45:00 PM 17.27 63.086 0.069 7.26 5.94 9.04
7/15/2021 7:00:00 PM 17.17 62.906 0.068 7.26 6.13 9.03
7/15/2021 7:15:00 PM 17.07 62.726 0.068 7.23 5.75 9.02
7/15/2021 7:30:00 PM 16.96 62.528 0.068 7.22 5.55 9.03
7/15/2021 7:45:00 PM 16.84 62.312 0.068 7.23 5.61 9.03
7/15/2021 8:00:00 PM 16.75 62.15 0.068 7.22 5.79 9.02
7/15/2021 8:15:00 PM 16.64 61.952 0.068 7.2 6.07 9.02
7/15/2021 8:30:00 PM 16.53 61.754 0.068 7.19 6.04 9.01
7/15/2021 8:45:00 PM 16.42 61.556 0.068 7.17 5.99 9.01
7/15/2021 9:00:00 PM 16.32 61.376 0.068 7.17 6.3 9.02
7/15/2021 9:15:00 PM 16.21 61.178 0.068 7.16 5.74 9.04
7/15/2021 9:30:00 PM 16.11 60.998 0.069 7.13 5.94 9.05
7/15/2021 9:45:00 PM 16.01 60.818 0.068 7.14 6.03 9.06
7/15/2021 10:00:00 PM 15.91 60.638 0.068 7.12 6.12 9.08
7/15/2021 10:15:00 PM 15.81 60.458 0.068 7.12 6.58 9.1
7/15/2021 10:30:00 PM 15.72 60.296 0.068 7.12 6.21 9.12
7/15/2021 10:45:00 PM 15.63 60.134 0.068 7.11 6.22 9.14
7/15/2021 11:00:00 PM 15.55 59.99 0.068 7.12 6.67 9.16
7/15/2021 11:15:00 PM 15.46 59.828 0.068 7.1 5.84 9.17
7/15/2021 11:30:00 PM 15.38 59.684 0.068 7.1 6.01 9.19
7/15/2021 11:45:00 PM 15.31 59.558 0.068 7.11 5.94 9.2
7/16/2021 12:00:00 AM 15.23 59.414 0.068 7.1 6.03 9.22
7/16/2021 12:15:00 AM 15.16 59.288 0.068 7.1 5.74 9.24
7/16/2021 12:30:00 AM 15.08 59.144 0.068 7.1 5.8 9.25
7/16/2021 12:45:00 AM 15.01 59.018 0.068 7.08 5.98 9.27
7/16/2021 1:00:00 AM 14.94 58.892 0.068 7.09 6.08 9.29
7/16/2021 1:15:00 AM 14.87 58.766 0.068 7.1 5.98 9.3
7/16/2021 1:30:00 AM 14.8 58.64 0.068 7.09 6.51 9.31
7/16/2021 1:45:00 AM 14.74 58.532 0.067 7.09 5.96 9.32
7/16/2021 2:00:00 AM 14.67 58.406 0.068 7.09 5.67 9.34
7/16/2021 2:15:00 AM 14.62 58.316 0.067 7.08 6 9.35
7/16/2021 2:30:00 AM 14.56 58.208 0.067 7.09 5.99 9.37
7/16/2021 2:45:00 AM 14.51 58.118 0.068 7.08 5.57 9.37
7/16/2021 3:00:00 AM 14.46 58.028 0.067 7.09 5.86 9.39
7/16/2021 3:15:00 AM 14.42 57.956 0.067 7.08 5.89 9.4
7/16/2021 3:30:00 AM 14.37 57.866 0.067 7.08 5.97 9.42
7/16/2021 3:45:00 AM 14.31 57.758 0.067 7.07 5.83 9.43
7/16/2021 4:00:00 AM 14.27 57.686 0.067 7.08 5.79 9.44
7/16/2021 4:15:00 AM 14.23 57.614 0.067 7.08 5.94 9.45
7/16/2021 4:30:00 AM 14.18 57.524 0.067 7.07 5.6 9.46
7/16/2021 4:45:00 AM 14.15 57.47 0.067 7.07 5.77 9.47
7/16/2021 5:00:00 AM 14.11 57.398 0.067 7.07 7.43 9.47
7/16/2021 5:15:00 AM 14.07 57.326 0.067 7.07 6.09 9.48
7/16/2021 5:30:00 AM 14.04 57.272 0.067 7.06 6.07 9.49
7/16/2021 5:45:00 AM 14.01 57.218 0.067 7.06 5.95 9.5
7/16/2021 6:00:00 AM 13.99 57.182 0.067 7.06 5.6 9.51
7/16/2021 6:15:00 AM 13.97 57.146 0.067 7.06 6.23 9.52
7/16/2021 6:30:00 AM 13.94 57.092 0.067 7.06 6.25 9.54
7/16/2021 6:45:00 AM 13.92 57.056 0.067 7.06 6.08 9.56
7/16/2021 7:00:00 AM 13.91 57.038 0.067 7.06 5.68 9.58
7/16/2021 7:15:00 AM 13.92 57.056 0.067 7.07 6.3 9.63
7/16/2021 7:30:00 AM 13.94 57.092 0.067 7.09 5.57 9.65
7/16/2021 7:45:00 AM 13.97 57.146 0.066 7.09 5.73 9.65
7/16/2021 8:00:00 AM 13.99 57.182 0.066 7.1 5.62 9.65
7/16/2021 8:15:00 AM 14.01 57.218 0.066 7.09 5.89 9.66
7/16/2021 8:30:00 AM 14.03 57.254 0.066 7.08 5.95 9.66
7/16/2021 8:45:00 AM 14.05 57.29 0.066 7.09 5.22 9.67
7/16/2021 9:00:00 AM 14.12 57.416 0.066 7.1 5.57 9.72
7/16/2021 9:15:00 AM 14.2 57.56 0.066 7.14 5.42 9.73
7/16/2021 9:30:00 AM 14.33 57.794 0.066 7.17 5.53 9.74
7/16/2021 9:45:00 AM 14.45 58.01 0.066 7.19 5.68 9.73
7/16/2021 10:00:00 AM 14.55 58.19 0.066 7.21 5.66 9.73
7/16/2021 10:15:00 AM 14.68 58.424 0.066 7.21 5.88 9.73
7/16/2021 10:30:00 AM 14.77 58.586 0.066 7.23 5.37 9.71
7/16/2021 10:45:00 AM 14.84 58.712 0.066 7.23 5.28 9.7
7/16/2021 11:00:00 AM 14.93 58.874 0.066